Mississippi River (Missouri), Grafton (05587450)

StateMissouriLatestUnknown (61700 cfs)
RiverMississippi RiverRatingObservedEstimated
Updated2020-08-06 10:30 (22 minutes ago)Flood - The river is flooding. Obstacles can be treacherous or deadly. The river should be avoided at this stage for casual trips and definitely for the inexperienced. Trips should be attempted only with protective gear and equipment.Flood(none)(none)
Discharge61700 cfs (median: 94900 cfs)High - The river is high and potentially dangerous, especially for the young and / or inexperienced. Normal stream obstacles are sometimes difficult to navigate. Extended distances can be attempted, but canoe travel may not be advisable.High(none)(none)
Height14.99 feetGood - Conditions are ideal for a canoe or kayak. Boats typically will drag on fewer than one-quarter of riffles, if at all, and portages are unnecessary or rare. Normal float lengths can be attempted without a problem.Good(none)(none)
TrendFalling (rising over 24 hours)Low - River is low but can still be floated. Some riffles are okay but most come with significant dragging and might need a portage. Float lengths should be reduced to accommodate low flow, dragging, and portages.Low(none)(none)
USGSExternal icon USGS Site (External icon Google Maps)Poor - River is too low to float comfortably. Most or all riffles will drag or must be portaged and some obstacles (such as slick shelf rock) cause undue problems. Avoid the river at this stage for casual paddling trips.Poor(none)(none)

Trending Data

Plot Image

Trips for Mississippi River (Missouri), Grafton (05587450)

DateStartEndDistanceConditionDischargeHeightFishingDetails

A total of 0 rows are displayed.

Condition Descriptions

Fishing Conditions

Fish Species

Notes

Classic Trip List

The classic River Trips application is still available for use. It is updated with the new system using a data retrofit. It is no longer maintained. The original River Trips application is no longer updated (as of 1 Dec 2016) but can be checked for errors or for the condition of the data before it was converted to the new system.

Gauge Data Table

ObservationHeightDischargeMaximum
Discharge
Minimum
Discharge
Mean
Discharge
P05P10P20P25P50
(Median)
P75P80P90P95
2020-08-06 10:30 14.99 61700 548000 (1993) 25700 (2007) 119000 29700 36300 60300 62500 94900 150000 180000 203000 387000
2020-08-06 10:00 15.01 63500 548000 (1993) 25700 (2007) 119000 29700 36300 60300 62500 94900 150000 180000 203000 387000
2020-08-06 09:30 15.01 63100 548000 (1993) 25700 (2007) 119000 29700 36300 60300 62500 94900 150000 180000 203000 387000
2020-08-06 09:00 15.01 63000 548000 (1993) 25700 (2007) 119000 29700 36300 60300 62500 94900 150000 180000 203000 387000
2020-08-06 08:30 15.01 548000 (1993) 25700 (2007) 119000 29700 36300 60300 62500 94900 150000 180000 203000 387000
2020-08-06 08:00 15.01 548000 (1993) 25700 (2007) 119000 29700 36300 60300 62500 94900 150000 180000 203000 387000
2020-08-06 07:30 14.99 60500 548000 (1993) 25700 (2007) 119000 29700 36300 60300 62500 94900 150000 180000 203000 387000
2020-08-06 07:00 15.00 548000 (1993) 25700 (2007) 119000 29700 36300 60300 62500 94900 150000 180000 203000 387000
2020-08-06 06:30 14.98 548000 (1993) 25700 (2007) 119000 29700 36300 60300 62500 94900 150000 180000 203000 387000
2020-08-06 06:00 14.96 57600 548000 (1993) 25700 (2007) 119000 29700 36300 60300 62500 94900 150000 180000 203000 387000
2020-08-06 05:30 14.93 54100 548000 (1993) 25700 (2007) 119000 29700 36300 60300 62500 94900 150000 180000 203000 387000
2020-08-06 05:00 14.96 548000 (1993) 25700 (2007) 119000 29700 36300 60300 62500 94900 150000 180000 203000 387000
2020-08-06 04:30 14.93 54400 548000 (1993) 25700 (2007) 119000 29700 36300 60300 62500 94900 150000 180000 203000 387000
2020-08-06 04:00 14.92 548000 (1993) 25700 (2007) 119000 29700 36300 60300 62500 94900 150000 180000 203000 387000
2020-08-06 03:30 14.89 50300 548000 (1993) 25700 (2007) 119000 29700 36300 60300 62500 94900 150000 180000 203000 387000
2020-08-06 03:00 14.90 548000 (1993) 25700 (2007) 119000 29700 36300 60300 62500 94900 150000 180000 203000 387000
2020-08-06 02:30 14.90 548000 (1993) 25700 (2007) 119000 29700 36300 60300 62500 94900 150000 180000 203000 387000
2020-08-06 02:00 14.88 548000 (1993) 25700 (2007) 119000 29700 36300 60300 62500 94900 150000 180000 203000 387000
2020-08-06 01:30 14.87 48500 548000 (1993) 25700 (2007) 119000 29700 36300 60300 62500 94900 150000 180000 203000 387000
2020-08-06 01:00 14.86 47600 548000 (1993) 25700 (2007) 119000 29700 36300 60300 62500 94900 150000 180000 203000 387000
2020-08-06 00:30 14.81 548000 (1993) 25700 (2007) 119000 29700 36300 60300 62500 94900 150000 180000 203000 387000
2020-08-06 00:00 14.83 44600 548000 (1993) 25700 (2007) 119000 29700 36300 60300 62500 94900 150000 180000 203000 387000
2020-08-05 23:30 14.85 47000 570000 (1993) 31100 (1988) 121000 31800 33000 56900 69400 91600 155000 166000 213000 402000
2020-08-05 23:00 14.84 45700 570000 (1993) 31100 (1988) 121000 31800 33000 56900 69400 91600 155000 166000 213000 402000
2020-08-05 22:30 14.84 46000 570000 (1993) 31100 (1988) 121000 31800 33000 56900 69400 91600 155000 166000 213000 402000
2020-08-05 22:00 14.85 47200 570000 (1993) 31100 (1988) 121000 31800 33000 56900 69400 91600 155000 166000 213000 402000
2020-08-05 21:30 14.83 570000 (1993) 31100 (1988) 121000 31800 33000 56900 69400 91600 155000 166000 213000 402000
2020-08-05 21:00 14.84 46500 570000 (1993) 31100 (1988) 121000 31800 33000 56900 69400 91600 155000 166000 213000 402000
2020-08-05 20:30 14.84 46600 570000 (1993) 31100 (1988) 121000 31800 33000 56900 69400 91600 155000 166000 213000 402000
2020-08-05 20:00 14.85 570000 (1993) 31100 (1988) 121000 31800 33000 56900 69400 91600 155000 166000 213000 402000
2020-08-05 19:30 14.87 48700 570000 (1993) 31100 (1988) 121000 31800 33000 56900 69400 91600 155000 166000 213000 402000
2020-08-05 19:00 14.87 48700 570000 (1993) 31100 (1988) 121000 31800 33000 56900 69400 91600 155000 166000 213000 402000
2020-08-05 18:30 14.87 570000 (1993) 31100 (1988) 121000 31800 33000 56900 69400 91600 155000 166000 213000 402000
2020-08-05 18:00 14.88 49700 570000 (1993) 31100 (1988) 121000 31800 33000 56900 69400 91600 155000 166000 213000 402000
2020-08-05 17:30 14.88 570000 (1993) 31100 (1988) 121000 31800 33000 56900 69400 91600 155000 166000 213000 402000
2020-08-05 17:00 14.89 50800 570000 (1993) 31100 (1988) 121000 31800 33000 56900 69400 91600 155000 166000 213000 402000
2020-08-05 16:30 14.92 54300 570000 (1993) 31100 (1988) 121000 31800 33000 56900 69400 91600 155000 166000 213000 402000
2020-08-05 16:00 14.89 570000 (1993) 31100 (1988) 121000 31800 33000 56900 69400 91600 155000 166000 213000 402000
2020-08-05 15:30 14.93 570000 (1993) 31100 (1988) 121000 31800 33000 56900 69400 91600 155000 166000 213000 402000
2020-08-05 15:00 14.91 570000 (1993) 31100 (1988) 121000 31800 33000 56900 69400 91600 155000 166000 213000 402000
2020-08-05 14:30 14.90 570000 (1993) 31100 (1988) 121000 31800 33000 56900 69400 91600 155000 166000 213000 402000
2020-08-05 14:00 14.89 570000 (1993) 31100 (1988) 121000 31800 33000 56900 69400 91600 155000 166000 213000 402000
2020-08-05 13:30 15.34 570000 (1993) 31100 (1988) 121000 31800 33000 56900 69400 91600 155000 166000 213000 402000
2020-08-05 13:00 14.88 50000 570000 (1993) 31100 (1988) 121000 31800 33000 56900 69400 91600 155000 166000 213000 402000
2020-08-05 12:30 14.87 570000 (1993) 31100 (1988) 121000 31800 33000 56900 69400 91600 155000 166000 213000 402000
2020-08-05 12:00 14.89 51000 570000 (1993) 31100 (1988) 121000 31800 33000 56900 69400 91600 155000 166000 213000 402000
2020-08-05 11:30 14.89 50800 570000 (1993) 31100 (1988) 121000 31800 33000 56900 69400 91600 155000 166000 213000 402000
2020-08-05 11:00 14.87 570000 (1993) 31100 (1988) 121000 31800 33000 56900 69400 91600 155000 166000 213000 402000
2020-08-05 10:30 14.91 53300 570000 (1993) 31100 (1988) 121000 31800 33000 56900 69400 91600 155000 166000 213000 402000
2020-08-05 10:00 14.90 52100 570000 (1993) 31100 (1988) 121000 31800 33000 56900 69400 91600 155000 166000 213000 402000
2020-08-05 09:30 14.89 51000 570000 (1993) 31100 (1988) 121000 31800 33000 56900 69400 91600 155000 166000 213000 402000
2020-08-05 09:00 14.90 570000 (1993) 31100 (1988) 121000 31800 33000 56900 69400 91600 155000 166000 213000 402000
2020-08-05 08:30 14.91 570000 (1993) 31100 (1988) 121000 31800 33000 56900 69400 91600 155000 166000 213000 402000
2020-08-05 08:00 14.90 570000 (1993) 31100 (1988) 121000 31800 33000 56900 69400 91600 155000 166000 213000 402000
2020-08-05 07:30 14.87 570000 (1993) 31100 (1988) 121000 31800 33000 56900 69400 91600 155000 166000 213000 402000
2020-08-05 07:00 15.04 570000 (1993) 31100 (1988) 121000 31800 33000 56900 69400 91600 155000 166000 213000 402000
2020-08-05 06:30 14.97 60400 570000 (1993) 31100 (1988) 121000 31800 33000 56900 69400 91600 155000 166000 213000 402000
2020-08-05 06:00 15.02 570000 (1993) 31100 (1988) 121000 31800 33000 56900 69400 91600 155000 166000 213000 402000
2020-08-05 05:30 15.00 64200 570000 (1993) 31100 (1988) 121000 31800 33000 56900 69400 91600 155000 166000 213000 402000
2020-08-05 05:00 14.95 570000 (1993) 31100 (1988) 121000 31800 33000 56900 69400 91600 155000 166000 213000 402000
2020-08-05 04:30 15.04 570000 (1993) 31100 (1988) 121000 31800 33000 56900 69400 91600 155000 166000 213000 402000
2020-08-05 04:00 15.04 570000 (1993) 31100 (1988) 121000 31800 33000 56900 69400 91600 155000 166000 213000 402000
2020-08-05 03:30 14.94 570000 (1993) 31100 (1988) 121000 31800 33000 56900 69400 91600 155000 166000 213000 402000
2020-08-05 03:00 14.98 61600 570000 (1993) 31100 (1988) 121000 31800 33000 56900 69400 91600 155000 166000 213000 402000
2020-08-05 02:30 14.95 570000 (1993) 31100 (1988) 121000 31800 33000 56900 69400 91600 155000 166000 213000 402000
2020-08-05 02:00 15.02 570000 (1993) 31100 (1988) 121000 31800 33000 56900 69400 91600 155000 166000 213000 402000
2020-08-05 01:30 14.96 59200 570000 (1993) 31100 (1988) 121000 31800 33000 56900 69400 91600 155000 166000 213000 402000
2020-08-05 01:00 14.95 58000 570000 (1993) 31100 (1988) 121000 31800 33000 56900 69400 91600 155000 166000 213000 402000
2020-08-05 00:30 15.02 570000 (1993) 31100 (1988) 121000 31800 33000 56900 69400 91600 155000 166000 213000 402000
2020-08-05 00:00 14.93 55800 570000 (1993) 31100 (1988) 121000 31800 33000 56900 69400 91600 155000 166000 213000 402000
2020-08-04 23:30 14.89 587000 (1993) 32800 (2012) 125000 33000 36600 56400 68200 90900 151000 173000 230000 413000
2020-08-04 23:00 14.98 587000 (1993) 32800 (2012) 125000 33000 36600 56400 68200 90900 151000 173000 230000 413000
2020-08-04 22:30 14.87 587000 (1993) 32800 (2012) 125000 33000 36600 56400 68200 90900 151000 173000 230000 413000
2020-08-04 22:00 14.86 587000 (1993) 32800 (2012) 125000 33000 36600 56400 68200 90900 151000 173000 230000 413000
2020-08-04 21:30 14.91 54100 587000 (1993) 32800 (2012) 125000 33000 36600 56400 68200 90900 151000 173000 230000 413000
2020-08-04 21:00 14.97 587000 (1993) 32800 (2012) 125000 33000 36600 56400 68200 90900 151000 173000 230000 413000
2020-08-04 20:30 14.96 587000 (1993) 32800 (2012) 125000 33000 36600 56400 68200 90900 151000 173000 230000 413000
2020-08-04 20:00 14.85 47600 587000 (1993) 32800 (2012) 125000 33000 36600 56400 68200 90900 151000 173000 230000 413000
2020-08-04 19:30 14.85 47900 587000 (1993) 32800 (2012) 125000 33000 36600 56400 68200 90900 151000 173000 230000 413000
2020-08-04 19:00 14.83 45900 587000 (1993) 32800 (2012) 125000 33000 36600 56400 68200 90900 151000 173000 230000 413000
2020-08-04 18:30 14.82 45000 587000 (1993) 32800 (2012) 125000 33000 36600 56400 68200 90900 151000 173000 230000 413000
2020-08-04 18:00 14.83 587000 (1993) 32800 (2012) 125000 33000 36600 56400 68200 90900 151000 173000 230000 413000
2020-08-04 17:30 14.84 587000 (1993) 32800 (2012) 125000 33000 36600 56400 68200 90900 151000 173000 230000 413000
2020-08-04 17:00 14.79 42500 587000 (1993) 32800 (2012) 125000 33000 36600 56400 68200 90900 151000 173000 230000 413000
2020-08-04 16:30 14.79 587000 (1993) 32800 (2012) 125000 33000 36600 56400 68200 90900 151000 173000 230000 413000
2020-08-04 16:00 14.75 38300 587000 (1993) 32800 (2012) 125000 33000 36600 56400 68200 90900 151000 173000 230000 413000
2020-08-04 15:30 14.79 587000 (1993) 32800 (2012) 125000 33000 36600 56400 68200 90900 151000 173000 230000 413000
2020-08-04 15:00 14.76 40100 587000 (1993) 32800 (2012) 125000 33000 36600 56400 68200 90900 151000 173000 230000 413000
2020-08-04 14:30 14.75 39000 587000 (1993) 32800 (2012) 125000 33000 36600 56400 68200 90900 151000 173000 230000 413000
2020-08-04 14:00 14.68 587000 (1993) 32800 (2012) 125000 33000 36600 56400 68200 90900 151000 173000 230000 413000
2020-08-04 13:30 14.73 587000 (1993) 32800 (2012) 125000 33000 36600 56400 68200 90900 151000 173000 230000 413000
2020-08-04 13:00 14.78 42600 587000 (1993) 32800 (2012) 125000 33000 36600 56400 68200 90900 151000 173000 230000 413000
2020-08-04 12:30 14.77 587000 (1993) 32800 (2012) 125000 33000 36600 56400 68200 90900 151000 173000 230000 413000
2020-08-04 12:00 14.80 44500 587000 (1993) 32800 (2012) 125000 33000 36600 56400 68200 90900 151000 173000 230000 413000
2020-08-04 11:30 14.84 49100 587000 (1993) 32800 (2012) 125000 33000 36600 56400 68200 90900 151000 173000 230000 413000
2020-08-04 11:00 14.79 587000 (1993) 32800 (2012) 125000 33000 36600 56400 68200 90900 151000 173000 230000 413000
2020-08-04 10:30 14.89 54700 587000 (1993) 32800 (2012) 125000 33000 36600 56400 68200 90900 151000 173000 230000 413000
2020-08-04 10:00 14.87 52200 587000 (1993) 32800 (2012) 125000 33000 36600 56400 68200 90900 151000 173000 230000 413000
2020-08-04 09:30 14.88 587000 (1993) 32800 (2012) 125000 33000 36600 56400 68200 90900 151000 173000 230000 413000
2020-08-04 09:00 14.91 587000 (1993) 32800 (2012) 125000 33000 36600 56400 68200 90900 151000 173000 230000 413000
2020-08-04 08:30 14.87 587000 (1993) 32800 (2012) 125000 33000 36600 56400 68200 90900 151000 173000 230000 413000
2020-08-04 08:00 14.81 587000 (1993) 32800 (2012) 125000 33000 36600 56400 68200 90900 151000 173000 230000 413000
2020-08-04 07:30 14.88 52000 587000 (1993) 32800 (2012) 125000 33000 36600 56400 68200 90900 151000 173000 230000 413000
2020-08-04 07:00 14.83 587000 (1993) 32800 (2012) 125000 33000 36600 56400 68200 90900 151000 173000 230000 413000
2020-08-04 06:30 15.01 587000 (1993) 32800 (2012) 125000 33000 36600 56400 68200 90900 151000 173000 230000 413000
2020-08-04 06:00 14.87 587000 (1993) 32800 (2012) 125000 33000 36600 56400 68200 90900 151000 173000 230000 413000
2020-08-04 05:30 14.92 587000 (1993) 32800 (2012) 125000 33000 36600 56400 68200 90900 151000 173000 230000 413000
2020-08-04 05:00 14.94 587000 (1993) 32800 (2012) 125000 33000 36600 56400 68200 90900 151000 173000 230000 413000
2020-08-04 04:30 14.84 46300 587000 (1993) 32800 (2012) 125000 33000 36600 56400 68200 90900 151000 173000 230000 413000
2020-08-04 04:00 14.84 587000 (1993) 32800 (2012) 125000 33000 36600 56400 68200 90900 151000 173000 230000 413000
2020-08-04 03:30 14.82 587000 (1993) 32800 (2012) 125000 33000 36600 56400 68200 90900 151000 173000 230000 413000
2020-08-04 03:00 14.82 587000 (1993) 32800 (2012) 125000 33000 36600 56400 68200 90900 151000 173000 230000 413000
2020-08-04 02:30 14.90 587000 (1993) 32800 (2012) 125000 33000 36600 56400 68200 90900 151000 173000 230000 413000
2020-08-04 02:00 14.99 587000 (1993) 32800 (2012) 125000 33000 36600 56400 68200 90900 151000 173000 230000 413000
2020-08-04 01:30 14.74 587000 (1993) 32800 (2012) 125000 33000 36600 56400 68200 90900 151000 173000 230000 413000
2020-08-04 01:00 14.85 48200 587000 (1993) 32800 (2012) 125000 33000 36600 56400 68200 90900 151000 173000 230000 413000
2020-08-04 00:30 14.89 587000 (1993) 32800 (2012) 125000 33000 36600 56400 68200 90900 151000 173000 230000 413000
2020-08-04 00:00 14.89 587000 (1993) 32800 (2012) 125000 33000 36600 56400 68200 90900 151000 173000 230000 413000
2020-08-03 23:30 14.83 46300 596000 (1993) 32600 (1988) 127000 33700 40500 56600 70000 95300 150000 175000 232000 421000
2020-08-03 23:00 14.77 596000 (1993) 32600 (1988) 127000 33700 40500 56600 70000 95300 150000 175000 232000 421000
2020-08-03 22:30 14.80 596000 (1993) 32600 (1988) 127000 33700 40500 56600 70000 95300 150000 175000 232000 421000
2020-08-03 22:00 14.82 45200 596000 (1993) 32600 (1988) 127000 33700 40500 56600 70000 95300 150000 175000 232000 421000
2020-08-03 21:30 14.96 596000 (1993) 32600 (1988) 127000 33700 40500 56600 70000 95300 150000 175000 232000 421000
2020-08-03 21:00 14.84 596000 (1993) 32600 (1988) 127000 33700 40500 56600 70000 95300 150000 175000 232000 421000
2020-08-03 20:30 14.77 596000 (1993) 32600 (1988) 127000 33700 40500 56600 70000 95300 150000 175000 232000 421000
2020-08-03 20:00 14.78 596000 (1993) 32600 (1988) 127000 33700 40500 56600 70000 95300 150000 175000 232000 421000
2020-08-03 19:30 14.76 596000 (1993) 32600 (1988) 127000 33700 40500 56600 70000 95300 150000 175000 232000 421000
2020-08-03 19:00 14.83 596000 (1993) 32600 (1988) 127000 33700 40500 56600 70000 95300 150000 175000 232000 421000
2020-08-03 18:30 14.99 596000 (1993) 32600 (1988) 127000 33700 40500 56600 70000 95300 150000 175000 232000 421000
2020-08-03 18:00 14.97 596000 (1993) 32600 (1988) 127000 33700 40500 56600 70000 95300 150000 175000 232000 421000
2020-08-03 17:30 15.06 596000 (1993) 32600 (1988) 127000 33700 40500 56600 70000 95300 150000 175000 232000 421000
2020-08-03 17:00 15.01 596000 (1993) 32600 (1988) 127000 33700 40500 56600 70000 95300 150000 175000 232000 421000
2020-08-03 16:30 14.81 596000 (1993) 32600 (1988) 127000 33700 40500 56600 70000 95300 150000 175000 232000 421000
2020-08-03 16:00 14.79 41700 596000 (1993) 32600 (1988) 127000 33700 40500 56600 70000 95300 150000 175000 232000 421000
2020-08-03 15:30 14.75 596000 (1993) 32600 (1988) 127000 33700 40500 56600 70000 95300 150000 175000 232000 421000
2020-08-03 15:00 14.83 596000 (1993) 32600 (1988) 127000 33700 40500 56600 70000 95300 150000 175000 232000 421000
2020-08-03 14:30 14.80 42900 596000 (1993) 32600 (1988) 127000 33700 40500 56600 70000 95300 150000 175000 232000 421000
2020-08-03 14:00 14.78 40700 596000 (1993) 32600 (1988) 127000 33700 40500 56600 70000 95300 150000 175000 232000 421000
2020-08-03 13:30 14.78 41000 596000 (1993) 32600 (1988) 127000 33700 40500 56600 70000 95300 150000 175000 232000 421000
2020-08-03 13:00 14.76 38700 596000 (1993) 32600 (1988) 127000 33700 40500 56600 70000 95300 150000 175000 232000 421000
2020-08-03 12:30 14.84 596000 (1993) 32600 (1988) 127000 33700 40500 56600 70000 95300 150000 175000 232000 421000
2020-08-03 12:00 14.76 596000 (1993) 32600 (1988) 127000 33700 40500 56600 70000 95300 150000 175000 232000 421000
2020-08-03 11:30 14.72 35900 596000 (1993) 32600 (1988) 127000 33700 40500 56600 70000 95300 150000 175000 232000 421000
2020-08-03 11:00 14.72 36000 596000 (1993) 32600 (1988) 127000 33700 40500 56600 70000 95300 150000 175000 232000 421000
2020-08-03 10:30 14.72 596000 (1993) 32600 (1988) 127000 33700 40500 56600 70000 95300 150000 175000 232000 421000
2020-08-03 10:00 14.71 596000 (1993) 32600 (1988) 127000 33700 40500 56600 70000 95300 150000 175000 232000 421000
2020-08-03 09:30 14.73 37600 596000 (1993) 32600 (1988) 127000 33700 40500 56600 70000 95300 150000 175000 232000 421000
2020-08-03 09:00 14.75 39700 596000 (1993) 32600 (1988) 127000 33700 40500 56600 70000 95300 150000 175000 232000 421000
2020-08-03 08:30 14.75 39700 596000 (1993) 32600 (1988) 127000 33700 40500 56600 70000 95300 150000 175000 232000 421000
2020-08-03 08:00 14.77 41900 596000 (1993) 32600 (1988) 127000 33700 40500 56600 70000 95300 150000 175000 232000 421000
2020-08-03 07:30 14.76 40700 596000 (1993) 32600 (1988) 127000 33700 40500 56600 70000 95300 150000 175000 232000 421000
2020-08-03 07:00 14.77 41700 596000 (1993) 32600 (1988) 127000 33700 40500 56600 70000 95300 150000 175000 232000 421000
2020-08-03 06:30 14.75 596000 (1993) 32600 (1988) 127000 33700 40500 56600 70000 95300 150000 175000 232000 421000
2020-08-03 06:00 14.76 40500 596000 (1993) 32600 (1988) 127000 33700 40500 56600 70000 95300 150000 175000 232000 421000
2020-08-03 05:30 14.76 596000 (1993) 32600 (1988) 127000 33700 40500 56600 70000 95300 150000 175000 232000 421000
2020-08-03 05:00 14.78 42800 596000 (1993) 32600 (1988) 127000 33700 40500 56600 70000 95300 150000 175000 232000 421000
2020-08-03 04:30 14.78 596000 (1993) 32600 (1988) 127000 33700 40500 56600 70000 95300 150000 175000 232000 421000
2020-08-03 04:00 14.78 596000 (1993) 32600 (1988) 127000 33700 40500 56600 70000 95300 150000 175000 232000 421000
2020-08-03 03:30 14.79 596000 (1993) 32600 (1988) 127000 33700 40500 56600 70000 95300 150000 175000 232000 421000
2020-08-03 03:00 14.79 596000 (1993) 32600 (1988) 127000 33700 40500 56600 70000 95300 150000 175000 232000 421000
2020-08-03 02:30 15.00 596000 (1993) 32600 (1988) 127000 33700 40500 56600 70000 95300 150000 175000 232000 421000
2020-08-03 02:00 14.80 45100 596000 (1993) 32600 (1988) 127000 33700 40500 56600 70000 95300 150000 175000 232000 421000
2020-08-03 01:30 14.79 43800 596000 (1993) 32600 (1988) 127000 33700 40500 56600 70000 95300 150000 175000 232000 421000
2020-08-03 01:00 14.79 43600 596000 (1993) 32600 (1988) 127000 33700 40500 56600 70000 95300 150000 175000 232000 421000
2020-08-03 00:30 14.77 596000 (1993) 32600 (1988) 127000 33700 40500 56600 70000 95300 150000 175000 232000 421000
2020-08-03 00:00 14.79 43600 596000 (1993) 32600 (1988) 127000 33700 40500 56600 70000 95300 150000 175000 232000 421000
2020-08-02 23:30 14.81 46100 592000 (1993) 37100 (2007) 129000 37500 40500 55200 72300 93400 156000 191000 234000 422000
2020-08-02 23:00 14.81 592000 (1993) 37100 (2007) 129000 37500 40500 55200 72300 93400 156000 191000 234000 422000
2020-08-02 22:30 14.83 48200 592000 (1993) 37100 (2007) 129000 37500 40500 55200 72300 93400 156000 191000 234000 422000
2020-08-02 22:00 14.81 592000 (1993) 37100 (2007) 129000 37500 40500 55200 72300 93400 156000 191000 234000 422000
2020-08-02 21:30 14.85 592000 (1993) 37100 (2007) 129000 37500 40500 55200 72300 93400 156000 191000 234000 422000
2020-08-02 21:00 14.84 49400 592000 (1993) 37100 (2007) 129000 37500 40500 55200 72300 93400 156000 191000 234000 422000
2020-08-02 20:30 14.82 47000 592000 (1993) 37100 (2007) 129000 37500 40500 55200 72300 93400 156000 191000 234000 422000
2020-08-02 20:00 14.81 592000 (1993) 37100 (2007) 129000 37500 40500 55200 72300 93400 156000 191000 234000 422000
2020-08-02 19:30 14.83 48200 592000 (1993) 37100 (2007) 129000 37500 40500 55200 72300 93400 156000 191000 234000 422000
2020-08-02 19:00 14.84 49500 592000 (1993) 37100 (2007) 129000 37500 40500 55200 72300 93400 156000 191000 234000 422000
2020-08-02 18:30 14.83 48600 592000 (1993) 37100 (2007) 129000 37500 40500 55200 72300 93400 156000 191000 234000 422000
2020-08-02 18:00 14.85 50800 592000 (1993) 37100 (2007) 129000 37500 40500 55200 72300 93400 156000 191000 234000 422000
2020-08-02 17:30 14.86 52000 592000 (1993) 37100 (2007) 129000 37500 40500 55200 72300 93400 156000 191000 234000 422000
2020-08-02 17:00 14.77 592000 (1993) 37100 (2007) 129000 37500 40500 55200 72300 93400 156000 191000 234000 422000
2020-08-02 16:30 14.87 53500 592000 (1993) 37100 (2007) 129000 37500 40500 55200 72300 93400 156000 191000 234000 422000
2020-08-02 16:00 14.87 53700 592000 (1993) 37100 (2007) 129000 37500 40500 55200 72300 93400 156000 191000 234000 422000
2020-08-02 15:30 14.89 592000 (1993) 37100 (2007) 129000 37500 40500 55200 72300 93400 156000 191000 234000 422000
2020-08-02 15:00 14.89 592000 (1993) 37100 (2007) 129000 37500 40500 55200 72300 93400 156000 191000 234000 422000
2020-08-02 14:30 14.86 592000 (1993) 37100 (2007) 129000 37500 40500 55200 72300 93400 156000 191000 234000 422000
2020-08-02 14:00 14.84 592000 (1993) 37100 (2007) 129000 37500 40500 55200 72300 93400 156000 191000 234000 422000
2020-08-02 13:30 14.88 592000 (1993) 37100 (2007) 129000 37500 40500 55200 72300 93400 156000 191000 234000 422000
2020-08-02 13:00 14.90 56800 592000 (1993) 37100 (2007) 129000 37500 40500 55200 72300 93400 156000 191000 234000 422000
2020-08-02 12:30 14.93 60300 592000 (1993) 37100 (2007) 129000 37500 40500 55200 72300 93400 156000 191000 234000 422000
2020-08-02 12:00 14.97 592000 (1993) 37100 (2007) 129000 37500 40500 55200 72300 93400 156000 191000 234000 422000
2020-08-02 11:30 14.93 60000 592000 (1993) 37100 (2007) 129000 37500 40500 55200 72300 93400 156000 191000 234000 422000
2020-08-02 11:00 14.97 592000 (1993) 37100 (2007) 129000 37500 40500 55200 72300 93400 156000 191000 234000 422000
2020-08-02 10:30 14.93 592000 (1993) 37100 (2007) 129000 37500 40500 55200 72300 93400 156000 191000 234000 422000
2020-08-02 10:00 14.91 592000 (1993) 37100 (2007) 129000 37500 40500 55200 72300 93400 156000 191000 234000 422000
2020-08-02 09:30 14.94 592000 (1993) 37100 (2007) 129000 37500 40500 55200 72300 93400 156000 191000 234000 422000
2020-08-02 09:00 14.91 592000 (1993) 37100 (2007) 129000 37500 40500 55200 72300 93400 156000 191000 234000 422000
2020-08-02 08:30 14.98 66700 592000 (1993) 37100 (2007) 129000 37500 40500 55200 72300 93400 156000 191000 234000 422000
2020-08-02 08:00 15.01 70400 592000 (1993) 37100 (2007) 129000 37500 40500 55200 72300 93400 156000 191000 234000 422000
2020-08-02 07:30 15.02 71500 592000 (1993) 37100 (2007) 129000 37500 40500 55200 72300 93400 156000 191000 234000 422000
2020-08-02 07:00 14.96 592000 (1993) 37100 (2007) 129000 37500 40500 55200 72300 93400 156000 191000 234000 422000
2020-08-02 06:30 15.07 592000 (1993) 37100 (2007) 129000 37500 40500 55200 72300 93400 156000 191000 234000 422000
2020-08-02 06:00 15.06 592000 (1993) 37100 (2007) 129000 37500 40500 55200 72300 93400 156000 191000 234000 422000
2020-08-02 05:30 14.99 592000 (1993) 37100 (2007) 129000 37500 40500 55200 72300 93400 156000 191000 234000 422000
2020-08-02 05:00 14.91 592000 (1993) 37100 (2007) 129000 37500 40500 55200 72300 93400 156000 191000 234000 422000
2020-08-02 04:30 14.99 592000 (1993) 37100 (2007) 129000 37500 40500 55200 72300 93400 156000 191000 234000 422000
2020-08-02 04:00 14.87 592000 (1993) 37100 (2007) 129000 37500 40500 55200 72300 93400 156000 191000 234000 422000
2020-08-02 03:30 14.96 65700 592000 (1993) 37100 (2007) 129000 37500 40500 55200 72300 93400 156000 191000 234000 422000
2020-08-02 03:00 14.93 64700 592000 (1993) 37100 (2007) 129000 37500 40500 55200 72300 93400 156000 191000 234000 422000
2020-08-02 02:30 14.96 592000 (1993) 37100 (2007) 129000 37500 40500 55200 72300 93400 156000 191000 234000 422000
2020-08-02 02:00 14.93 592000 (1993) 37100 (2007) 129000 37500 40500 55200 72300 93400 156000 191000 234000 422000
2020-08-02 01:30 14.94 592000 (1993) 37100 (2007) 129000 37500 40500 55200 72300 93400 156000 191000 234000 422000
2020-08-02 01:00 14.94 592000 (1993) 37100 (2007) 129000 37500 40500 55200 72300 93400 156000 191000 234000 422000
2020-08-02 00:30 14.96 66900 592000 (1993) 37100 (2007) 129000 37500 40500 55200 72300 93400 156000 191000 234000 422000
2020-08-02 00:00 14.97 68100 592000 (1993) 37100 (2007) 129000 37500 40500 55200 72300 93400 156000 191000 234000 422000
2020-08-01 23:30 14.98 69200 594000 (1993) 35700 (1989) 134000 37100 43500 64300 73300 95000 176000 204000 242000 423000
2020-08-01 23:00 14.97 67900 594000 (1993) 35700 (1989) 134000 37100 43500 64300 73300 95000 176000 204000 242000 423000
2020-08-01 22:30 14.98 69200 594000 (1993) 35700 (1989) 134000 37100 43500 64300 73300 95000 176000 204000 242000 423000
2020-08-01 22:00 14.98 594000 (1993) 35700 (1989) 134000 37100 43500 64300 73300 95000 176000 204000 242000 423000
2020-08-01 21:30 14.97 594000 (1993) 35700 (1989) 134000 37100 43500 64300 73300 95000 176000 204000 242000 423000
2020-08-01 21:00 14.98 594000 (1993) 35700 (1989) 134000 37100 43500 64300 73300 95000 176000 204000 242000 423000
2020-08-01 20:30 15.01 594000 (1993) 35700 (1989) 134000 37100 43500 64300 73300 95000 176000 204000 242000 423000
2020-08-01 20:00 15.06 78400 594000 (1993) 35700 (1989) 134000 37100 43500 64300 73300 95000 176000 204000 242000 423000
2020-08-01 19:30 15.08 80200 594000 (1993) 35700 (1989) 134000 37100 43500 64300 73300 95000 176000 204000 242000 423000
2020-08-01 19:00 15.10 82400 594000 (1993) 35700 (1989) 134000 37100 43500 64300 73300 95000 176000 204000 242000 423000
2020-08-01 18:30 15.07 594000 (1993) 35700 (1989) 134000 37100 43500 64300 73300 95000 176000 204000 242000 423000
2020-08-01 18:00 15.12 83000 594000 (1993) 35700 (1989) 134000 37100 43500 64300 73300 95000 176000 204000 242000 423000
2020-08-01 17:30 15.13 594000 (1993) 35700 (1989) 134000 37100 43500 64300 73300 95000 176000 204000 242000 423000
2020-08-01 17:00 15.19 89200 594000 (1993) 35700 (1989) 134000 37100 43500 64300 73300 95000 176000 204000 242000 423000
2020-08-01 16:30 15.13 594000 (1993) 35700 (1989) 134000 37100 43500 64300 73300 95000 176000 204000 242000 423000
2020-08-01 16:00 15.17 594000 (1993) 35700 (1989) 134000 37100 43500 64300 73300 95000 176000 204000 242000 423000
2020-08-01 15:30 15.24 93400 594000 (1993) 35700 (1989) 134000 37100 43500 64300 73300 95000 176000 204000 242000 423000
2020-08-01 15:00 15.24 93400 594000 (1993) 35700 (1989) 134000 37100 43500 64300 73300 95000 176000 204000 242000 423000
2020-08-01 14:30 15.27 96500 594000 (1993) 35700 (1989) 134000 37100 43500 64300 73300 95000 176000 204000 242000 423000
2020-08-01 14:00 15.24 594000 (1993) 35700 (1989) 134000 37100 43500 64300 73300 95000 176000 204000 242000 423000
2020-08-01 13:30 15.31 99700 594000 (1993) 35700 (1989) 134000 37100 43500 64300 73300 95000 176000 204000 242000 423000
2020-08-01 13:00 15.34 103000 594000 (1993) 35700 (1989) 134000 37100 43500 64300 73300 95000 176000 204000 242000 423000
2020-08-01 12:30 15.36 594000 (1993) 35700 (1989) 134000 37100 43500 64300 73300 95000 176000 204000 242000 423000
2020-08-01 12:00 15.34 594000 (1993) 35700 (1989) 134000 37100 43500 64300 73300 95000 176000 204000 242000 423000
2020-08-01 11:30 15.36 104000 594000 (1993) 35700 (1989) 134000 37100 43500 64300 73300 95000 176000 204000 242000 423000
2020-08-01 11:00 15.36 104000 594000 (1993) 35700 (1989) 134000 37100 43500 64300 73300 95000 176000 204000 242000 423000
2020-08-01 10:30 15.34 594000 (1993) 35700 (1989) 134000 37100 43500 64300 73300 95000 176000 204000 242000 423000
2020-08-01 10:00 15.38 107000 594000 (1993) 35700 (1989) 134000 37100 43500 64300 73300 95000 176000 204000 242000 423000
2020-08-01 09:30 15.37 594000 (1993) 35700 (1989) 134000 37100 43500 64300 73300 95000 176000 204000 242000 423000
2020-08-01 09:00 15.38 594000 (1993) 35700 (1989) 134000 37100 43500 64300 73300 95000 176000 204000 242000 423000
2020-08-01 08:30 15.40 110000 594000 (1993) 35700 (1989) 134000 37100 43500 64300 73300 95000 176000 204000 242000 423000
2020-08-01 08:00 15.43 113000 594000 (1993) 35700 (1989) 134000 37100 43500 64300 73300 95000 176000 204000 242000 423000
2020-08-01 07:30 15.41 110000 594000 (1993) 35700 (1989) 134000 37100 43500 64300 73300 95000 176000 204000 242000 423000
2020-08-01 07:00 15.41 111000 594000 (1993) 35700 (1989) 134000 37100 43500 64300 73300 95000 176000 204000 242000 423000
2020-08-01 06:30 15.41 111000 594000 (1993) 35700 (1989) 134000 37100 43500 64300 73300 95000 176000 204000 242000 423000
2020-08-01 06:00 15.42 113000 594000 (1993) 35700 (1989) 134000 37100 43500 64300 73300 95000 176000 204000 242000 423000
2020-08-01 05:30 15.41 112000 594000 (1993) 35700 (1989) 134000 37100 43500 64300 73300 95000 176000 204000 242000 423000
2020-08-01 05:00 15.41 112000 594000 (1993) 35700 (1989) 134000 37100 43500 64300 73300 95000 176000 204000 242000 423000
2020-08-01 04:30 15.41 113000 594000 (1993) 35700 (1989) 134000 37100 43500 64300 73300 95000 176000 204000 242000 423000
2020-08-01 04:00 15.40 594000 (1993) 35700 (1989) 134000 37100 43500 64300 73300 95000 176000 204000 242000 423000
2020-08-01 03:30 15.41 113000 594000 (1993) 35700 (1989) 134000 37100 43500 64300 73300 95000 176000 204000 242000 423000
2020-08-01 03:00 15.40 594000 (1993) 35700 (1989) 134000 37100 43500 64300 73300 95000 176000 204000 242000 423000
2020-08-01 02:30 15.40 594000 (1993) 35700 (1989) 134000 37100 43500 64300 73300 95000 176000 204000 242000 423000
2020-08-01 02:00 15.42 115000 594000 (1993) 35700 (1989) 134000 37100 43500 64300 73300 95000 176000 204000 242000 423000
2020-08-01 01:30 15.43 116000 594000 (1993) 35700 (1989) 134000 37100 43500 64300 73300 95000 176000 204000 242000 423000
2020-08-01 01:00 15.44 117000 594000 (1993) 35700 (1989) 134000 37100 43500 64300 73300 95000 176000 204000 242000 423000
2020-08-01 00:30 15.45 118000 594000 (1993) 35700 (1989) 134000 37100 43500 64300 73300 95000 176000 204000 242000 423000
2020-08-01 00:00 15.45 594000 (1993) 35700 (1989) 134000 37100 43500 64300 73300 95000 176000 204000 242000 423000
2020-07-31 23:30 15.47 120000 574000 (1993) 28300 (1988) 136000 36900 43300 70300 81000 98100 173000 202000 247000 415000
2020-07-31 23:00 15.48 120000 574000 (1993) 28300 (1988) 136000 36900 43300 70300 81000 98100 173000 202000 247000 415000
2020-07-31 22:30 15.48 119000 574000 (1993) 28300 (1988) 136000 36900 43300 70300 81000 98100 173000 202000 247000 415000
2020-07-31 22:00 15.53 574000 (1993) 28300 (1988) 136000 36900 43300 70300 81000 98100 173000 202000 247000 415000
2020-07-31 21:30 15.49 574000 (1993) 28300 (1988) 136000 36900 43300 70300 81000 98100 173000 202000 247000 415000
2020-07-31 21:00 15.49 116000 574000 (1993) 28300 (1988) 136000 36900 43300 70300 81000 98100 173000 202000 247000 415000
2020-07-31 20:30 15.48 574000 (1993) 28300 (1988) 136000 36900 43300 70300 81000 98100 173000 202000 247000 415000
2020-07-31 20:00 15.47 574000 (1993) 28300 (1988) 136000 36900 43300 70300 81000 98100 173000 202000 247000 415000
2020-07-31 19:30 15.45 113000 574000 (1993) 28300 (1988) 136000 36900 43300 70300 81000 98100 173000 202000 247000 415000
2020-07-31 19:00 15.44 112000 574000 (1993) 28300 (1988) 136000 36900 43300 70300 81000 98100 173000 202000 247000 415000
2020-07-31 18:30 15.41 109000 574000 (1993) 28300 (1988) 136000 36900 43300 70300 81000 98100 173000 202000 247000 415000
2020-07-31 18:00 15.41 574000 (1993) 28300 (1988) 136000 36900 43300 70300 81000 98100 173000 202000 247000 415000
2020-07-31 17:30 15.39 574000 (1993) 28300 (1988) 136000 36900 43300 70300 81000 98100 173000 202000 247000 415000
2020-07-31 17:00 15.37 106000 574000 (1993) 28300 (1988) 136000 36900 43300 70300 81000 98100 173000 202000 247000 415000
2020-07-31 16:30 15.37 574000 (1993) 28300 (1988) 136000 36900 43300 70300 81000 98100 173000 202000 247000 415000
2020-07-31 16:00 15.38 574000 (1993) 28300 (1988) 136000 36900 43300 70300 81000 98100 173000 202000 247000 415000
2020-07-31 15:30 15.31 99500 574000 (1993) 28300 (1988) 136000 36900 43300 70300 81000 98100 173000 202000 247000 415000
2020-07-31 15:00 15.31 99700 574000 (1993) 28300 (1988) 136000 36900 43300 70300 81000 98100 173000 202000 247000 415000
2020-07-31 14:30 15.30 574000 (1993) 28300 (1988) 136000 36900 43300 70300 81000 98100 173000 202000 247000 415000
2020-07-31 14:00 15.26 94800 574000 (1993) 28300 (1988) 136000 36900 43300 70300 81000 98100 173000 202000 247000 415000
2020-07-31 13:30 15.25 574000 (1993) 28300 (1988) 136000 36900 43300 70300 81000 98100 173000 202000 247000 415000
2020-07-31 13:00 15.24 93000 574000 (1993) 28300 (1988) 136000 36900 43300 70300 81000 98100 173000 202000 247000 415000
2020-07-31 12:30 15.21 90200 574000 (1993) 28300 (1988) 136000 36900 43300 70300 81000 98100 173000 202000 247000 415000
2020-07-31 12:00 15.19 88600 574000 (1993) 28300 (1988) 136000 36900 43300 70300 81000 98100 173000 202000 247000 415000
2020-07-31 11:30 15.18 574000 (1993) 28300 (1988) 136000 36900 43300 70300 81000 98100 173000 202000 247000 415000
2020-07-31 11:00 15.17 574000 (1993) 28300 (1988) 136000 36900 43300 70300 81000 98100 173000 202000 247000 415000
2020-07-31 10:30 15.15 85200 574000 (1993) 28300 (1988) 136000 36900 43300 70300 81000 98100 173000 202000 247000 415000
2020-07-31 10:00 15.12 82400 574000 (1993) 28300 (1988) 136000 36900 43300 70300 81000 98100 173000 202000 247000 415000
2020-07-31 09:30 15.12 574000 (1993) 28300 (1988) 136000 36900 43300 70300 81000 98100 173000 202000 247000 415000
2020-07-31 09:00 15.10 80500 574000 (1993) 28300 (1988) 136000 36900 43300 70300 81000 98100 173000 202000 247000 415000
2020-07-31 08:30 15.10 574000 (1993) 28300 (1988) 136000 36900 43300 70300 81000 98100 173000 202000 247000 415000
2020-07-31 08:00 15.09 574000 (1993) 28300 (1988) 136000 36900 43300 70300 81000 98100 173000 202000 247000 415000
2020-07-31 07:30 15.07 77200 574000 (1993) 28300 (1988) 136000 36900 43300 70300 81000 98100 173000 202000 247000 415000
2020-07-31 07:00 15.07 574000 (1993) 28300 (1988) 136000 36900 43300 70300 81000 98100 173000 202000 247000 415000
2020-07-31 06:30 15.05 75300 574000 (1993) 28300 (1988) 136000 36900 43300 70300 81000 98100 173000 202000 247000 415000
2020-07-31 06:00 15.04 74500 574000 (1993) 28300 (1988) 136000 36900 43300 70300 81000 98100 173000 202000 247000 415000
2020-07-31 05:30 15.03 73700 574000 (1993) 28300 (1988) 136000 36900 43300 70300 81000 98100 173000 202000 247000 415000
2020-07-31 05:00 15.02 574000 (1993) 28300 (1988) 136000 36900 43300 70300 81000 98100 173000 202000 247000 415000
2020-07-31 04:30 15.01 574000 (1993) 28300 (1988) 136000 36900 43300 70300 81000 98100 173000 202000 247000 415000
2020-07-31 04:00 15.00 71500 574000 (1993) 28300 (1988) 136000 36900 43300 70300 81000 98100 173000 202000 247000 415000
2020-07-31 03:30 14.99 70400 574000 (1993) 28300 (1988) 136000 36900 43300 70300 81000 98100 173000 202000 247000 415000
2020-07-31 03:00 14.98 69100 574000 (1993) 28300 (1988) 136000 36900 43300 70300 81000 98100 173000 202000 247000 415000
2020-07-31 02:30 14.96 574000 (1993) 28300 (1988) 136000 36900 43300 70300 81000 98100 173000 202000 247000 415000
2020-07-31 02:00 14.96 574000 (1993) 28300 (1988) 136000 36900 43300 70300 81000 98100 173000 202000 247000 415000
2020-07-31 01:30 14.97 69000 574000 (1993) 28300 (1988) 136000 36900 43300 70300 81000 98100 173000 202000 247000 415000
2020-07-31 01:00 14.97 68600 574000 (1993) 28300 (1988) 136000 36900 43300 70300 81000 98100 173000 202000 247000 415000
2020-07-31 00:30 14.98 69700 574000 (1993) 28300 (1988) 136000 36900 43300 70300 81000 98100 173000 202000 247000 415000
2020-07-31 00:00 14.98 574000 (1993) 28300 (1988) 136000 36900 43300 70300 81000 98100 173000 202000 247000 415000
2020-07-30 23:30 14.98 559000 (1993) 30400 (1988) 139000 34300 48200 64600 77300 101000 185000 199000 254000 407000
2020-07-30 23:00 14.99 70400 559000 (1993) 30400 (1988) 139000 34300 48200 64600 77300 101000 185000 199000 254000 407000
2020-07-30 22:30 15.01 72500 559000 (1993) 30400 (1988) 139000 34300 48200 64600 77300 101000 185000 199000 254000 407000
2020-07-30 22:00 15.01 72300 559000 (1993) 30400 (1988) 139000 34300 48200 64600 77300 101000 185000 199000 254000 407000
2020-07-30 21:30 15.00 559000 (1993) 30400 (1988) 139000 34300 48200 64600 77300 101000 185000 199000 254000 407000
2020-07-30 21:00 15.02 72600 559000 (1993) 30400 (1988) 139000 34300 48200 64600 77300 101000 185000 199000 254000 407000
2020-07-30 20:30 15.01 559000 (1993) 30400 (1988) 139000 34300 48200 64600 77300 101000 185000 199000 254000 407000
2020-07-30 20:00 15.02 72600 559000 (1993) 30400 (1988) 139000 34300 48200 64600 77300 101000 185000 199000 254000 407000
2020-07-30 19:30 15.03 559000 (1993) 30400 (1988) 139000 34300 48200 64600 77300 101000 185000 199000 254000 407000
2020-07-30 19:00 15.04 74500 559000 (1993) 30400 (1988) 139000 34300 48200 64600 77300 101000 185000 199000 254000 407000
2020-07-30 18:30 15.06 76400 559000 (1993) 30400 (1988) 139000 34300 48200 64600 77300 101000 185000 199000 254000 407000
2020-07-30 18:00 15.03 559000 (1993) 30400 (1988) 139000 34300 48200 64600 77300 101000 185000 199000 254000 407000
2020-07-30 17:30 15.08 79100 559000 (1993) 30400 (1988) 139000 34300 48200 64600 77300 101000 185000 199000 254000 407000
2020-07-30 17:00 15.07 559000 (1993) 30400 (1988) 139000 34300 48200 64600 77300 101000 185000 199000 254000 407000
2020-07-30 16:30 15.08 559000 (1993) 30400 (1988) 139000 34300 48200 64600 77300 101000 185000 199000 254000 407000
2020-07-30 16:00 15.11 559000 (1993) 30400 (1988) 139000 34300 48200 64600 77300 101000 185000 199000 254000 407000
2020-07-30 15:30 15.14 84700 559000 (1993) 30400 (1988) 139000 34300 48200 64600 77300 101000 185000 199000 254000 407000
2020-07-30 15:00 15.16 86700 559000 (1993) 30400 (1988) 139000 34300 48200 64600 77300 101000 185000 199000 254000 407000
2020-07-30 14:30 15.20 90300 559000 (1993) 30400 (1988) 139000 34300 48200 64600 77300 101000 185000 199000 254000 407000
2020-07-30 14:00 15.23 92200 559000 (1993) 30400 (1988) 139000 34300 48200 64600 77300 101000 185000 199000 254000 407000
2020-07-30 13:30 15.23 559000 (1993) 30400 (1988) 139000 34300 48200 64600 77300 101000 185000 199000 254000 407000
2020-07-30 13:00 15.26 92400 559000 (1993) 30400 (1988) 139000 34300 48200 64600 77300 101000 185000 199000 254000 407000
2020-07-30 12:30 15.27 93200 559000 (1993) 30400 (1988) 139000 34300 48200 64600 77300 101000 185000 199000 254000 407000
2020-07-30 12:00 15.29 559000 (1993) 30400 (1988) 139000 34300 48200 64600 77300 101000 185000 199000 254000 407000
2020-07-30 11:30 15.29 559000 (1993) 30400 (1988) 139000 34300 48200 64600 77300 101000 185000 199000 254000 407000
2020-07-30 11:00 15.31 559000 (1993) 30400 (1988) 139000 34300 48200 64600 77300 101000 185000 199000 254000 407000
2020-07-30 10:30 15.30 559000 (1993) 30400 (1988) 139000 34300 48200 64600 77300 101000 185000 199000 254000 407000
2020-07-30 10:00 15.28 89700 559000 (1993) 30400 (1988) 139000 34300 48200 64600 77300 101000 185000 199000 254000 407000
2020-07-30 09:30 15.27 88800 559000 (1993) 30400 (1988) 139000 34300 48200 64600 77300 101000 185000 199000 254000 407000
2020-07-30 09:00 15.26 89300 559000 (1993) 30400 (1988) 139000 34300 48200 64600 77300 101000 185000 199000 254000 407000
2020-07-30 08:30 15.26 559000 (1993) 30400 (1988) 139000 34300 48200 64600 77300 101000 185000 199000 254000 407000
2020-07-30 08:00 15.23 559000 (1993) 30400 (1988) 139000 34300 48200 64600 77300 101000 185000 199000 254000 407000
2020-07-30 07:30 15.20 559000 (1993) 30400 (1988) 139000 34300 48200 64600 77300 101000 185000 199000 254000 407000
2020-07-30 07:00 15.11 17100 559000 (1993) 30400 (1988) 139000 34300 48200 64600 77300 101000 185000 199000 254000 407000
2020-07-30 06:30 15.11 17100 559000 (1993) 30400 (1988) 139000 34300 48200 64600 77300 101000 185000 199000 254000 407000
2020-07-30 06:00 15.11 17100 559000 (1993) 30400 (1988) 139000 34300 48200 64600 77300 101000 185000 199000 254000 407000
2020-07-30 05:30 15.12 78200 559000 (1993) 30400 (1988) 139000 34300 48200 64600 77300 101000 185000 199000 254000 407000
2020-07-30 05:00 15.11 559000 (1993) 30400 (1988) 139000 34300 48200 64600 77300 101000 185000 199000 254000 407000
2020-07-30 04:30 15.11 559000 (1993) 30400 (1988) 139000 34300 48200 64600 77300 101000 185000 199000 254000 407000
2020-07-30 04:00 15.15 559000 (1993) 30400 (1988) 139000 34300 48200 64600 77300 101000 185000 199000 254000 407000
2020-07-30 03:30 15.06 11500 559000 (1993) 30400 (1988) 139000 34300 48200 64600 77300 101000 185000 199000 254000 407000
2020-07-30 03:00 15.02 7050 559000 (1993) 30400 (1988) 139000 34300 48200 64600 77300 101000 185000 199000 254000 407000
2020-07-30 02:30 15.02 7050 559000 (1993) 30400 (1988) 139000 34300 48200 64600 77300 101000 185000 199000 254000 407000
2020-07-30 02:00 15.02 7050 559000 (1993) 30400 (1988) 139000 34300 48200 64600 77300 101000 185000 199000 254000 407000
2020-07-30 01:30 14.99 559000 (1993) 30400 (1988) 139000 34300 48200 64600 77300 101000 185000 199000 254000 407000
2020-07-30 01:00 15.01 5930 559000 (1993) 30400 (1988) 139000 34300 48200 64600 77300 101000 185000 199000 254000 407000
2020-07-30 00:30 15.01 559000 (1993) 30400 (1988) 139000 34300 48200 64600 77300 101000 185000 199000 254000 407000
2020-07-30 00:00 15.02 6990 559000 (1993) 30400 (1988) 139000 34300 48200 64600 77300 101000 185000 199000 254000 407000
2020-07-29 23:30 15.02 538000 (1993) 33800 (1988) 141000 40000 46000 67100 84500 107000 186000 208000 259000 396000
2020-07-29 23:00 15.03 8050 538000 (1993) 33800 (1988) 141000 40000 46000 67100 84500 107000 186000 208000 259000 396000
2020-07-29 22:30 15.03 8030 538000 (1993) 33800 (1988) 141000 40000 46000 67100 84500 107000 186000 208000 259000 396000
2020-07-29 22:00 15.03 8010 538000 (1993) 33800 (1988) 141000 40000 46000 67100 84500 107000 186000 208000 259000 396000
2020-07-29 21:30 15.05 538000 (1993) 33800 (1988) 141000 40000 46000 67100 84500 107000 186000 208000 259000 396000
2020-07-29 21:00 15.02 6900 538000 (1993) 33800 (1988) 141000 40000 46000 67100 84500 107000 186000 208000 259000 396000
2020-07-29 20:30 14.99 538000 (1993) 33800 (1988) 141000 40000 46000 67100 84500 107000 186000 208000 259000 396000
2020-07-29 20:00 15.00 538000 (1993) 33800 (1988) 141000 40000 46000 67100 84500 107000 186000 208000 259000 396000
2020-07-29 19:30 14.97 538000 (1993) 33800 (1988) 141000 40000 46000 67100 84500 107000 186000 208000 259000 396000
2020-07-29 19:00 14.95 538000 (1993) 33800 (1988) 141000 40000 46000 67100 84500 107000 186000 208000 259000 396000
2020-07-29 18:30 14.92 538000 (1993) 33800 (1988) 141000 40000 46000 67100 84500 107000 186000 208000 259000 396000
2020-07-29 18:00 14.93 538000 (1993) 33800 (1988) 141000 40000 46000 67100 84500 107000 186000 208000 259000 396000
2020-07-29 17:30 14.90 538000 (1993) 33800 (1988) 141000 40000 46000 67100 84500 107000 186000 208000 259000 396000
2020-07-29 17:00 14.90 538000 (1993) 33800 (1988) 141000 40000 46000 67100 84500 107000 186000 208000 259000 396000
2020-07-29 16:30 14.90 538000 (1993) 33800 (1988) 141000 40000 46000 67100 84500 107000 186000 208000 259000 396000
2020-07-29 16:00 14.86 538000 (1993) 33800 (1988) 141000 40000 46000 67100 84500 107000 186000 208000 259000 396000
2020-07-29 15:30 14.85 538000 (1993) 33800 (1988) 141000 40000 46000 67100 84500 107000 186000 208000 259000 396000
2020-07-29 15:00 14.82 538000 (1993) 33800 (1988) 141000 40000 46000 67100 84500 107000 186000 208000 259000 396000
2020-07-29 14:30 14.80 538000 (1993) 33800 (1988) 141000 40000 46000 67100 84500 107000 186000 208000 259000 396000
2020-07-29 14:00 14.78 538000 (1993) 33800 (1988) 141000 40000 46000 67100 84500 107000 186000 208000 259000 396000
2020-07-29 13:30 14.79 538000 (1993) 33800 (1988) 141000 40000 46000 67100 84500 107000 186000 208000 259000 396000
2020-07-29 13:00 14.79 538000 (1993) 33800 (1988) 141000 40000 46000 67100 84500 107000 186000 208000 259000 396000
2020-07-29 12:30 14.80 538000 (1993) 33800 (1988) 141000 40000 46000 67100 84500 107000 186000 208000 259000 396000
2020-07-29 12:00 14.80 538000 (1993) 33800 (1988) 141000 40000 46000 67100 84500 107000 186000 208000 259000 396000
2020-07-29 11:30 14.81 538000 (1993) 33800 (1988) 141000 40000 46000 67100 84500 107000 186000 208000 259000 396000
2020-07-29 11:00 14.81 538000 (1993) 33800 (1988) 141000 40000 46000 67100 84500 107000 186000 208000 259000 396000
2020-07-29 10:30 14.82 538000 (1993) 33800 (1988) 141000 40000 46000 67100 84500 107000 186000 208000 259000 396000
2020-07-29 10:00 14.82 538000 (1993) 33800 (1988) 141000 40000 46000 67100 84500 107000 186000 208000 259000 396000
2020-07-29 09:30 14.84 538000 (1993) 33800 (1988) 141000 40000 46000 67100 84500 107000 186000 208000 259000 396000
2020-07-29 09:00 14.84 538000 (1993) 33800 (1988) 141000 40000 46000 67100 84500 107000 186000 208000 259000 396000
2020-07-29 08:30 14.85 538000 (1993) 33800 (1988) 141000 40000 46000 67100 84500 107000 186000 208000 259000 396000
2020-07-29 08:00 14.87 538000 (1993) 33800 (1988) 141000 40000 46000 67100 84500 107000 186000 208000 259000 396000
2020-07-29 07:30 14.87 538000 (1993) 33800 (1988) 141000 40000 46000 67100 84500 107000 186000 208000 259000 396000
2020-07-29 07:00 14.87 538000 (1993) 33800 (1988) 141000 40000 46000 67100 84500 107000 186000 208000 259000 396000
2020-07-29 06:30 14.84 538000 (1993) 33800 (1988) 141000 40000 46000 67100 84500 107000 186000 208000 259000 396000
2020-07-29 06:00 14.90 538000 (1993) 33800 (1988) 141000 40000 46000 67100 84500 107000 186000 208000 259000 396000
2020-07-29 05:30 14.89 538000 (1993) 33800 (1988) 141000 40000 46000 67100 84500 107000 186000 208000 259000 396000
2020-07-29 05:00 14.89 538000 (1993) 33800 (1988) 141000 40000 46000 67100 84500 107000 186000 208000 259000 396000
2020-07-29 04:30 14.90 538000 (1993) 33800 (1988) 141000 40000 46000 67100 84500 107000 186000 208000 259000 396000
2020-07-29 04:00 14.93 538000 (1993) 33800 (1988) 141000 40000 46000 67100 84500 107000 186000 208000 259000 396000
2020-07-29 03:30 14.93 538000 (1993) 33800 (1988) 141000 40000 46000 67100 84500 107000 186000 208000 259000 396000
2020-07-29 03:00 14.94 538000 (1993) 33800 (1988) 141000 40000 46000 67100 84500 107000 186000 208000 259000 396000
2020-07-29 02:30 14.95 538000 (1993) 33800 (1988) 141000 40000 46000 67100 84500 107000 186000 208000 259000 396000
2020-07-29 02:00 14.95 538000 (1993) 33800 (1988) 141000 40000 46000 67100 84500 107000 186000 208000 259000 396000
2020-07-29 01:30 14.96 538000 (1993) 33800 (1988) 141000 40000 46000 67100 84500 107000 186000 208000 259000 396000
2020-07-29 01:00 14.96 538000 (1993) 33800 (1988) 141000 40000 46000 67100 84500 107000 186000 208000 259000 396000
2020-07-29 00:30 14.97 538000 (1993) 33800 (1988) 141000 40000 46000 67100 84500 107000 186000 208000 259000 396000
2020-07-29 00:00 14.96 538000 (1993) 33800 (1988) 141000 40000 46000 67100 84500 107000 186000 208000 259000 396000
2020-07-28 23:30 14.97 534000 (1993) 26200 (1988) 143000 33700 48100 67100 93200 105000 177000 217000 258000 396000
2020-07-28 23:00 14.97 534000 (1993) 26200 (1988) 143000 33700 48100 67100 93200 105000 177000 217000 258000 396000
2020-07-28 22:30 14.97 534000 (1993) 26200 (1988) 143000 33700 48100 67100 93200 105000 177000 217000 258000 396000
2020-07-28 22:00 14.94 534000 (1993) 26200 (1988) 143000 33700 48100 67100 93200 105000 177000 217000 258000 396000
2020-07-28 21:30 14.93 534000 (1993) 26200 (1988) 143000 33700 48100 67100 93200 105000 177000 217000 258000 396000
2020-07-28 21:00 14.94 534000 (1993) 26200 (1988) 143000 33700 48100 67100 93200 105000 177000 217000 258000 396000
2020-07-28 20:30 14.95 534000 (1993) 26200 (1988) 143000 33700 48100 67100 93200 105000 177000 217000 258000 396000
2020-07-28 20:00 14.93 534000 (1993) 26200 (1988) 143000 33700 48100 67100 93200 105000 177000 217000 258000 396000
2020-07-28 19:30 14.94 534000 (1993) 26200 (1988) 143000 33700 48100 67100 93200 105000 177000 217000 258000 396000
2020-07-28 19:00 14.96 534000 (1993) 26200 (1988) 143000 33700 48100 67100 93200 105000 177000 217000 258000 396000
2020-07-28 18:30 14.95 534000 (1993) 26200 (1988) 143000 33700 48100 67100 93200 105000 177000 217000 258000 396000
2020-07-28 18:00 14.95 534000 (1993) 26200 (1988) 143000 33700 48100 67100 93200 105000 177000 217000 258000 396000
2020-07-28 17:30 14.96 534000 (1993) 26200 (1988) 143000 33700 48100 67100 93200 105000 177000 217000 258000 396000
2020-07-28 17:00 14.95 534000 (1993) 26200 (1988) 143000 33700 48100 67100 93200 105000 177000 217000 258000 396000
2020-07-28 16:30 14.96 534000 (1993) 26200 (1988) 143000 33700 48100 67100 93200 105000 177000 217000 258000 396000
2020-07-28 16:00 14.96 534000 (1993) 26200 (1988) 143000 33700 48100 67100 93200 105000 177000 217000 258000 396000
2020-07-28 15:30 14.96 534000 (1993) 26200 (1988) 143000 33700 48100 67100 93200 105000 177000 217000 258000 396000
2020-07-28 15:00 14.96 534000 (1993) 26200 (1988) 143000 33700 48100 67100 93200 105000 177000 217000 258000 396000
2020-07-28 14:30 14.98 534000 (1993) 26200 (1988) 143000 33700 48100 67100 93200 105000 177000 217000 258000 396000
2020-07-28 14:00 14.97 534000 (1993) 26200 (1988) 143000 33700 48100 67100 93200 105000 177000 217000 258000 396000
2020-07-28 13:30 15.00 534000 (1993) 26200 (1988) 143000 33700 48100 67100 93200 105000 177000 217000 258000 396000
2020-07-28 13:00 15.01 534000 (1993) 26200 (1988) 143000 33700 48100 67100 93200 105000 177000 217000 258000 396000
2020-07-28 12:30 15.01 534000 (1993) 26200 (1988) 143000 33700 48100 67100 93200 105000 177000 217000 258000 396000
2020-07-28 12:00 15.03 8720 534000 (1993) 26200 (1988) 143000 33700 48100 67100 93200 105000 177000 217000 258000 396000
2020-07-28 11:30 15.04 9900 534000 (1993) 26200 (1988) 143000 33700 48100 67100 93200 105000 177000 217000 258000 396000
2020-07-28 11:00 15.04 9900 534000 (1993) 26200 (1988) 143000 33700 48100 67100 93200 105000 177000 217000 258000 396000
2020-07-28 10:30 15.05 11100 534000 (1993) 26200 (1988) 143000 33700 48100 67100 93200 105000 177000 217000 258000 396000
2020-07-28 10:00 15.05 534000 (1993) 26200 (1988) 143000 33700 48100 67100 93200 105000 177000 217000 258000 396000
2020-07-28 09:30 15.05 534000 (1993) 26200 (1988) 143000 33700 48100 67100 93200 105000 177000 217000 258000 396000
2020-07-28 09:00 15.06 534000 (1993) 26200 (1988) 143000 33700 48100 67100 93200 105000 177000 217000 258000 396000
2020-07-28 08:30 15.08 14600 534000 (1993) 26200 (1988) 143000 33700 48100 67100 93200 105000 177000 217000 258000 396000
2020-07-28 08:00 15.08 534000 (1993) 26200 (1988) 143000 33700 48100 67100 93200 105000 177000 217000 258000 396000
2020-07-28 07:30 15.09 15700 534000 (1993) 26200 (1988) 143000 33700 48100 67100 93200 105000 177000 217000 258000 396000
2020-07-28 07:00 15.09 534000 (1993) 26200 (1988) 143000 33700 48100 67100 93200 105000 177000 217000 258000 396000
2020-07-28 06:30 15.09 534000 (1993) 26200 (1988) 143000 33700 48100 67100 93200 105000 177000 217000 258000 396000
2020-07-28 06:00 15.11 18200 534000 (1993) 26200 (1988) 143000 33700 48100 67100 93200 105000 177000 217000 258000 396000
2020-07-28 05:30 15.12 19500 534000 (1993) 26200 (1988) 143000 33700 48100 67100 93200 105000 177000 217000 258000 396000
2020-07-28 05:00 15.13 534000 (1993) 26200 (1988) 143000 33700 48100 67100 93200 105000 177000 217000 258000 396000
2020-07-28 04:30 15.14 534000 (1993) 26200 (1988) 143000 33700 48100 67100 93200 105000 177000 217000 258000 396000
2020-07-28 04:00 15.16 24000 534000 (1993) 26200 (1988) 143000 33700 48100 67100 93200 105000 177000 217000 258000 396000
2020-07-28 03:30 15.15 534000 (1993) 26200 (1988) 143000 33700 48100 67100 93200 105000 177000 217000 258000 396000
2020-07-28 03:00 15.21 534000 (1993) 26200 (1988) 143000 33700 48100 67100 93200 105000 177000 217000 258000 396000
2020-07-28 02:30 15.19 27600 534000 (1993) 26200 (1988) 143000 33700 48100 67100 93200 105000 177000 217000 258000 396000
2020-07-28 02:00 15.19 27500 534000 (1993) 26200 (1988) 143000 33700 48100 67100 93200 105000 177000 217000 258000 396000
2020-07-28 01:30 15.18 534000 (1993) 26200 (1988) 143000 33700 48100 67100 93200 105000 177000 217000 258000 396000
2020-07-28 01:00 15.20 28700 534000 (1993) 26200 (1988) 143000 33700 48100 67100 93200 105000 177000 217000 258000 396000
2020-07-28 00:30 15.19 27400 534000 (1993) 26200 (1988) 143000 33700 48100 67100 93200 105000 177000 217000 258000 396000
2020-07-28 00:00 15.20 28500 534000 (1993) 26200 (1988) 143000 33700 48100 67100 93200 105000 177000 217000 258000 396000
2020-07-27 23:30 15.20 542000 (1993) 27200 (1988) 143000 36400 42500 66700 95000 111000 184000 209000 251000 400000
2020-07-27 23:00 15.18 26000 542000 (1993) 27200 (1988) 143000 36400 42500 66700 95000 111000 184000 209000 251000 400000
2020-07-27 22:30 15.19 27300 542000 (1993) 27200 (1988) 143000 36400 42500 66700 95000 111000 184000 209000 251000 400000
2020-07-27 22:00 15.20 542000 (1993) 27200 (1988) 143000 36400 42500 66700 95000 111000 184000 209000 251000 400000
2020-07-27 21:30 15.17 24900 542000 (1993) 27200 (1988) 143000 36400 42500 66700 95000 111000 184000 209000 251000 400000
2020-07-27 21:00 15.18 542000 (1993) 27200 (1988) 143000 36400 42500 66700 95000 111000 184000 209000 251000 400000
2020-07-27 20:30 15.16 23800 542000 (1993) 27200 (1988) 143000 36400 42500 66700 95000 111000 184000 209000 251000 400000
2020-07-27 20:00 15.17 542000 (1993) 27200 (1988) 143000 36400 42500 66700 95000 111000 184000 209000 251000 400000
2020-07-27 19:30 15.15 22600 542000 (1993) 27200 (1988) 143000 36400 42500 66700 95000 111000 184000 209000 251000 400000
2020-07-27 19:00 15.15 542000 (1993) 27200 (1988) 143000 36400 42500 66700 95000 111000 184000 209000 251000 400000
2020-07-27 18:30 15.16 542000 (1993) 27200 (1988) 143000 36400 42500 66700 95000 111000 184000 209000 251000 400000
2020-07-27 18:00 15.14 21500 542000 (1993) 27200 (1988) 143000 36400 42500 66700 95000 111000 184000 209000 251000 400000
2020-07-27 17:30 15.16 542000 (1993) 27200 (1988) 143000 36400 42500 66700 95000 111000 184000 209000 251000 400000
2020-07-27 17:00 15.14 542000 (1993) 27200 (1988) 143000 36400 42500 66700 95000 111000 184000 209000 251000 400000
2020-07-27 16:30 15.13 20300 542000 (1993) 27200 (1988) 143000 36400 42500 66700 95000 111000 184000 209000 251000 400000
2020-07-27 16:00 15.13 20300 542000 (1993) 27200 (1988) 143000 36400 42500 66700 95000 111000 184000 209000 251000 400000
2020-07-27 15:30 15.09 542000 (1993) 27200 (1988) 143000 36400 42500 66700 95000 111000 184000 209000 251000 400000
2020-07-27 15:00 15.12 19200 542000 (1993) 27200 (1988) 143000 36400 42500 66700 95000 111000 184000 209000 251000 400000
2020-07-27 14:30 15.13 542000 (1993) 27200 (1988) 143000 36400 42500 66700 95000 111000 184000 209000 251000 400000
2020-07-27 14:00 15.13 542000 (1993) 27200 (1988) 143000 36400 42500 66700 95000 111000 184000 209000 251000 400000
2020-07-27 13:30 15.10 16800 542000 (1993) 27200 (1988) 143000 36400 42500 66700 95000 111000 184000 209000 251000 400000
2020-07-27 13:00 15.10 16900 542000 (1993) 27200 (1988) 143000 36400 42500 66700 95000 111000 184000 209000 251000 400000
2020-07-27 12:30 15.10 16900 542000 (1993) 27200 (1988) 143000 36400 42500 66700 95000 111000 184000 209000 251000 400000
2020-07-27 12:00 15.11 18100 542000 (1993) 27200 (1988) 143000 36400 42500 66700 95000 111000 184000 209000 251000 400000
2020-07-27 11:30 15.12 542000 (1993) 27200 (1988) 143000 36400 42500 66700 95000 111000 184000 209000 251000 400000
2020-07-27 11:00 15.10 16800 542000 (1993) 27200 (1988) 143000 36400 42500 66700 95000 111000 184000 209000 251000 400000
2020-07-27 10:30 15.09 15600 542000 (1993) 27200 (1988) 143000 36400 42500 66700 95000 111000 184000 209000 251000 400000
2020-07-27 10:00 15.09 15600 542000 (1993) 27200 (1988) 143000 36400 42500 66700 95000 111000 184000 209000 251000 400000
2020-07-27 09:30 15.09 542000 (1993) 27200 (1988) 143000 36400 42500 66700 95000 111000 184000 209000 251000 400000
2020-07-27 09:00 15.08 542000 (1993) 27200 (1988) 143000 36400 42500 66700 95000 111000 184000 209000 251000 400000
2020-07-27 08:30 15.08 542000 (1993) 27200 (1988) 143000 36400 42500 66700 95000 111000 184000 209000 251000 400000
2020-07-27 08:00 15.08 542000 (1993) 27200 (1988) 143000 36400 42500 66700 95000 111000 184000 209000 251000 400000
2020-07-27 07:30 15.10 16900 542000 (1993) 27200 (1988) 143000 36400 42500 66700 95000 111000 184000 209000 251000 400000
2020-07-27 07:00 15.12 19300 542000 (1993) 27200 (1988) 143000 36400 42500 66700 95000 111000 184000 209000 251000 400000
2020-07-27 06:30 15.11 18100 542000 (1993) 27200 (1988) 143000 36400 42500 66700 95000 111000 184000 209000 251000 400000
2020-07-27 06:00 15.11 18100 542000 (1993) 27200 (1988) 143000 36400 42500 66700 95000 111000 184000 209000 251000 400000
2020-07-27 05:30 15.10 542000 (1993) 27200 (1988) 143000 36400 42500 66700 95000 111000 184000 209000 251000 400000
2020-07-27 05:00 15.12 19300 542000 (1993) 27200 (1988) 143000 36400 42500 66700 95000 111000 184000 209000 251000 400000
2020-07-27 04:30 15.13 542000 (1993) 27200 (1988) 143000 36400 42500 66700 95000 111000 184000 209000 251000 400000
2020-07-27 04:00 15.13 20500 542000 (1993) 27200 (1988) 143000 36400 42500 66700 95000 111000 184000 209000 251000 400000
2020-07-27 03:30 15.14 542000 (1993) 27200 (1988) 143000 36400 42500 66700 95000 111000 184000 209000 251000 400000
2020-07-27 03:00 15.13 20400 542000 (1993) 27200 (1988) 143000 36400 42500 66700 95000 111000 184000 209000 251000 400000
2020-07-27 02:30 15.12 542000 (1993) 27200 (1988) 143000 36400 42500 66700 95000 111000 184000 209000 251000 400000
2020-07-27 02:00 15.13 20400 542000 (1993) 27200 (1988) 143000 36400 42500 66700 95000 111000 184000 209000 251000 400000
2020-07-27 01:30 15.13 542000 (1993) 27200 (1988) 143000 36400 42500 66700 95000 111000 184000 209000 251000 400000
2020-07-27 01:00 15.13 542000 (1993) 27200 (1988) 143000 36400 42500 66700 95000 111000 184000 209000 251000 400000
2020-07-27 00:30 15.14 21600 542000 (1993) 27200 (1988) 143000 36400 42500 66700 95000 111000 184000 209000 251000 400000
2020-07-27 00:00 15.15 23300 542000 (1993) 27200 (1988) 143000 36400 42500 66700 95000 111000 184000 209000 251000 400000
2020-07-26 23:30 15.15 22800 556000 (1993) 27200 (1988) 144000 36300 44900 68000 83800 119000 189000 196000 243000 408000
2020-07-26 23:00 15.15 22800 556000 (1993) 27200 (1988) 144000 36300 44900 68000 83800 119000 189000 196000 243000 408000
2020-07-26 22:30 15.15 556000 (1993) 27200 (1988) 144000 36300 44900 68000 83800 119000 189000 196000 243000 408000
2020-07-26 22:00 15.14 556000 (1993) 27200 (1988) 144000 36300 44900 68000 83800 119000 189000 196000 243000 408000
2020-07-26 21:30 15.15 22700 556000 (1993) 27200 (1988) 144000 36300 44900 68000 83800 119000 189000 196000 243000 408000
2020-07-26 21:00 15.17 25100 556000 (1993) 27200 (1988) 144000 36300 44900 68000 83800 119000 189000 196000 243000 408000
2020-07-26 20:30 15.17 25100 556000 (1993) 27200 (1988) 144000 36300 44900 68000 83800 119000 189000 196000 243000 408000
2020-07-26 20:00 15.16 23900 556000 (1993) 27200 (1988) 144000 36300 44900 68000 83800 119000 189000 196000 243000 408000
2020-07-26 19:30 15.17 25000 556000 (1993) 27200 (1988) 144000 36300 44900 68000 83800 119000 189000 196000 243000 408000
2020-07-26 19:00 15.16 556000 (1993) 27200 (1988) 144000 36300 44900 68000 83800 119000 189000 196000 243000 408000
2020-07-26 18:30 15.16 23900 556000 (1993) 27200 (1988) 144000 36300 44900 68000 83800 119000 189000 196000 243000 408000
2020-07-26 18:00 15.18 556000 (1993) 27200 (1988) 144000 36300 44900 68000 83800 119000 189000 196000 243000 408000
2020-07-26 17:30 15.16 556000 (1993) 27200 (1988) 144000 36300 44900 68000 83800 119000 189000 196000 243000 408000
2020-07-26 17:00 15.19 556000 (1993) 27200 (1988) 144000 36300 44900 68000 83800 119000 189000 196000 243000 408000
2020-07-26 16:30 15.15 556000 (1993) 27200 (1988) 144000 36300 44900 68000 83800 119000 189000 196000 243000 408000
2020-07-26 16:00 15.17 25200 556000 (1993) 27200 (1988) 144000 36300 44900 68000 83800 119000 189000 196000 243000 408000
2020-07-26 15:30 15.19 27700 556000 (1993) 27200 (1988) 144000 36300 44900 68000 83800 119000 189000 196000 243000 408000
2020-07-26 15:00 15.17 556000 (1993) 27200 (1988) 144000 36300 44900 68000 83800 119000 189000 196000 243000 408000
2020-07-26 14:30 15.18 26600 556000 (1993) 27200 (1988) 144000 36300 44900 68000 83800 119000 189000 196000 243000 408000
2020-07-26 14:00 15.17 556000 (1993) 27200 (1988) 144000 36300 44900 68000 83800 119000 189000 196000 243000 408000
2020-07-26 13:30 15.20 556000 (1993) 27200 (1988) 144000 36300 44900 68000 83800 119000 189000 196000 243000 408000
2020-07-26 13:00 15.18 26600 556000 (1993) 27200 (1988) 144000 36300 44900 68000 83800 119000 189000 196000 243000 408000
2020-07-26 12:30 15.20 556000 (1993) 27200 (1988) 144000 36300 44900 68000 83800 119000 189000 196000 243000 408000
2020-07-26 12:00 15.16 556000 (1993) 27200 (1988) 144000 36300 44900 68000 83800 119000 189000 196000 243000 408000
2020-07-26 11:30 15.19 27700 556000 (1993) 27200 (1988) 144000 36300 44900 68000 83800 119000 189000 196000 243000 408000
2020-07-26 11:00 15.16 556000 (1993) 27200 (1988) 144000 36300 44900 68000 83800 119000 189000 196000 243000 408000
2020-07-26 10:30 15.20 29000 556000 (1993) 27200 (1988) 144000 36300 44900 68000 83800 119000 189000 196000 243000 408000
2020-07-26 10:00 15.22 31500 556000 (1993) 27200 (1988) 144000 36300 44900 68000 83800 119000 189000 196000 243000 408000
2020-07-26 09:30 15.21 30200 556000 (1993) 27200 (1988) 144000 36300 44900 68000 83800 119000 189000 196000 243000 408000
2020-07-26 09:00 15.21 30200 556000 (1993) 27200 (1988) 144000 36300 44900 68000 83800 119000 189000 196000 243000 408000
2020-07-26 08:30 15.22 31500 556000 (1993) 27200 (1988) 144000 36300 44900 68000 83800 119000 189000 196000 243000 408000
2020-07-26 08:00 15.21 30200 556000 (1993) 27200 (1988) 144000 36300 44900 68000 83800 119000 189000 196000 243000 408000
2020-07-26 07:30 15.21 30200 556000 (1993) 27200 (1988) 144000 36300 44900 68000 83800 119000 189000 196000 243000 408000
2020-07-26 07:00 15.20 556000 (1993) 27200 (1988) 144000 36300 44900 68000 83800 119000 189000 196000 243000 408000
2020-07-26 06:30 15.22 31300 556000 (1993) 27200 (1988) 144000 36300 44900 68000 83800 119000 189000 196000 243000 408000
2020-07-26 06:00 15.22 31300 556000 (1993) 27200 (1988) 144000 36300 44900 68000 83800 119000 189000 196000 243000 408000
2020-07-26 05:30 15.22 31300 556000 (1993) 27200 (1988) 144000 36300 44900 68000 83800 119000 189000 196000 243000 408000
2020-07-26 05:00 15.22 556000 (1993) 27200 (1988) 144000 36300 44900 68000 83800 119000 189000 196000 243000 408000
2020-07-26 04:30 15.22 31400 556000 (1993) 27200 (1988) 144000 36300 44900 68000 83800 119000 189000 196000 243000 408000
2020-07-26 04:00 15.25 556000 (1993) 27200 (1988) 144000 36300 44900 68000 83800 119000 189000 196000 243000 408000
2020-07-26 03:30 15.23 32300 556000 (1993) 27200 (1988) 144000 36300 44900 68000 83800 119000 189000 196000 243000 408000
2020-07-26 03:00 15.23 556000 (1993) 27200 (1988) 144000 36300 44900 68000 83800 119000 189000 196000 243000 408000
2020-07-26 02:30 15.23 32400 556000 (1993) 27200 (1988) 144000 36300 44900 68000 83800 119000 189000 196000 243000 408000
2020-07-26 02:00 15.22 31200 556000 (1993) 27200 (1988) 144000 36300 44900 68000 83800 119000 189000 196000 243000 408000
2020-07-26 01:30 15.16 556000 (1993) 27200 (1988) 144000 36300 44900 68000 83800 119000 189000 196000 243000 408000
2020-07-26 01:00 15.24 556000 (1993) 27200 (1988) 144000 36300 44900 68000 83800 119000 189000 196000 243000 408000
2020-07-26 00:30 15.24 556000 (1993) 27200 (1988) 144000 36300 44900 68000 83800 119000 189000 196000 243000 408000
2020-07-26 00:00 15.21 29800 556000 (1993) 27200 (1988) 144000 36300 44900 68000 83800 119000 189000 196000 243000 408000
2020-07-25 23:30 15.23 32300 557000 (1993) 27800 (1988) 146000 33500 46500 67800 89000 124000 176000 194000 247000 412000
2020-07-25 23:00 15.22 31100 557000 (1993) 27800 (1988) 146000 33500 46500 67800 89000 124000 176000 194000 247000 412000
2020-07-25 22:30 15.22 31100 557000 (1993) 27800 (1988) 146000 33500 46500 67800 89000 124000 176000 194000 247000 412000
2020-07-25 22:00 15.22 31100 557000 (1993) 27800 (1988) 146000 33500 46500 67800 89000 124000 176000 194000 247000 412000
2020-07-25 21:30 15.22 31200 557000 (1993) 27800 (1988) 146000 33500 46500 67800 89000 124000 176000 194000 247000 412000
2020-07-25 21:00 15.20 28700 557000 (1993) 27800 (1988) 146000 33500 46500 67800 89000 124000 176000 194000 247000 412000
2020-07-25 20:30 15.22 557000 (1993) 27800 (1988) 146000 33500 46500 67800 89000 124000 176000 194000 247000 412000
2020-07-25 20:00 15.20 28800 557000 (1993) 27800 (1988) 146000 33500 46500 67800 89000 124000 176000 194000 247000 412000
2020-07-25 19:30 15.22 557000 (1993) 27800 (1988) 146000 33500 46500 67800 89000 124000 176000 194000 247000 412000
2020-07-25 19:00 15.20 557000 (1993) 27800 (1988) 146000 33500 46500 67800 89000 124000 176000 194000 247000 412000
2020-07-25 18:30 15.19 27900 557000 (1993) 27800 (1988) 146000 33500 46500 67800 89000 124000 176000 194000 247000 412000
2020-07-25 18:00 15.20 557000 (1993) 27800 (1988) 146000 33500 46500 67800 89000 124000 176000 194000 247000 412000
2020-07-25 17:30 15.15 557000 (1993) 27800 (1988) 146000 33500 46500 67800 89000 124000 176000 194000 247000 412000
2020-07-25 17:00 15.15 557000 (1993) 27800 (1988) 146000 33500 46500 67800 89000 124000 176000 194000 247000 412000
2020-07-25 16:30 15.19 557000 (1993) 27800 (1988) 146000 33500 46500 67800 89000 124000 176000 194000 247000 412000
2020-07-25 16:00 15.22 557000 (1993) 27800 (1988) 146000 33500 46500 67800 89000 124000 176000 194000 247000 412000
2020-07-25 15:30 15.16 557000 (1993) 27800 (1988) 146000 33500 46500 67800 89000 124000 176000 194000 247000 412000
2020-07-25 15:00 15.16 557000 (1993) 27800 (1988) 146000 33500 46500 67800 89000 124000 176000 194000 247000 412000
2020-07-25 14:30 15.16 557000 (1993) 27800 (1988) 146000 33500 46500 67800 89000 124000 176000 194000 247000 412000
2020-07-25 14:00 15.22 32000 557000 (1993) 27800 (1988) 146000 33500 46500 67800 89000 124000 176000 194000 247000 412000
2020-07-25 13:30 15.24 34500 557000 (1993) 27800 (1988) 146000 33500 46500 67800 89000 124000 176000 194000 247000 412000
2020-07-25 13:00 15.21 557000 (1993) 27800 (1988) 146000 33500 46500 67800 89000 124000 176000 194000 247000 412000
2020-07-25 12:30 15.30 557000 (1993) 27800 (1988) 146000 33500 46500 67800 89000 124000 176000 194000 247000 412000
2020-07-25 12:00 15.28 39600 557000 (1993) 27800 (1988) 146000 33500 46500 67800 89000 124000 176000 194000 247000 412000
2020-07-25 11:30 15.24 557000 (1993) 27800 (1988) 146000 33500 46500 67800 89000 124000 176000 194000 247000 412000
2020-07-25 11:00 15.27 38400 557000 (1993) 27800 (1988) 146000 33500 46500 67800 89000 124000 176000 194000 247000 412000
2020-07-25 10:30 15.28 39900 557000 (1993) 27800 (1988) 146000 33500 46500 67800 89000 124000 176000 194000 247000 412000
2020-07-25 10:00 15.25 557000 (1993) 27800 (1988) 146000 33500 46500 67800 89000 124000 176000 194000 247000 412000
2020-07-25 09:30 15.29 41700 557000 (1993) 27800 (1988) 146000 33500 46500 67800 89000 124000 176000 194000 247000 412000
2020-07-25 09:00 15.31 44500 557000 (1993) 27800 (1988) 146000 33500 46500 67800 89000 124000 176000 194000 247000 412000
2020-07-25 08:30 15.30 557000 (1993) 27800 (1988) 146000 33500 46500 67800 89000 124000 176000 194000 247000 412000
2020-07-25 08:00 15.31 557000 (1993) 27800 (1988) 146000 33500 46500 67800 89000 124000 176000 194000 247000 412000
2020-07-25 07:30 15.31 557000 (1993) 27800 (1988) 146000 33500 46500 67800 89000 124000 176000 194000 247000 412000
2020-07-25 07:00 15.34 47600 557000 (1993) 27800 (1988) 146000 33500 46500 67800 89000 124000 176000 194000 247000 412000
2020-07-25 06:30 15.31 557000 (1993) 27800 (1988) 146000 33500 46500 67800 89000 124000 176000 194000 247000 412000
2020-07-25 06:00 15.36 50100 557000 (1993) 27800 (1988) 146000 33500 46500 67800 89000 124000 176000 194000 247000 412000
2020-07-25 05:30 15.37 557000 (1993) 27800 (1988) 146000 33500 46500 67800 89000 124000 176000 194000 247000 412000
2020-07-25 05:00 15.38 52800 557000 (1993) 27800 (1988) 146000 33500 46500 67800 89000 124000 176000 194000 247000 412000
2020-07-25 04:30 15.40 55500 557000 (1993) 27800 (1988) 146000 33500 46500 67800 89000 124000 176000 194000 247000 412000
2020-07-25 04:00 15.41 56500 557000 (1993) 27800 (1988) 146000 33500 46500 67800 89000 124000 176000 194000 247000 412000
2020-07-25 03:30 15.43 59100 557000 (1993) 27800 (1988) 146000 33500 46500 67800 89000 124000 176000 194000 247000 412000
2020-07-25 03:00 15.43 557000 (1993) 27800 (1988) 146000 33500 46500 67800 89000 124000 176000 194000 247000 412000
2020-07-25 02:30 15.43 557000 (1993) 27800 (1988) 146000 33500 46500 67800 89000 124000 176000 194000 247000 412000
2020-07-25 02:00 15.45 61500 557000 (1993) 27800 (1988) 146000 33500 46500 67800 89000 124000 176000 194000 247000 412000
2020-07-25 01:30 15.44 557000 (1993) 27800 (1988) 146000 33500 46500 67800 89000 124000 176000 194000 247000 412000
2020-07-25 01:00 15.46 62600 557000 (1993) 27800 (1988) 146000 33500 46500 67800 89000 124000 176000 194000 247000 412000
2020-07-25 00:30 15.48 65300 557000 (1993) 27800 (1988) 146000 33500 46500 67800 89000 124000 176000 194000 247000 412000
2020-07-25 00:00 15.48 65200 557000 (1993) 27800 (1988) 146000 33500 46500 67800 89000 124000 176000 194000 247000 412000
2020-07-24 23:30 15.48 65200 557000 (1993) 30500 (1988) 146000 34100 51300 67600 87600 128000 177000 188000 256000 413000
2020-07-24 23:00 15.48 557000 (1993) 30500 (1988) 146000 34100 51300 67600 87600 128000 177000 188000 256000 413000
2020-07-24 22:30 15.49 66700 557000 (1993) 30500 (1988) 146000 34100 51300 67600 87600 128000 177000 188000 256000 413000
2020-07-24 22:00 15.49 557000 (1993) 30500 (1988) 146000 34100 51300 67600 87600 128000 177000 188000 256000 413000
2020-07-24 21:30 15.49 557000 (1993) 30500 (1988) 146000 34100 51300 67600 87600 128000 177000 188000 256000 413000
2020-07-24 21:00 15.49 557000 (1993) 30500 (1988) 146000 34100 51300 67600 87600 128000 177000 188000 256000 413000
2020-07-24 20:30 15.49 66000 557000 (1993) 30500 (1988) 146000 34100 51300 67600 87600 128000 177000 188000 256000 413000
2020-07-24 20:00 15.39 557000 (1993) 30500 (1988) 146000 34100 51300 67600 87600 128000 177000 188000 256000 413000
2020-07-24 19:30 15.49 66000 557000 (1993) 30500 (1988) 146000 34100 51300 67600 87600 128000 177000 188000 256000 413000
2020-07-24 19:00 15.50 67700 557000 (1993) 30500 (1988) 146000 34100 51300 67600 87600 128000 177000 188000 256000 413000
2020-07-24 18:30 15.53 557000 (1993) 30500 (1988) 146000 34100 51300 67600 87600 128000 177000 188000 256000 413000
2020-07-24 18:00 15.50 67500 557000 (1993) 30500 (1988) 146000 34100 51300 67600 87600 128000 177000 188000 256000 413000
2020-07-24 17:30 15.48 557000 (1993) 30500 (1988) 146000 34100 51300 67600 87600 128000 177000 188000 256000 413000
2020-07-24 17:00 15.49 557000 (1993) 30500 (1988) 146000 34100 51300 67600 87600 128000 177000 188000 256000 413000
2020-07-24 16:30 15.52 70000 557000 (1993) 30500 (1988) 146000 34100 51300 67600 87600 128000 177000 188000 256000 413000
2020-07-24 16:00 15.52 69900 557000 (1993) 30500 (1988) 146000 34100 51300 67600 87600 128000 177000 188000 256000 413000
2020-07-24 15:30 15.51 557000 (1993) 30500 (1988) 146000 34100 51300 67600 87600 128000 177000 188000 256000 413000
2020-07-24 15:00 15.51 68500 557000 (1993) 30500 (1988) 146000 34100 51300 67600 87600 128000 177000 188000 256000 413000
2020-07-24 14:30 15.52 70000 557000 (1993) 30500 (1988) 146000 34100 51300 67600 87600 128000 177000 188000 256000 413000
2020-07-24 14:00 15.54 557000 (1993) 30500 (1988) 146000 34100 51300 67600 87600 128000 177000 188000 256000 413000
2020-07-24 13:30 15.52 70000 557000 (1993) 30500 (1988) 146000 34100 51300 67600 87600 128000 177000 188000 256000 413000
2020-07-24 13:00 15.50 67300 557000 (1993) 30500 (1988) 146000 34100 51300 67600 87600 128000 177000 188000 256000 413000
2020-07-24 12:30 15.51 557000 (1993) 30500 (1988) 146000 34100 51300 67600 87600 128000 177000 188000 256000 413000
2020-07-24 12:00 15.50 67800 557000 (1993) 30500 (1988) 146000 34100 51300 67600 87600 128000 177000 188000 256000 413000
2020-07-24 11:30 15.49 66700 557000 (1993) 30500 (1988) 146000 34100 51300 67600 87600 128000 177000 188000 256000 413000
2020-07-24 11:00 15.46 557000 (1993) 30500 (1988) 146000 34100 51300 67600 87600 128000 177000 188000 256000 413000
2020-07-24 10:30 15.50 68500 557000 (1993) 30500 (1988) 146000 34100 51300 67600 87600 128000 177000 188000 256000 413000
2020-07-24 10:00 15.51 70100 557000 (1993) 30500 (1988) 146000 34100 51300 67600 87600 128000 177000 188000 256000 413000
2020-07-24 09:30 15.50 68600 557000 (1993) 30500 (1988) 146000 34100 51300 67600 87600 128000 177000 188000 256000 413000
2020-07-24 09:00 15.51 69900 557000 (1993) 30500 (1988) 146000 34100 51300 67600 87600 128000 177000 188000 256000 413000
2020-07-24 08:30 15.50 557000 (1993) 30500 (1988) 146000 34100 51300 67600 87600 128000 177000 188000 256000 413000
2020-07-24 08:00 15.51 69900 557000 (1993) 30500 (1988) 146000 34100 51300 67600 87600 128000 177000 188000 256000 413000
2020-07-24 07:30 15.51 69600 557000 (1993) 30500 (1988) 146000 34100 51300 67600 87600 128000 177000 188000 256000 413000
2020-07-24 07:00 15.52 71000 557000 (1993) 30500 (1988) 146000 34100 51300 67600 87600 128000 177000 188000 256000 413000
2020-07-24 06:30 15.52 557000 (1993) 30500 (1988) 146000 34100 51300 67600 87600 128000 177000 188000 256000 413000
2020-07-24 06:00 15.51 69300 557000 (1993) 30500 (1988) 146000 34100 51300 67600 87600 128000 177000 188000 256000 413000
2020-07-24 05:30 15.52 70600 557000 (1993) 30500 (1988) 146000 34100 51300 67600 87600 128000 177000 188000 256000 413000
2020-07-24 05:00 15.51 69300 557000 (1993) 30500 (1988) 146000 34100 51300 67600 87600 128000 177000 188000 256000 413000
2020-07-24 04:30 15.51 69300 557000 (1993) 30500 (1988) 146000 34100 51300 67600 87600 128000 177000 188000 256000 413000
2020-07-24 04:00 15.51 69500 557000 (1993) 30500 (1988) 146000 34100 51300 67600 87600 128000 177000 188000 256000 413000
2020-07-24 03:30 15.51 69500 557000 (1993) 30500 (1988) 146000 34100 51300 67600 87600 128000 177000 188000 256000 413000
2020-07-24 03:00 15.50 557000 (1993) 30500 (1988) 146000 34100 51300 67600 87600 128000 177000 188000 256000 413000
2020-07-24 02:30 15.50 68200 557000 (1993) 30500 (1988) 146000 34100 51300 67600 87600 128000 177000 188000 256000 413000
2020-07-24 02:00 15.50 68200 557000 (1993) 30500 (1988) 146000 34100 51300 67600 87600 128000 177000 188000 256000 413000
2020-07-24 01:30 15.50 68200 557000 (1993) 30500 (1988) 146000 34100 51300 67600 87600 128000 177000 188000 256000 413000
2020-07-24 01:00 15.49 557000 (1993) 30500 (1988) 146000 34100 51300 67600 87600 128000 177000 188000 256000 413000
2020-07-24 00:30 15.50 68500 557000 (1993) 30500 (1988) 146000 34100 51300 67600 87600 128000 177000 188000 256000 413000
2020-07-24 00:00 15.50 557000 (1993) 30500 (1988) 146000 34100 51300 67600 87600 128000 177000 188000 256000 413000
2020-07-23 23:30 15.51 69900 557000 (1993) 29400 (1988) 145000 40000 47500 68100 75700 124000 174000 193000 270000 413000
2020-07-23 23:00 15.51 69600 557000 (1993) 29400 (1988) 145000 40000 47500 68100 75700 124000 174000 193000 270000 413000
2020-07-23 22:30 15.51 557000 (1993) 29400 (1988) 145000 40000 47500 68100 75700 124000 174000 193000 270000 413000
2020-07-23 22:00 15.52 70900 557000 (1993) 29400 (1988) 145000 40000 47500 68100 75700 124000 174000 193000 270000 413000
2020-07-23 21:30 15.52 70600 557000 (1993) 29400 (1988) 145000 40000 47500 68100 75700 124000 174000 193000 270000 413000
2020-07-23 21:00 15.52 70400 557000 (1993) 29400 (1988) 145000 40000 47500 68100 75700 124000 174000 193000 270000 413000
2020-07-23 20:30 15.52 557000 (1993) 29400 (1988) 145000 40000 47500 68100 75700 124000 174000 193000 270000 413000
2020-07-23 20:00 15.52 557000 (1993) 29400 (1988) 145000 40000 47500 68100 75700 124000 174000 193000 270000 413000
2020-07-23 19:30 15.53 71300 557000 (1993) 29400 (1988) 145000 40000 47500 68100 75700 124000 174000 193000 270000 413000
2020-07-23 19:00 15.54 72800 557000 (1993) 29400 (1988) 145000 40000 47500 68100 75700 124000 174000 193000 270000 413000
2020-07-23 18:30 15.55 557000 (1993) 29400 (1988) 145000 40000 47500 68100 75700 124000 174000 193000 270000 413000
2020-07-23 18:00 15.52 557000 (1993) 29400 (1988) 145000 40000 47500 68100 75700 124000 174000 193000 270000 413000
2020-07-23 17:30 15.56 557000 (1993) 29400 (1988) 145000 40000 47500 68100 75700 124000 174000 193000 270000 413000
2020-07-23 17:00 15.54 73100 557000 (1993) 29400 (1988) 145000 40000 47500 68100 75700 124000 174000 193000 270000 413000
2020-07-23 16:30 15.52 557000 (1993) 29400 (1988) 145000 40000 47500 68100 75700 124000 174000 193000 270000 413000
2020-07-23 16:00 15.55 74600 557000 (1993) 29400 (1988) 145000 40000 47500 68100 75700 124000 174000 193000 270000 413000
2020-07-23 15:30 15.55 557000 (1993) 29400 (1988) 145000 40000 47500 68100 75700 124000 174000 193000 270000 413000
2020-07-23 15:00 15.55 557000 (1993) 29400 (1988) 145000 40000 47500 68100 75700 124000 174000 193000 270000 413000
2020-07-23 14:30 15.54 73400 557000 (1993) 29400 (1988) 145000 40000 47500 68100 75700 124000 174000 193000 270000 413000
2020-07-23 14:00 15.53 72100 557000 (1993) 29400 (1988) 145000 40000 47500 68100 75700 124000 174000 193000 270000 413000
2020-07-23 13:30 15.53 72100 557000 (1993) 29400 (1988) 145000 40000 47500 68100 75700 124000 174000 193000 270000 413000
2020-07-23 13:00 15.54 73500 557000 (1993) 29400 (1988) 145000 40000 47500 68100 75700 124000 174000 193000 270000 413000
2020-07-23 12:30 15.53 72100 557000 (1993) 29400 (1988) 145000 40000 47500 68100 75700 124000 174000 193000 270000 413000
2020-07-23 12:00 15.53 557000 (1993) 29400 (1988) 145000 40000 47500 68100 75700 124000 174000 193000 270000 413000
2020-07-23 11:30 15.53 557000 (1993) 29400 (1988) 145000 40000 47500 68100 75700 124000 174000 193000 270000 413000
2020-07-23 11:00 15.54 73700 557000 (1993) 29400 (1988) 145000 40000 47500 68100 75700 124000 174000 193000 270000 413000
2020-07-23 10:30 15.55 75100 557000 (1993) 29400 (1988) 145000 40000 47500 68100 75700 124000 174000 193000 270000 413000
2020-07-23 10:00 15.56 76500 557000 (1993) 29400 (1988) 145000 40000 47500 68100 75700 124000 174000 193000 270000 413000
2020-07-23 09:30 15.55 75200 557000 (1993) 29400 (1988) 145000 40000 47500 68100 75700 124000 174000 193000 270000 413000
2020-07-23 09:00 15.56 557000 (1993) 29400 (1988) 145000 40000 47500 68100 75700 124000 174000 193000 270000 413000
2020-07-23 08:30 15.56 76700 557000 (1993) 29400 (1988) 145000 40000 47500 68100 75700 124000 174000 193000 270000 413000
2020-07-23 08:00 15.54 557000 (1993) 29400 (1988) 145000 40000 47500 68100 75700 124000 174000 193000 270000 413000
2020-07-23 07:30 15.57 78300 557000 (1993) 29400 (1988) 145000 40000 47500 68100 75700 124000 174000 193000 270000 413000
2020-07-23 07:00 15.57 78700 557000 (1993) 29400 (1988) 145000 40000 47500 68100 75700 124000 174000 193000 270000 413000
2020-07-23 06:30 15.56 557000 (1993) 29400 (1988) 145000 40000 47500 68100 75700 124000 174000 193000 270000 413000
2020-07-23 06:00 15.58 79000 557000 (1993) 29400 (1988) 145000 40000 47500 68100 75700 124000 174000 193000 270000 413000
2020-07-23 05:30 15.55 557000 (1993) 29400 (1988) 145000 40000 47500 68100 75700 124000 174000 193000 270000 413000
2020-07-23 05:00 15.58 79300 557000 (1993) 29400 (1988) 145000 40000 47500 68100 75700 124000 174000 193000 270000 413000
2020-07-23 04:30 15.59 80100 557000 (1993) 29400 (1988) 145000 40000 47500 68100 75700 124000 174000 193000 270000 413000
2020-07-23 04:00 15.58 557000 (1993) 29400 (1988) 145000 40000 47500 68100 75700 124000 174000 193000 270000 413000
2020-07-23 03:30 15.59 79800 557000 (1993) 29400 (1988) 145000 40000 47500 68100 75700 124000 174000 193000 270000 413000
2020-07-23 03:00 15.58 557000 (1993) 29400 (1988) 145000 40000 47500 68100 75700 124000 174000 193000 270000 413000
2020-07-23 02:30 15.61 81700 557000 (1993) 29400 (1988) 145000 40000 47500 68100 75700 124000 174000 193000 270000 413000
2020-07-23 02:00 15.61 81900 557000 (1993) 29400 (1988) 145000 40000 47500 68100 75700 124000 174000 193000 270000 413000
2020-07-23 01:30 15.61 81700 557000 (1993) 29400 (1988) 145000 40000 47500 68100 75700 124000 174000 193000 270000 413000
2020-07-23 01:00 15.59 79700 557000 (1993) 29400 (1988) 145000 40000 47500 68100 75700 124000 174000 193000 270000 413000
2020-07-23 00:30 15.62 557000 (1993) 29400 (1988) 145000 40000 47500 68100 75700 124000 174000 193000 270000 413000
2020-07-23 00:00 15.58 557000 (1993) 29400 (1988) 145000 40000 47500 68100 75700 124000 174000 193000 270000 413000
2020-07-22 23:30 15.60 80900 555000 (1993) 31200 (1988) 146000 39600 55100 74600 78600 122000 168000 185000 286000 405000
2020-07-22 23:00 15.60 80900 555000 (1993) 31200 (1988) 146000 39600 55100 74600 78600 122000 168000 185000 286000 405000
2020-07-22 22:30 15.60 81100 555000 (1993) 31200 (1988) 146000 39600 55100 74600 78600 122000 168000 185000 286000 405000
2020-07-22 22:00 15.59 80100 555000 (1993) 31200 (1988) 146000 39600 55100 74600 78600 122000 168000 185000 286000 405000
2020-07-22 21:30 15.59 80400 555000 (1993) 31200 (1988) 146000 39600 55100 74600 78600 122000 168000 185000 286000 405000
2020-07-22 21:00 15.59 80400 555000 (1993) 31200 (1988) 146000 39600 55100 74600 78600 122000 168000 185000 286000 405000
2020-07-22 20:30 15.57 555000 (1993) 31200 (1988) 146000 39600 55100 74600 78600 122000 168000 185000 286000 405000
2020-07-22 20:00 15.58 79800 555000 (1993) 31200 (1988) 146000 39600 55100 74600 78600 122000 168000 185000 286000 405000
2020-07-22 19:30 15.59 80700 555000 (1993) 31200 (1988) 146000 39600 55100 74600 78600 122000 168000 185000 286000 405000
2020-07-22 19:00 15.59 80800 555000 (1993) 31200 (1988) 146000 39600 55100 74600 78600 122000 168000 185000 286000 405000
2020-07-22 18:30 15.60 82000 555000 (1993) 31200 (1988) 146000 39600 55100 74600 78600 122000 168000 185000 286000 405000
2020-07-22 18:00 15.61 555000 (1993) 31200 (1988) 146000 39600 55100 74600 78600 122000 168000 185000 286000 405000
2020-07-22 17:30 15.58 80400 555000 (1993) 31200 (1988) 146000 39600 55100 74600 78600 122000 168000 185000 286000 405000
2020-07-22 17:00 15.59 81300 555000 (1993) 31200 (1988) 146000 39600 55100 74600 78600 122000 168000 185000 286000 405000
2020-07-22 16:30 15.59 81600 555000 (1993) 31200 (1988) 146000 39600 55100 74600 78600 122000 168000 185000 286000 405000
2020-07-22 16:00 15.58 80700 555000 (1993) 31200 (1988) 146000 39600 55100 74600 78600 122000 168000 185000 286000 405000
2020-07-22 15:30 15.59 82000 555000 (1993) 31200 (1988) 146000 39600 55100 74600 78600 122000 168000 185000 286000 405000
2020-07-22 15:00 15.58 555000 (1993) 31200 (1988) 146000 39600 55100 74600 78600 122000 168000 185000 286000 405000
2020-07-22 14:30 15.58 555000 (1993) 31200 (1988) 146000 39600 55100 74600 78600 122000 168000 185000 286000 405000
2020-07-22 14:00 15.60 83000 555000 (1993) 31200 (1988) 146000 39600 55100 74600 78600 122000 168000 185000 286000 405000
2020-07-22 13:30 15.60 555000 (1993) 31200 (1988) 146000 39600 55100 74600 78600 122000 168000 185000 286000 405000
2020-07-22 13:00 15.63 86000 555000 (1993) 31200 (1988) 146000 39600 55100 74600 78600 122000 168000 185000 286000 405000
2020-07-22 12:30 15.61 555000 (1993) 31200 (1988) 146000 39600 55100 74600 78600 122000 168000 185000 286000 405000
2020-07-22 12:00 15.62 85100 555000 (1993) 31200 (1988) 146000 39600 55100 74600 78600 122000 168000 185000 286000 405000
2020-07-22 11:30 15.64 87200 555000 (1993) 31200 (1988) 146000 39600 55100 74600 78600 122000 168000 185000 286000 405000
2020-07-22 11:00 15.64 87000 555000 (1993) 31200 (1988) 146000 39600 55100 74600 78600 122000 168000 185000 286000 405000
2020-07-22 10:30 15.63 86000 555000 (1993) 31200 (1988) 146000 39600 55100 74600 78600 122000 168000 185000 286000 405000
2020-07-22 10:00 15.62 555000 (1993) 31200 (1988) 146000 39600 55100 74600 78600 122000 168000 185000 286000 405000
2020-07-22 09:30 15.64 87000 555000 (1993) 31200 (1988) 146000 39600 55100 74600 78600 122000 168000 185000 286000 405000
2020-07-22 09:00 15.65 87900 555000 (1993) 31200 (1988) 146000 39600 55100 74600 78600 122000 168000 185000 286000 405000
2020-07-22 08:30 15.61 555000 (1993) 31200 (1988) 146000 39600 55100 74600 78600 122000 168000 185000 286000 405000
2020-07-22 08:00 15.65 87800 555000 (1993) 31200 (1988) 146000 39600 55100 74600 78600 122000 168000 185000 286000 405000
2020-07-22 07:30 15.65 87800 555000 (1993) 31200 (1988) 146000 39600 55100 74600 78600 122000 168000 185000 286000 405000
2020-07-22 07:00 15.64 86700 555000 (1993) 31200 (1988) 146000 39600 55100 74600 78600 122000 168000 185000 286000 405000
2020-07-22 06:30 15.64 555000 (1993) 31200 (1988) 146000 39600 55100 74600 78600 122000 168000 185000 286000 405000
2020-07-22 06:00 15.62 555000 (1993) 31200 (1988) 146000 39600 55100 74600 78600 122000 168000 185000 286000 405000
2020-07-22 05:30 15.65 555000 (1993) 31200 (1988) 146000 39600 55100 74600 78600 122000 168000 185000 286000 405000
2020-07-22 05:00 15.64 86400 555000 (1993) 31200 (1988) 146000 39600 55100 74600 78600 122000 168000 185000 286000 405000
2020-07-22 04:30 15.64 555000 (1993) 31200 (1988) 146000 39600 55100 74600 78600 122000 168000 185000 286000 405000
2020-07-22 04:00 15.62 85200 555000 (1993) 31200 (1988) 146000 39600 55100 74600 78600 122000 168000 185000 286000 405000
2020-07-22 03:30 15.63 555000 (1993) 31200 (1988) 146000 39600 55100 74600 78600 122000 168000 185000 286000 405000
2020-07-22 03:00 15.61 84200 555000 (1993) 31200 (1988) 146000 39600 55100 74600 78600 122000 168000 185000 286000 405000
2020-07-22 02:30 15.60 83400 555000 (1993) 31200 (1988) 146000 39600 55100 74600 78600 122000 168000 185000 286000 405000
2020-07-22 02:00 15.59 82500 555000 (1993) 31200 (1988) 146000 39600 55100 74600 78600 122000 168000 185000 286000 405000
2020-07-22 01:30 15.59 555000 (1993) 31200 (1988) 146000 39600 55100 74600 78600 122000 168000 185000 286000 405000
2020-07-22 01:00 15.60 555000 (1993) 31200 (1988) 146000 39600 55100 74600 78600 122000 168000 185000 286000 405000
2020-07-22 00:30 15.57 80600 555000 (1993) 31200 (1988) 146000 39600 55100 74600 78600 122000 168000 185000 286000 405000
2020-07-22 00:00 15.57 555000 (1993) 31200 (1988) 146000 39600 55100 74600 78600 122000 168000 185000 286000 405000
2020-07-21 23:30 15.56 550000 (1993) 28500 (1988) 146000 39600 51000 70500 82600 127000 182000 198000 297000 390000
2020-07-21 23:00 15.54 77100 550000 (1993) 28500 (1988) 146000 39600 51000 70500 82600 127000 182000 198000 297000 390000
2020-07-21 22:30 15.54 550000 (1993) 28500 (1988) 146000 39600 51000 70500 82600 127000 182000 198000 297000 390000
2020-07-21 22:00 15.50 71400 550000 (1993) 28500 (1988) 146000 39600 51000 70500 82600 127000 182000 198000 297000 390000
2020-07-21 21:30 15.53 550000 (1993) 28500 (1988) 146000 39600 51000 70500 82600 127000 182000 198000 297000 390000
2020-07-21 21:00 15.49 71000 550000 (1993) 28500 (1988) 146000 39600 51000 70500 82600 127000 182000 198000 297000 390000
2020-07-21 20:30 15.47 550000 (1993) 28500 (1988) 146000 39600 51000 70500 82600 127000 182000 198000 297000 390000
2020-07-21 20:00 15.46 550000 (1993) 28500 (1988) 146000 39600 51000 70500 82600 127000 182000 198000 297000 390000
2020-07-21 19:30 15.48 71300 550000 (1993) 28500 (1988) 146000 39600 51000 70500 82600 127000 182000 198000 297000 390000
2020-07-21 19:00 15.47 550000 (1993) 28500 (1988) 146000 39600 51000 70500 82600 127000 182000 198000 297000 390000
2020-07-21 18:30 15.49 72700 550000 (1993) 28500 (1988) 146000 39600 51000 70500 82600 127000 182000 198000 297000 390000
2020-07-21 18:00 15.50 550000 (1993) 28500 (1988) 146000 39600 51000 70500 82600 127000 182000 198000 297000 390000
2020-07-21 17:30 15.50 550000 (1993) 28500 (1988) 146000 39600 51000 70500 82600 127000 182000 198000 297000 390000
2020-07-21 17:00 15.46 68100 550000 (1993) 28500 (1988) 146000 39600 51000 70500 82600 127000 182000 198000 297000 390000
2020-07-21 16:30 15.47 69200 550000 (1993) 28500 (1988) 146000 39600 51000 70500 82600 127000 182000 198000 297000 390000
2020-07-21 16:00 15.45 550000 (1993) 28500 (1988) 146000 39600 51000 70500 82600 127000 182000 198000 297000 390000
2020-07-21 15:30 15.48 70600 550000 (1993) 28500 (1988) 146000 39600 51000 70500 82600 127000 182000 198000 297000 390000
2020-07-21 15:00 15.46 550000 (1993) 28500 (1988) 146000 39600 51000 70500 82600 127000 182000 198000 297000 390000
2020-07-21 14:30 15.48 550000 (1993) 28500 (1988) 146000 39600 51000 70500 82600 127000 182000 198000 297000 390000
2020-07-21 14:00 15.50 73400 550000 (1993) 28500 (1988) 146000 39600 51000 70500 82600 127000 182000 198000 297000 390000
2020-07-21 13:30 15.51 74800 550000 (1993) 28500 (1988) 146000 39600 51000 70500 82600 127000 182000 198000 297000 390000
2020-07-21 13:00 15.51 550000 (1993) 28500 (1988) 146000 39600 51000 70500 82600 127000 182000 198000 297000 390000
2020-07-21 12:30 15.52 76000 550000 (1993) 28500 (1988) 146000 39600 51000 70500 82600 127000 182000 198000 297000 390000
2020-07-21 12:00 15.54 78800 550000 (1993) 28500 (1988) 146000 39600 51000 70500 82600 127000 182000 198000 297000 390000
2020-07-21 11:30 15.54 550000 (1993) 28500 (1988) 146000 39600 51000 70500 82600 127000 182000 198000 297000 390000
2020-07-21 11:00 15.54 550000 (1993) 28500 (1988) 146000 39600 51000 70500 82600 127000 182000 198000 297000 390000
2020-07-21 10:30 15.55 550000 (1993) 28500 (1988) 146000 39600 51000 70500 82600 127000 182000 198000 297000 390000
2020-07-21 10:00 15.57 82700 550000 (1993) 28500 (1988) 146000 39600 51000 70500 82600 127000 182000 198000 297000 390000
2020-07-21 09:30 15.60 86200 550000 (1993) 28500 (1988) 146000 39600 51000 70500 82600 127000 182000 198000 297000 390000
2020-07-21 09:00 15.60 86200 550000 (1993) 28500 (1988) 146000 39600 51000 70500 82600 127000 182000 198000 297000 390000
2020-07-21 08:30 15.58 550000 (1993) 28500 (1988) 146000 39600 51000 70500 82600 127000 182000 198000 297000 390000
2020-07-21 08:00 15.59 550000 (1993) 28500 (1988) 146000 39600 51000 70500 82600 127000 182000 198000 297000 390000
2020-07-21 07:30 15.61 550000 (1993) 28500 (1988) 146000 39600 51000 70500 82600 127000 182000 198000 297000 390000
2020-07-21 07:00 15.63 89000 550000 (1993) 28500 (1988) 146000 39600 51000 70500 82600 127000 182000 198000 297000 390000
2020-07-21 06:30 15.64 90000 550000 (1993) 28500 (1988) 146000 39600 51000 70500 82600 127000 182000 198000 297000 390000
2020-07-21 06:00 15.64 91300 550000 (1993) 28500 (1988) 146000 39600 51000 70500 82600 127000 182000 198000 297000 390000
2020-07-21 05:30 15.66 92000 550000 (1993) 28500 (1988) 146000 39600 51000 70500 82600 127000 182000 198000 297000 390000
2020-07-21 05:00 15.64 550000 (1993) 28500 (1988) 146000 39600 51000 70500 82600 127000 182000 198000 297000 390000
2020-07-21 04:30 15.66 91700 550000 (1993) 28500 (1988) 146000 39600 51000 70500 82600 127000 182000 198000 297000 390000
2020-07-21 04:00 15.66 550000 (1993) 28500 (1988) 146000 39600 51000 70500 82600 127000 182000 198000 297000 390000
2020-07-21 03:30 15.68 93900 550000 (1993) 28500 (1988) 146000 39600 51000 70500 82600 127000 182000 198000 297000 390000
2020-07-21 03:00 15.67 93000 550000 (1993) 28500 (1988) 146000 39600 51000 70500 82600 127000 182000 198000 297000 390000
2020-07-21 02:30 15.67 93300 550000 (1993) 28500 (1988) 146000 39600 51000 70500 82600 127000 182000 198000 297000 390000
2020-07-21 02:00 15.68 94200 550000 (1993) 28500 (1988) 146000 39600 51000 70500 82600 127000 182000 198000 297000 390000
2020-07-21 01:30 15.65 550000 (1993) 28500 (1988) 146000 39600 51000 70500 82600 127000 182000 198000 297000 390000
2020-07-21 01:00 15.69 95100 550000 (1993) 28500 (1988) 146000 39600 51000 70500 82600 127000 182000 198000 297000 390000
2020-07-21 00:30 15.68 93900 550000 (1993) 28500 (1988) 146000 39600 51000 70500 82600 127000 182000 198000 297000 390000
2020-07-21 00:00 15.68 93900 550000 (1993) 28500 (1988) 146000 39600 51000 70500 82600 127000 182000 198000 297000 390000
2020-07-20 23:30 15.69 94800 538000 (1993) 30200 (1988) 146000 31800 44200 72000 79100 118000 198000 213000 295000 383000
2020-07-20 23:00 15.69 94700 538000 (1993) 30200 (1988) 146000 31800 44200 72000 79100 118000 198000 213000 295000 383000
2020-07-20 22:30 15.68 93400 538000 (1993) 30200 (1988) 146000 31800 44200 72000 79100 118000 198000 213000 295000 383000
2020-07-20 22:00 15.68 93400 538000 (1993) 30200 (1988) 146000 31800 44200 72000 79100 118000 198000 213000 295000 383000
2020-07-20 21:30 15.69 94500 538000 (1993) 30200 (1988) 146000 31800 44200 72000 79100 118000 198000 213000 295000 383000
2020-07-20 21:00 15.67 92500 538000 (1993) 30200 (1988) 146000 31800 44200 72000 79100 118000 198000 213000 295000 383000
2020-07-20 20:30 15.67 92700 538000 (1993) 30200 (1988) 146000 31800 44200 72000 79100 118000 198000 213000 295000 383000
2020-07-20 20:00 15.67 538000 (1993) 30200 (1988) 146000 31800 44200 72000 79100 118000 198000 213000 295000 383000
2020-07-20 19:30 15.68 538000 (1993) 30200 (1988) 146000 31800 44200 72000 79100 118000 198000 213000 295000 383000
2020-07-20 19:00 15.65 91300 538000 (1993) 30200 (1988) 146000 31800 44200 72000 79100 118000 198000 213000 295000 383000
2020-07-20 18:30 15.64 90600 538000 (1993) 30200 (1988) 146000 31800 44200 72000 79100 118000 198000 213000 295000 383000
2020-07-20 18:00 15.57 538000 (1993) 30200 (1988) 146000 31800 44200 72000 79100 118000 198000 213000 295000 383000
2020-07-20 17:30 15.61 87900 538000 (1993) 30200 (1988) 146000 31800 44200 72000 79100 118000 198000 213000 295000 383000
2020-07-20 17:00 15.62 90200 538000 (1993) 30200 (1988) 146000 31800 44200 72000 79100 118000 198000 213000 295000 383000
2020-07-20 16:30 15.62 90100 538000 (1993) 30200 (1988) 146000 31800 44200 72000 79100 118000 198000 213000 295000 383000
2020-07-20 16:00 15.60 538000 (1993) 30200 (1988) 146000 31800 44200 72000 79100 118000 198000 213000 295000 383000
2020-07-20 15:30 15.62 89900 538000 (1993) 30200 (1988) 146000 31800 44200 72000 79100 118000 198000 213000 295000 383000
2020-07-20 15:00 15.59 538000 (1993) 30200 (1988) 146000 31800 44200 72000 79100 118000 198000 213000 295000 383000
2020-07-20 14:30 15.61 89500 538000 (1993) 30200 (1988) 146000 31800 44200 72000 79100 118000 198000 213000 295000 383000
2020-07-20 14:00 15.63 538000 (1993) 30200 (1988) 146000 31800 44200 72000 79100 118000 198000 213000 295000 383000
2020-07-20 13:30 15.61 89600 538000 (1993) 30200 (1988) 146000 31800 44200 72000 79100 118000 198000 213000 295000 383000
2020-07-20 13:00 15.61 538000 (1993) 30200 (1988) 146000 31800 44200 72000 79100 118000 198000 213000 295000 383000
2020-07-20 12:30 15.61 90600 538000 (1993) 30200 (1988) 146000 31800 44200 72000 79100 118000 198000 213000 295000 383000
2020-07-20 12:00 15.61 538000 (1993) 30200 (1988) 146000 31800 44200 72000 79100 118000 198000 213000 295000 383000
2020-07-20 11:30 15.65 538000 (1993) 30200 (1988) 146000 31800 44200 72000 79100 118000 198000 213000 295000 383000
2020-07-20 11:00 15.63 91800 538000 (1993) 30200 (1988) 146000 31800 44200 72000 79100 118000 198000 213000 295000 383000
2020-07-20 10:30 15.62 90700 538000 (1993) 30200 (1988) 146000 31800 44200 72000 79100 118000 198000 213000 295000 383000
2020-07-20 10:00 15.61 89800 538000 (1993) 30200 (1988) 146000 31800 44200 72000 79100 118000 198000 213000 295000 383000
2020-07-20 09:30 15.61 89900 538000 (1993) 30200 (1988) 146000 31800 44200 72000 79100 118000 198000 213000 295000 383000
2020-07-20 09:00 15.63 538000 (1993) 30200 (1988) 146000 31800 44200 72000 79100 118000 198000 213000 295000 383000
2020-07-20 08:30 15.62 91100 538000 (1993) 30200 (1988) 146000 31800 44200 72000 79100 118000 198000 213000 295000 383000
2020-07-20 08:00 15.60 89000 538000 (1993) 30200 (1988) 146000 31800 44200 72000 79100 118000 198000 213000 295000 383000
2020-07-20 07:30 15.60 538000 (1993) 30200 (1988) 146000 31800 44200 72000 79100 118000 198000 213000 295000 383000
2020-07-20 07:00 15.59 538000 (1993) 30200 (1988) 146000 31800 44200 72000 79100 118000 198000 213000 295000 383000
2020-07-20 06:30 15.61 90600 538000 (1993) 30200 (1988) 146000 31800 44200 72000 79100 118000 198000 213000 295000 383000
2020-07-20 06:00 15.62 92800 538000 (1993) 30200 (1988) 146000 31800 44200 72000 79100 118000 198000 213000 295000 383000
2020-07-20 05:30 15.63 538000 (1993) 30200 (1988) 146000 31800 44200 72000 79100 118000 198000 213000 295000 383000
2020-07-20 05:00 15.64 93600 538000 (1993) 30200 (1988) 146000 31800 44200 72000 79100 118000 198000 213000 295000 383000
2020-07-20 04:30 15.65 94900 538000 (1993) 30200 (1988) 146000 31800 44200 72000 79100 118000 198000 213000 295000 383000
2020-07-20 04:00 15.65 94700 538000 (1993) 30200 (1988) 146000 31800 44200 72000 79100 118000 198000 213000 295000 383000
2020-07-20 03:30 15.66 95800 538000 (1993) 30200 (1988) 146000 31800 44200 72000 79100 118000 198000 213000 295000 383000
2020-07-20 03:00 15.63 538000 (1993) 30200 (1988) 146000 31800 44200 72000 79100 118000 198000 213000 295000 383000
2020-07-20 02:30 15.66 95700 538000 (1993) 30200 (1988) 146000 31800 44200 72000 79100 118000 198000 213000 295000 383000
2020-07-20 02:00 15.66 95700 538000 (1993) 30200 (1988) 146000 31800 44200 72000 79100 118000 198000 213000 295000 383000
2020-07-20 01:30 15.67 96800 538000 (1993) 30200 (1988) 146000 31800 44200 72000 79100 118000 198000 213000 295000 383000
2020-07-20 01:00 15.67 96800 538000 (1993) 30200 (1988) 146000 31800 44200 72000 79100 118000 198000 213000 295000 383000
2020-07-20 00:30 15.66 538000 (1993) 30200 (1988) 146000 31800 44200 72000 79100 118000 198000 213000 295000 383000
2020-07-20 00:00 15.69 99000 538000 (1993) 30200 (1988) 146000 31800 44200 72000 79100 118000 198000 213000 295000 383000
2020-07-19 23:30 15.68 98200 521000 (1993) 21400 (1989) 147000 27200 48000 67700 75300 122000 211000 219000 287000 386000
2020-07-19 23:00 15.68 98300 521000 (1993) 21400 (1989) 147000 27200 48000 67700 75300 122000 211000 219000 287000 386000
2020-07-19 22:30 15.68 98500 521000 (1993) 21400 (1989) 147000 27200 48000 67700 75300 122000 211000 219000 287000 386000
2020-07-19 22:00 15.69 521000 (1993) 21400 (1989) 147000 27200 48000 67700 75300 122000 211000 219000 287000 386000
2020-07-19 21:30 15.67 96100 521000 (1993) 21400 (1989) 147000 27200 48000 67700 75300 122000 211000 219000 287000 386000
2020-07-19 21:00 15.70 97700 521000 (1993) 21400 (1989) 147000 27200 48000 67700 75300 122000 211000 219000 287000 386000
2020-07-19 20:30 15.68 521000 (1993) 21400 (1989) 147000 27200 48000 67700 75300 122000 211000 219000 287000 386000
2020-07-19 20:00 15.68 521000 (1993) 21400 (1989) 147000 27200 48000 67700 75300 122000 211000 219000 287000 386000
2020-07-19 19:30 15.69 98200 521000 (1993) 21400 (1989) 147000 27200 48000 67700 75300 122000 211000 219000 287000 386000
2020-07-19 19:00 15.71 101000 521000 (1993) 21400 (1989) 147000 27200 48000 67700 75300 122000 211000 219000 287000 386000
2020-07-19 18:30 15.70 99400 521000 (1993) 21400 (1989) 147000 27200 48000 67700 75300 122000 211000 219000 287000 386000
2020-07-19 18:00 15.71 101000 521000 (1993) 21400 (1989) 147000 27200 48000 67700 75300 122000 211000 219000 287000 386000
2020-07-19 17:30 15.70 99700 521000 (1993) 21400 (1989) 147000 27200 48000 67700 75300 122000 211000 219000 287000 386000
2020-07-19 17:00 15.70 99700 521000 (1993) 21400 (1989) 147000 27200 48000 67700 75300 122000 211000 219000 287000 386000
2020-07-19 16:30 15.70 521000 (1993) 21400 (1989) 147000 27200 48000 67700 75300 122000 211000 219000 287000 386000
2020-07-19 16:00 15.69 98900 521000 (1993) 21400 (1989) 147000 27200 48000 67700 75300 122000 211000 219000 287000 386000
2020-07-19 15:30 15.67 96900 521000 (1993) 21400 (1989) 147000 27200 48000 67700 75300 122000 211000 219000 287000 386000
2020-07-19 15:00 15.68 98200 521000 (1993) 21400 (1989) 147000 27200 48000 67700 75300 122000 211000 219000 287000 386000
2020-07-19 14:30 15.68 521000 (1993) 21400 (1989) 147000 27200 48000 67700 75300 122000 211000 219000 287000 386000
2020-07-19 14:00 15.64 521000 (1993) 21400 (1989) 147000 27200 48000 67700 75300 122000 211000 219000 287000 386000
2020-07-19 13:30 15.65 521000 (1993) 21400 (1989) 147000 27200 48000 67700 75300 122000 211000 219000 287000 386000
2020-07-19 13:00 15.71 102000 521000 (1993) 21400 (1989) 147000 27200 48000 67700 75300 122000 211000 219000 287000 386000
2020-07-19 12:30 15.70 101000 521000 (1993) 21400 (1989) 147000 27200 48000 67700 75300 122000 211000 219000 287000 386000
2020-07-19 12:00 15.74 521000 (1993) 21400 (1989) 147000 27200 48000 67700 75300 122000 211000 219000 287000 386000
2020-07-19 11:30 15.73 104000 521000 (1993) 21400 (1989) 147000 27200 48000 67700 75300 122000 211000 219000 287000 386000
2020-07-19 11:00 15.72 103000 521000 (1993) 21400 (1989) 147000 27200 48000 67700 75300 122000 211000 219000 287000 386000
2020-07-19 10:30 15.71 101000 521000 (1993) 21400 (1989) 147000 27200 48000 67700 75300 122000 211000 219000 287000 386000
2020-07-19 10:00 15.74 521000 (1993) 21400 (1989) 147000 27200 48000 67700 75300 122000 211000 219000 287000 386000
2020-07-19 09:30 15.73 104000 521000 (1993) 21400 (1989) 147000 27200 48000 67700 75300 122000 211000 219000 287000 386000
2020-07-19 09:00 15.69 521000 (1993) 21400 (1989) 147000 27200 48000 67700 75300 122000 211000 219000 287000 386000
2020-07-19 08:30 15.73 521000 (1993) 21400 (1989) 147000 27200 48000 67700 75300 122000 211000 219000 287000 386000
2020-07-19 08:00 15.75 106000 521000 (1993) 21400 (1989) 147000 27200 48000 67700 75300 122000 211000 219000 287000 386000
2020-07-19 07:30 15.75 521000 (1993) 21400 (1989) 147000 27200 48000 67700 75300 122000 211000 219000 287000 386000
2020-07-19 07:00 15.76 107000 521000 (1993) 21400 (1989) 147000 27200 48000 67700 75300 122000 211000 219000 287000 386000
2020-07-19 06:30 15.78 109000 521000 (1993) 21400 (1989) 147000 27200 48000 67700 75300 122000 211000 219000 287000 386000
2020-07-19 06:00 15.76 106000 521000 (1993) 21400 (1989) 147000 27200 48000 67700 75300 122000 211000 219000 287000 386000
2020-07-19 05:30 15.77 107000 521000 (1993) 21400 (1989) 147000 27200 48000 67700 75300 122000 211000 219000 287000 386000
2020-07-19 05:00 15.78 109000 521000 (1993) 21400 (1989) 147000 27200 48000 67700 75300 122000 211000 219000 287000 386000
2020-07-19 04:30 15.77 108000 521000 (1993) 21400 (1989) 147000 27200 48000 67700 75300 122000 211000 219000 287000 386000
2020-07-19 04:00 15.78 108000 521000 (1993) 21400 (1989) 147000 27200 48000 67700 75300 122000 211000 219000 287000 386000
2020-07-19 03:30 15.77 107000 521000 (1993) 21400 (1989) 147000 27200 48000 67700 75300 122000 211000 219000 287000 386000
2020-07-19 03:00 15.78 108000 521000 (1993) 21400 (1989) 147000 27200 48000 67700 75300 122000 211000 219000 287000 386000
2020-07-19 02:30 15.78 108000 521000 (1993) 21400 (1989) 147000 27200 48000 67700 75300 122000 211000 219000 287000 386000
2020-07-19 02:00 15.78 108000 521000 (1993) 21400 (1989) 147000 27200 48000 67700 75300 122000 211000 219000 287000 386000
2020-07-19 01:30 15.79 521000 (1993) 21400 (1989) 147000 27200 48000 67700 75300 122000 211000 219000 287000 386000
2020-07-19 01:00 15.76 521000 (1993) 21400 (1989) 147000 27200 48000 67700 75300 122000 211000 219000 287000 386000
2020-07-19 00:30 15.79 521000 (1993) 21400 (1989) 147000 27200 48000 67700 75300 122000 211000 219000 287000 386000
2020-07-19 00:00 15.77 107000 521000 (1993) 21400 (1989) 147000 27200 48000 67700 75300 122000 211000 219000 287000 386000
2020-07-18 23:30 15.77 107000 502000 (1993) 32400 (1988) 151000 36400 47100 68500 76100 126000 211000 229000 290000 386000
2020-07-18 23:00 15.77 502000 (1993) 32400 (1988) 151000 36400 47100 68500 76100 126000 211000 229000 290000 386000
2020-07-18 22:30 15.77 107000 502000 (1993) 32400 (1988) 151000 36400 47100 68500 76100 126000 211000 229000 290000 386000
2020-07-18 22:00 15.77 107000 502000 (1993) 32400 (1988) 151000 36400 47100 68500 76100 126000 211000 229000 290000 386000
2020-07-18 21:30 15.76 502000 (1993) 32400 (1988) 151000 36400 47100 68500 76100 126000 211000 229000 290000 386000
2020-07-18 21:00 15.76 105000 502000 (1993) 32400 (1988) 151000 36400 47100 68500 76100 126000 211000 229000 290000 386000
2020-07-18 20:30 15.79 502000 (1993) 32400 (1988) 151000 36400 47100 68500 76100 126000 211000 229000 290000 386000
2020-07-18 20:00 15.77 107000 502000 (1993) 32400 (1988) 151000 36400 47100 68500 76100 126000 211000 229000 290000 386000
2020-07-18 19:30 15.78 502000 (1993) 32400 (1988) 151000 36400 47100 68500 76100 126000 211000 229000 290000 386000
2020-07-18 19:00 15.72 502000 (1993) 32400 (1988) 151000 36400 47100 68500 76100 126000 211000 229000 290000 386000
2020-07-18 18:30 15.74 104000 502000 (1993) 32400 (1988) 151000 36400 47100 68500 76100 126000 211000 229000 290000 386000
2020-07-18 18:00 15.73 502000 (1993) 32400 (1988) 151000 36400 47100 68500 76100 126000 211000 229000 290000 386000
2020-07-18 17:30 15.71 102000 502000 (1993) 32400 (1988) 151000 36400 47100 68500 76100 126000 211000 229000 290000 386000
2020-07-18 17:00 15.73 502000 (1993) 32400 (1988) 151000 36400 47100 68500 76100 126000 211000 229000 290000 386000
2020-07-18 16:30 15.64 502000 (1993) 32400 (1988) 151000 36400 47100 68500 76100 126000 211000 229000 290000 386000
2020-07-18 16:00 15.71 102000 502000 (1993) 32400 (1988) 151000 36400 47100 68500 76100 126000 211000 229000 290000 386000
2020-07-18 15:30 15.72 104000 502000 (1993) 32400 (1988) 151000 36400 47100 68500 76100 126000 211000 229000 290000 386000
2020-07-18 15:00 15.69 502000 (1993) 32400 (1988) 151000 36400 47100 68500 76100 126000 211000 229000 290000 386000
2020-07-18 14:30 15.69 502000 (1993) 32400 (1988) 151000 36400 47100 68500 76100 126000 211000 229000 290000 386000
2020-07-18 14:00 15.71 105000 502000 (1993) 32400 (1988) 151000 36400 47100 68500 76100 126000 211000 229000 290000 386000
2020-07-18 13:30 15.69 104000 502000 (1993) 32400 (1988) 151000 36400 47100 68500 76100 126000 211000 229000 290000 386000
2020-07-18 13:00 15.70 502000 (1993) 32400 (1988) 151000 36400 47100 68500 76100 126000 211000 229000 290000 386000
2020-07-18 12:30 15.69 502000 (1993) 32400 (1988) 151000 36400 47100 68500 76100 126000 211000 229000 290000 386000
2020-07-18 12:00 15.70 502000 (1993) 32400 (1988) 151000 36400 47100 68500 76100 126000 211000 229000 290000 386000
2020-07-18 11:30 15.73 109000 502000 (1993) 32400 (1988) 151000 36400 47100 68500 76100 126000 211000 229000 290000 386000
2020-07-18 11:00 15.76 112000 502000 (1993) 32400 (1988) 151000 36400 47100 68500 76100 126000 211000 229000 290000 386000
2020-07-18 10:30 15.78 113000 502000 (1993) 32400 (1988) 151000 36400 47100 68500 76100 126000 211000 229000 290000 386000
2020-07-18 10:00 15.75 502000 (1993) 32400 (1988) 151000 36400 47100 68500 76100 126000 211000 229000 290000 386000
2020-07-18 09:30 15.78 113000 502000 (1993) 32400 (1988) 151000 36400 47100 68500 76100 126000 211000 229000 290000 386000
2020-07-18 09:00 15.78 113000 502000 (1993) 32400 (1988) 151000 36400 47100 68500 76100 126000 211000 229000 290000 386000
2020-07-18 08:30 15.80 114000 502000 (1993) 32400 (1988) 151000 36400 47100 68500 76100 126000 211000 229000 290000 386000
2020-07-18 08:00 15.77 502000 (1993) 32400 (1988) 151000 36400 47100 68500 76100 126000 211000 229000 290000 386000
2020-07-18 07:30 15.80 113000 502000 (1993) 32400 (1988) 151000 36400 47100 68500 76100 126000 211000 229000 290000 386000
2020-07-18 07:00 15.80 114000 502000 (1993) 32400 (1988) 151000 36400 47100 68500 76100 126000 211000 229000 290000 386000
2020-07-18 06:30 15.81 502000 (1993) 32400 (1988) 151000 36400 47100 68500 76100 126000 211000 229000 290000 386000
2020-07-18 06:00 15.80 114000 502000 (1993) 32400 (1988) 151000 36400 47100 68500 76100 126000 211000 229000 290000 386000
2020-07-18 05:30 15.79 113000 502000 (1993) 32400 (1988) 151000 36400 47100 68500 76100 126000 211000 229000 290000 386000
2020-07-18 05:00 15.80 114000 502000 (1993) 32400 (1988) 151000 36400 47100 68500 76100 126000 211000 229000 290000 386000
2020-07-18 04:30 15.79 113000 502000 (1993) 32400 (1988) 151000 36400 47100 68500 76100 126000 211000 229000 290000 386000
2020-07-18 04:00 15.77 502000 (1993) 32400 (1988) 151000 36400 47100 68500 76100 126000 211000 229000 290000 386000
2020-07-18 03:30 15.79 114000 502000 (1993) 32400 (1988) 151000 36400 47100 68500 76100 126000 211000 229000 290000 386000
2020-07-18 03:00 15.79 114000 502000 (1993) 32400 (1988) 151000 36400 47100 68500 76100 126000 211000 229000 290000 386000
2020-07-18 02:30 15.78 113000 502000 (1993) 32400 (1988) 151000 36400 47100 68500 76100 126000 211000 229000 290000 386000
2020-07-18 02:00 15.78 502000 (1993) 32400 (1988) 151000 36400 47100 68500 76100 126000 211000 229000 290000 386000
2020-07-18 01:30 15.78 502000 (1993) 32400 (1988) 151000 36400 47100 68500 76100 126000 211000 229000 290000 386000
2020-07-18 01:00 15.80 116000 502000 (1993) 32400 (1988) 151000 36400 47100 68500 76100 126000 211000 229000 290000 386000
2020-07-18 00:30 15.80 502000 (1993) 32400 (1988) 151000 36400 47100 68500 76100 126000 211000 229000 290000 386000
2020-07-18 00:00 15.81 502000 (1993) 32400 (1988) 151000 36400 47100 68500 76100 126000 211000 229000 290000 386000
2020-07-17 23:30 15.82 118000 505000 (1993) 28000 (1988) 158000 34200 52700 70000 78100 135000 215000 243000 299000 394000
2020-07-17 23:00 15.81 505000 (1993) 28000 (1988) 158000 34200 52700 70000 78100 135000 215000 243000 299000 394000
2020-07-17 22:30 15.84 120000 505000 (1993) 28000 (1988) 158000 34200 52700 70000 78100 135000 215000 243000 299000 394000
2020-07-17 22:00 15.87 505000 (1993) 28000 (1988) 158000 34200 52700 70000 78100 135000 215000 243000 299000 394000
2020-07-17 21:30 15.83 118000 505000 (1993) 28000 (1988) 158000 34200 52700 70000 78100 135000 215000 243000 299000 394000
2020-07-17 21:00 15.84 119000 505000 (1993) 28000 (1988) 158000 34200 52700 70000 78100 135000 215000 243000 299000 394000
2020-07-17 20:30 15.82 505000 (1993) 28000 (1988) 158000 34200 52700 70000 78100 135000 215000 243000 299000 394000
2020-07-17 20:00 15.85 121000 505000 (1993) 28000 (1988) 158000 34200 52700 70000 78100 135000 215000 243000 299000 394000
2020-07-17 19:30 15.85 505000 (1993) 28000 (1988) 158000 34200 52700 70000 78100 135000 215000 243000 299000 394000
2020-07-17 19:00 15.89 505000 (1993) 28000 (1988) 158000 34200 52700 70000 78100 135000 215000 243000 299000 394000
2020-07-17 18:30 15.85 505000 (1993) 28000 (1988) 158000 34200 52700 70000 78100 135000 215000 243000 299000 394000
2020-07-17 18:00 15.87 123000 505000 (1993) 28000 (1988) 158000 34200 52700 70000 78100 135000 215000 243000 299000 394000
2020-07-17 17:30 15.89 125000 505000 (1993) 28000 (1988) 158000 34200 52700 70000 78100 135000 215000 243000 299000 394000
2020-07-17 17:00 15.88 505000 (1993) 28000 (1988) 158000 34200 52700 70000 78100 135000 215000 243000 299000 394000
2020-07-17 16:30 15.93 505000 (1993) 28000 (1988) 158000 34200 52700 70000 78100 135000 215000 243000 299000 394000
2020-07-17 16:00 15.90 505000 (1993) 28000 (1988) 158000 34200 52700 70000 78100 135000 215000 243000 299000 394000
2020-07-17 15:30 15.91 128000 505000 (1993) 28000 (1988) 158000 34200 52700 70000 78100 135000 215000 243000 299000 394000
2020-07-17 15:00 15.93 130000 505000 (1993) 28000 (1988) 158000 34200 52700 70000 78100 135000 215000 243000 299000 394000
2020-07-17 14:30 15.93 505000 (1993) 28000 (1988) 158000 34200 52700 70000 78100 135000 215000 243000 299000 394000
2020-07-17 14:00 15.96 505000 (1993) 28000 (1988) 158000 34200 52700 70000 78100 135000 215000 243000 299000 394000
2020-07-17 13:30 15.93 129000 505000 (1993) 28000 (1988) 158000 34200 52700 70000 78100 135000 215000 243000 299000 394000
2020-07-17 13:00 15.94 130000 505000 (1993) 28000 (1988) 158000 34200 52700 70000 78100 135000 215000 243000 299000 394000
2020-07-17 12:30 15.93 129000 505000 (1993) 28000 (1988) 158000 34200 52700 70000 78100 135000 215000 243000 299000 394000
2020-07-17 12:00 15.92 505000 (1993) 28000 (1988) 158000 34200 52700 70000 78100 135000 215000 243000 299000 394000
2020-07-17 11:30 15.92 505000 (1993) 28000 (1988) 158000 34200 52700 70000 78100 135000 215000 243000 299000 394000
2020-07-17 11:00 15.94 131000 505000 (1993) 28000 (1988) 158000 34200 52700 70000 78100 135000 215000 243000 299000 394000
2020-07-17 10:30 15.94 131000 505000 (1993) 28000 (1988) 158000 34200 52700 70000 78100 135000 215000 243000 299000 394000
2020-07-17 10:00 15.94 131000 505000 (1993) 28000 (1988) 158000 34200 52700 70000 78100 135000 215000 243000 299000 394000
2020-07-17 09:30 15.92 129000 505000 (1993) 28000 (1988) 158000 34200 52700 70000 78100 135000 215000 243000 299000 394000
2020-07-17 09:00 15.94 505000 (1993) 28000 (1988) 158000 34200 52700 70000 78100 135000 215000 243000 299000 394000
2020-07-17 08:30 15.94 505000 (1993) 28000 (1988) 158000 34200 52700 70000 78100 135000 215000 243000 299000 394000
2020-07-17 08:00 15.93 130000 505000 (1993) 28000 (1988) 158000 34200 52700 70000 78100 135000 215000 243000 299000 394000
2020-07-17 07:30 15.92 505000 (1993) 28000 (1988) 158000 34200 52700 70000 78100 135000 215000 243000 299000 394000
2020-07-17 07:00 15.92 128000 505000 (1993) 28000 (1988) 158000 34200 52700 70000 78100 135000 215000 243000 299000 394000
2020-07-17 06:30 15.92 129000 505000 (1993) 28000 (1988) 158000 34200 52700 70000 78100 135000 215000 243000 299000 394000
2020-07-17 06:00 15.91 128000 505000 (1993) 28000 (1988) 158000 34200 52700 70000 78100 135000 215000 243000 299000 394000
2020-07-17 05:30 15.91 129000 505000 (1993) 28000 (1988) 158000 34200 52700 70000 78100 135000 215000 243000 299000 394000
2020-07-17 05:00 15.92 130000 505000 (1993) 28000 (1988) 158000 34200 52700 70000 78100 135000 215000 243000 299000 394000
2020-07-17 04:30 15.91 128000 505000 (1993) 28000 (1988) 158000 34200 52700 70000 78100 135000 215000 243000 299000 394000
2020-07-17 04:00 15.91 128000 505000 (1993) 28000 (1988) 158000 34200 52700 70000 78100 135000 215000 243000 299000 394000
2020-07-17 03:30 15.94 505000 (1993) 28000 (1988) 158000 34200 52700 70000 78100 135000 215000 243000 299000 394000
2020-07-17 03:00 15.92 505000 (1993) 28000 (1988) 158000 34200 52700 70000 78100 135000 215000 243000 299000 394000
2020-07-17 02:30 15.91 127000 505000 (1993) 28000 (1988) 158000 34200 52700 70000 78100 135000 215000 243000 299000 394000
2020-07-17 02:00 15.90 125000 505000 (1993) 28000 (1988) 158000 34200 52700 70000 78100 135000 215000 243000 299000 394000
2020-07-17 01:30 15.89 505000 (1993) 28000 (1988) 158000 34200 52700 70000 78100 135000 215000 243000 299000 394000
2020-07-17 01:00 15.88 122000 505000 (1993) 28000 (1988) 158000 34200 52700 70000 78100 135000 215000 243000 299000 394000
2020-07-17 00:30 15.87 505000 (1993) 28000 (1988) 158000 34200 52700 70000 78100 135000 215000 243000 299000 394000
2020-07-17 00:00 15.86 120000 505000 (1993) 28000 (1988) 158000 34200 52700 70000 78100 135000 215000 243000 299000 394000
2020-07-16 23:30 15.83 117000 472000 (1993) 33000 (1988) 160000 35000 53200 67300 77000 141000 222000 252000 317000 389000
2020-07-16 23:00 15.82 472000 (1993) 33000 (1988) 160000 35000 53200 67300 77000 141000 222000 252000 317000 389000
2020-07-16 22:30 15.81 472000 (1993) 33000 (1988) 160000 35000 53200 67300 77000 141000 222000 252000 317000 389000
2020-07-16 22:00 15.79 112000 472000 (1993) 33000 (1988) 160000 35000 53200 67300 77000 141000 222000 252000 317000 389000
2020-07-16 21:30 15.76 108000 472000 (1993) 33000 (1988) 160000 35000 53200 67300 77000 141000 222000 252000 317000 389000
2020-07-16 21:00 15.75 472000 (1993) 33000 (1988) 160000 35000 53200 67300 77000 141000 222000 252000 317000 389000
2020-07-16 20:30 15.71 102000 472000 (1993) 33000 (1988) 160000 35000 53200 67300 77000 141000 222000 252000 317000 389000
2020-07-16 20:00 15.69 100000 472000 (1993) 33000 (1988) 160000 35000 53200 67300 77000 141000 222000 252000 317000 389000
2020-07-16 19:30 15.66 472000 (1993) 33000 (1988) 160000 35000 53200 67300 77000 141000 222000 252000 317000 389000
2020-07-16 19:00 15.64 95500 472000 (1993) 33000 (1988) 160000 35000 53200 67300 77000 141000 222000 252000 317000 389000
2020-07-16 18:30 15.60 91500 472000 (1993) 33000 (1988) 160000 35000 53200 67300 77000 141000 222000 252000 317000 389000
2020-07-16 18:00 15.59 472000 (1993) 33000 (1988) 160000 35000 53200 67300 77000 141000 222000 252000 317000 389000
2020-07-16 17:30 15.56 472000 (1993) 33000 (1988) 160000 35000 53200 67300 77000 141000 222000 252000 317000 389000
2020-07-16 17:00 15.54 83300 472000 (1993) 33000 (1988) 160000 35000 53200 67300 77000 141000 222000 252000 317000 389000
2020-07-16 16:30 15.50 77400 472000 (1993) 33000 (1988) 160000 35000 53200 67300 77000 141000 222000 252000 317000 389000
2020-07-16 16:00 15.49 472000 (1993) 33000 (1988) 160000 35000 53200 67300 77000 141000 222000 252000 317000 389000
2020-07-16 15:30 15.46 472000 (1993) 33000 (1988) 160000 35000 53200 67300 77000 141000 222000 252000 317000 389000
2020-07-16 15:00 15.43 67800 472000 (1993) 33000 (1988) 160000 35000 53200 67300 77000 141000 222000 252000 317000 389000
2020-07-16 14:30 15.38 60300 472000 (1993) 33000 (1988) 160000 35000 53200 67300 77000 141000 222000 252000 317000 389000
2020-07-16 14:00 15.37 472000 (1993) 33000 (1988) 160000 35000 53200 67300 77000 141000 222000 252000 317000 389000
2020-07-16 13:30 15.37 59200 472000 (1993) 33000 (1988) 160000 35000 53200 67300 77000 141000 222000 252000 317000 389000
2020-07-16 13:00 15.36 57700 472000 (1993) 33000 (1988) 160000 35000 53200 67300 77000 141000 222000 252000 317000 389000
2020-07-16 12:30 15.34 54800 472000 (1993) 33000 (1988) 160000 35000 53200 67300 77000 141000 222000 252000 317000 389000
2020-07-16 12:00 15.34 472000 (1993) 33000 (1988) 160000 35000 53200 67300 77000 141000 222000 252000 317000 389000
2020-07-16 11:30 15.33 53300 472000 (1993) 33000 (1988) 160000 35000 53200 67300 77000 141000 222000 252000 317000 389000
2020-07-16 11:00 15.34 472000 (1993) 33000 (1988) 160000 35000 53200 67300 77000 141000 222000 252000 317000 389000
2020-07-16 10:30 15.32 51700 472000 (1993) 33000 (1988) 160000 35000 53200 67300 77000 141000 222000 252000 317000 389000
2020-07-16 10:00 15.31 50100 472000 (1993) 33000 (1988) 160000 35000 53200 67300 77000 141000 222000 252000 317000 389000
2020-07-16 09:30 15.31 472000 (1993) 33000 (1988) 160000 35000 53200 67300 77000 141000 222000 252000 317000 389000
2020-07-16 09:00 15.29 47000 472000 (1993) 33000 (1988) 160000 35000 53200 67300 77000 141000 222000 252000 317000 389000
2020-07-16 08:30 15.29 47100 472000 (1993) 33000 (1988) 160000 35000 53200 67300 77000 141000 222000 252000 317000 389000
2020-07-16 08:00 15.27 44100 472000 (1993) 33000 (1988) 160000 35000 53200 67300 77000 141000 222000 252000 317000 389000
2020-07-16 07:30 15.29 472000 (1993) 33000 (1988) 160000 35000 53200 67300 77000 141000 222000 252000 317000 389000
2020-07-16 07:00 15.27 44100 472000 (1993) 33000 (1988) 160000 35000 53200 67300 77000 141000 222000 252000 317000 389000
2020-07-16 06:30 15.30 472000 (1993) 33000 (1988) 160000 35000 53200 67300 77000 141000 222000 252000 317000 389000
2020-07-16 06:00 42700 472000 (1993) 33000 (1988) 160000 35000 53200 67300 77000 141000 222000 252000 317000 389000
2020-07-16 05:30 15.26 472000 (1993) 33000 (1988) 160000 35000 53200 67300 77000 141000 222000 252000 317000 389000
2020-07-16 05:00 15.24 40300 472000 (1993) 33000 (1988) 160000 35000 53200 67300 77000 141000 222000 252000 317000 389000
2020-07-16 04:30 15.25 472000 (1993) 33000 (1988) 160000 35000 53200 67300 77000 141000 222000 252000 317000 389000
2020-07-16 04:00 15.24 39800 472000 (1993) 33000 (1988) 160000 35000 53200 67300 77000 141000 222000 252000 317000 389000
2020-07-16 03:30 15.24 39800 472000 (1993) 33000 (1988) 160000 35000 53200 67300 77000 141000 222000 252000 317000 389000
2020-07-16 03:00 15.24 472000 (1993) 33000 (1988) 160000 35000 53200 67300 77000 141000 222000 252000 317000 389000
2020-07-16 02:30 15.23 38500 472000 (1993) 33000 (1988) 160000 35000 53200 67300 77000 141000 222000 252000 317000 389000
2020-07-16 02:00 15.22 36900 472000 (1993) 33000 (1988) 160000 35000 53200 67300 77000 141000 222000 252000 317000 389000
2020-07-16 01:30 15.23 472000 (1993) 33000 (1988) 160000 35000 53200 67300 77000 141000 222000 252000 317000 389000
2020-07-16 01:00 15.22 36900 472000 (1993) 33000 (1988) 160000 35000 53200 67300 77000 141000 222000 252000 317000 389000
2020-07-16 00:30 15.21 35400 472000 (1993) 33000 (1988) 160000 35000 53200 67300 77000 141000 222000 252000 317000 389000
2020-07-16 00:00 15.22 36800 472000 (1993) 33000 (1988) 160000 35000 53200 67300 77000 141000 222000 252000 317000 389000
2020-07-15 23:30 15.22 36700 452000 (1993) 35300 (1988) 161000 42100 53200 74000 81400 128000 226000 261000 329000 388000
2020-07-15 23:00 15.22 36700 452000 (1993) 35300 (1988) 161000 42100 53200 74000 81400 128000 226000 261000 329000 388000
2020-07-15 22:30 15.21 35300 452000 (1993) 35300 (1988) 161000 42100 53200 74000 81400 128000 226000 261000 329000 388000
2020-07-15 22:00 15.21 35200 452000 (1993) 35300 (1988) 161000 42100 53200 74000 81400 128000 226000 261000 329000 388000
2020-07-15 21:30 15.21 35300 452000 (1993) 35300 (1988) 161000 42100 53200 74000 81400 128000 226000 261000 329000 388000
2020-07-15 21:00 15.21 35300 452000 (1993) 35300 (1988) 161000 42100 53200 74000 81400 128000 226000 261000 329000 388000
2020-07-15 20:00 15.21 452000 (1993) 35300 (1988) 161000 42100 53200 74000 81400 128000 226000 261000 329000 388000
2020-07-15 19:30 15.21 452000 (1993) 35300 (1988) 161000 42100 53200 74000 81400 128000 226000 261000 329000 388000
2020-07-15 19:00 15.23 38600 452000 (1993) 35300 (1988) 161000 42100 53200 74000 81400 128000 226000 261000 329000 388000
2020-07-15 18:30 15.24 40200 452000 (1993) 35300 (1988) 161000 42100 53200 74000 81400 128000 226000 261000 329000 388000
2020-07-15 18:00 15.22 452000 (1993) 35300 (1988) 161000 42100 53200 74000 81400 128000 226000 261000 329000 388000
2020-07-15 17:30 15.21 452000 (1993) 35300 (1988) 161000 42100 53200 74000 81400 128000 226000 261000 329000 388000
2020-07-15 17:00 15.23 39100 452000 (1993) 35300 (1988) 161000 42100 53200 74000 81400 128000 226000 261000 329000 388000
2020-07-15 16:30 15.28 452000 (1993) 35300 (1988) 161000 42100 53200 74000 81400 128000 226000 261000 329000 388000
2020-07-15 16:00 15.30 452000 (1993) 35300 (1988) 161000 42100 53200 74000 81400 128000 226000 261000 329000 388000
2020-07-15 15:30 15.21 36400 452000 (1993) 35300 (1988) 161000 42100 53200 74000 81400 128000 226000 261000 329000 388000
2020-07-15 15:00 15.21 452000 (1993) 35300 (1988) 161000 42100 53200 74000 81400 128000 226000 261000 329000 388000
2020-07-15 14:30 15.21 452000 (1993) 35300 (1988) 161000 42100 53200 74000 81400 128000 226000 261000 329000 388000
2020-07-15 14:00 15.23 39000 452000 (1993) 35300 (1988) 161000 42100 53200 74000 81400 128000 226000 261000 329000 388000
2020-07-15 13:30 15.23 39400 452000 (1993) 35300 (1988) 161000 42100 53200 74000 81400 128000 226000 261000 329000 388000
2020-07-15 13:00 15.24 452000 (1993) 35300 (1988) 161000 42100 53200 74000 81400 128000 226000 261000 329000 388000
2020-07-15 12:30 15.25 42200 452000 (1993) 35300 (1988) 161000 42100 53200 74000 81400 128000 226000 261000 329000 388000
2020-07-15 12:00 15.26 43600 452000 (1993) 35300 (1988) 161000 42100 53200 74000 81400 128000 226000 261000 329000 388000
2020-07-15 11:30 15.28 452000 (1993) 35300 (1988) 161000 42100 53200 74000 81400 128000 226000 261000 329000 388000
2020-07-15 11:00 15.26 43500 452000 (1993) 35300 (1988) 161000 42100 53200 74000 81400 128000 226000 261000 329000 388000
2020-07-15 10:30 15.27 45000 452000 (1993) 35300 (1988) 161000 42100 53200 74000 81400 128000 226000 261000 329000 388000
2020-07-15 10:00 15.26 452000 (1993) 35300 (1988) 161000 42100 53200 74000 81400 128000 226000 261000 329000 388000
2020-07-15 09:30 15.26 452000 (1993) 35300 (1988) 161000 42100 53200 74000 81400 128000 226000 261000 329000 388000
2020-07-15 09:00 15.28 46500 452000 (1993) 35300 (1988) 161000 42100 53200 74000 81400 128000 226000 261000 329000 388000
2020-07-15 08:30 15.28 452000 (1993) 35300 (1988) 161000 42100 53200 74000 81400 128000 226000 261000 329000 388000
2020-07-15 08:00 15.29 48000 452000 (1993) 35300 (1988) 161000 42100 53200 74000 81400 128000 226000 261000 329000 388000
2020-07-15 07:30 15.31 452000 (1993) 35300 (1988) 161000 42100 53200 74000 81400 128000 226000 261000 329000 388000
2020-07-15 07:00 15.28 452000 (1993) 35300 (1988) 161000 42100 53200 74000 81400 128000 226000 261000 329000 388000
2020-07-15 06:30 15.30 49400 452000 (1993) 35300 (1988) 161000 42100 53200 74000 81400 128000 226000 261000 329000 388000
2020-07-15 06:00 15.31 50900 452000 (1993) 35300 (1988) 161000 42100 53200 74000 81400 128000 226000 261000 329000 388000
2020-07-15 05:30 15.31 50900 452000 (1993) 35300 (1988) 161000 42100 53200 74000 81400 128000 226000 261000 329000 388000
2020-07-15 05:00 15.32 452000 (1993) 35300 (1988) 161000 42100 53200 74000 81400 128000 226000 261000 329000 388000
2020-07-15 04:30 15.30 452000 (1993) 35300 (1988) 161000 42100 53200 74000 81400 128000 226000 261000 329000 388000
2020-07-15 04:00 15.30 452000 (1993) 35300 (1988) 161000 42100 53200 74000 81400 128000 226000 261000 329000 388000
2020-07-15 03:30 15.32 452000 (1993) 35300 (1988) 161000 42100 53200 74000 81400 128000 226000 261000 329000 388000
2020-07-15 03:00 15.32 52200 452000 (1993) 35300 (1988) 161000 42100 53200 74000 81400 128000 226000 261000 329000 388000
2020-07-15 02:30 15.32 452000 (1993) 35300 (1988) 161000 42100 53200 74000 81400 128000 226000 261000 329000 388000
2020-07-15 02:00 15.30 49100 452000 (1993) 35300 (1988) 161000 42100 53200 74000 81400 128000 226000 261000 329000 388000
2020-07-15 01:30 15.30 49100 452000 (1993) 35300 (1988) 161000 42100 53200 74000 81400 128000 226000 261000 329000 388000
2020-07-15 01:00 15.32 452000 (1993) 35300 (1988) 161000 42100 53200 74000 81400 128000 226000 261000 329000 388000
2020-07-15 00:30 15.30 49000 452000 (1993) 35300 (1988) 161000 42100 53200 74000 81400 128000 226000 261000 329000 388000
2020-07-15 00:00 15.30 49000 452000 (1993) 35300 (1988) 161000 42100 53200 74000 81400 128000 226000 261000 329000 388000
2020-07-14 23:30 15.29 47600 444000 (1993) 33100 (1988) 163000 38300 54600 76500 83900 121000 230000 271000 331000 390000
2020-07-14 23:00 15.29 47600 444000 (1993) 33100 (1988) 163000 38300 54600 76500 83900 121000 230000 271000 331000 390000
2020-07-14 22:30 15.29 47600 444000 (1993) 33100 (1988) 163000 38300 54600 76500 83900 121000 230000 271000 331000 390000
2020-07-14 22:00 15.31 444000 (1993) 33100 (1988) 163000 38300 54600 76500 83900 121000 230000 271000 331000 390000
2020-07-14 21:30 15.28 46100 444000 (1993) 33100 (1988) 163000 38300 54600 76500 83900 121000 230000 271000 331000 390000
2020-07-14 21:00 15.28 46100 444000 (1993) 33100 (1988) 163000 38300 54600 76500 83900 121000 230000 271000 331000 390000
2020-07-14 20:30 15.30 444000 (1993) 33100 (1988) 163000 38300 54600 76500 83900 121000 230000 271000 331000 390000
2020-07-14 20:00 15.27 444000 (1993) 33100 (1988) 163000 38300 54600 76500 83900 121000 230000 271000 331000 390000
2020-07-14 19:30 15.29 48000 444000 (1993) 33100 (1988) 163000 38300 54600 76500 83900 121000 230000 271000 331000 390000
2020-07-14 19:00 15.29 48100 444000 (1993) 33100 (1988) 163000 38300 54600 76500 83900 121000 230000 271000 331000 390000
2020-07-14 18:30 15.30 49700 444000 (1993) 33100 (1988) 163000 38300 54600 76500 83900 121000 230000 271000 331000 390000
2020-07-14 18:00 15.29 444000 (1993) 33100 (1988) 163000 38300 54600 76500 83900 121000 230000 271000 331000 390000
2020-07-14 17:30 15.29 444000 (1993) 33100 (1988) 163000 38300 54600 76500 83900 121000 230000 271000 331000 390000
2020-07-14 17:00 15.30 444000 (1993) 33100 (1988) 163000 38300 54600 76500 83900 121000 230000 271000 331000 390000
2020-07-14 16:30 15.32 53100 444000 (1993) 33100 (1988) 163000 38300 54600 76500 83900 121000 230000 271000 331000 390000
2020-07-14 16:00 15.32 53100 444000 (1993) 33100 (1988) 163000 38300 54600 76500 83900 121000 230000 271000 331000 390000
2020-07-14 15:30 15.34 444000 (1993) 33100 (1988) 163000 38300 54600 76500 83900 121000 230000 271000 331000 390000
2020-07-14 15:00 15.33 54400 444000 (1993) 33100 (1988) 163000 38300 54600 76500 83900 121000 230000 271000 331000 390000
2020-07-14 14:30 15.32 444000 (1993) 33100 (1988) 163000 38300 54600 76500 83900 121000 230000 271000 331000 390000
2020-07-14 14:00 15.33 54300 444000 (1993) 33100 (1988) 163000 38300 54600 76500 83900 121000 230000 271000 331000 390000
2020-07-14 13:30 15.32 444000 (1993) 33100 (1988) 163000 38300 54600 76500 83900 121000 230000 271000 331000 390000
2020-07-14 13:00 15.34 55600 444000 (1993) 33100 (1988) 163000 38300 54600 76500 83900 121000 230000 271000 331000 390000
2020-07-14 12:30 15.34 55400 444000 (1993) 33100 (1988) 163000 38300 54600 76500 83900 121000 230000 271000 331000 390000
2020-07-14 12:00 15.35 56300 444000 (1993) 33100 (1988) 163000 38300 54600 76500 83900 121000 230000 271000 331000 390000
2020-07-14 11:30 15.33 444000 (1993) 33100 (1988) 163000 38300 54600 76500 83900 121000 230000 271000 331000 390000
2020-07-14 11:00 15.35 56100 444000 (1993) 33100 (1988) 163000 38300 54600 76500 83900 121000 230000 271000 331000 390000
2020-07-14 10:30 15.34 54700 444000 (1993) 33100 (1988) 163000 38300 54600 76500 83900 121000 230000 271000 331000 390000
2020-07-14 10:00 15.35 56200 444000 (1993) 33100 (1988) 163000 38300 54600 76500 83900 121000 230000 271000 331000 390000
2020-07-14 09:30 15.35 56200 444000 (1993) 33100 (1988) 163000 38300 54600 76500 83900 121000 230000 271000 331000 390000
2020-07-14 09:00 15.33 444000 (1993) 33100 (1988) 163000 38300 54600 76500 83900 121000 230000 271000 331000 390000
2020-07-14 08:30 15.36 57800 444000 (1993) 33100 (1988) 163000 38300 54600 76500 83900 121000 230000 271000 331000 390000
2020-07-14 08:00 15.34 54800 444000 (1993) 33100 (1988) 163000 38300 54600 76500 83900 121000 230000 271000 331000 390000
2020-07-14 07:30 15.35 56400 444000 (1993) 33100 (1988) 163000 38300 54600 76500 83900 121000 230000 271000 331000 390000
2020-07-14 07:00 15.35 56400 444000 (1993) 33100 (1988) 163000 38300 54600 76500 83900 121000 230000 271000 331000 390000
2020-07-14 06:30 15.36 444000 (1993) 33100 (1988) 163000 38300 54600 76500 83900 121000 230000 271000 331000 390000
2020-07-14 06:00 15.34 54800 444000 (1993) 33100 (1988) 163000 38300 54600 76500 83900 121000 230000 271000 331000 390000
2020-07-14 05:30 15.34 54800 444000 (1993) 33100 (1988) 163000 38300 54600 76500 83900 121000 230000 271000 331000 390000
2020-07-14 05:00 15.33 53300 444000 (1993) 33100 (1988) 163000 38300 54600 76500 83900 121000 230000 271000 331000 390000
2020-07-14 04:30 15.34 54900 444000 (1993) 33100 (1988) 163000 38300 54600 76500 83900 121000 230000 271000 331000 390000
2020-07-14 04:00 15.34 54900 444000 (1993) 33100 (1988) 163000 38300 54600 76500 83900 121000 230000 271000 331000 390000
2020-07-14 03:30 15.33 53500 444000 (1993) 33100 (1988) 163000 38300 54600 76500 83900 121000 230000 271000 331000 390000
2020-07-14 03:00 15.34 444000 (1993) 33100 (1988) 163000 38300 54600 76500 83900 121000 230000 271000 331000 390000
2020-07-14 02:30 15.33 53500 444000 (1993) 33100 (1988) 163000 38300 54600 76500 83900 121000 230000 271000 331000 390000
2020-07-14 02:00 15.33 53500 444000 (1993) 33100 (1988) 163000 38300 54600 76500 83900 121000 230000 271000 331000 390000
2020-07-14 01:30 15.32 52100 444000 (1993) 33100 (1988) 163000 38300 54600 76500 83900 121000 230000 271000 331000 390000
2020-07-14 01:00 15.33 53500 444000 (1993) 33100 (1988) 163000 38300 54600 76500 83900 121000 230000 271000 331000 390000
2020-07-14 00:30 15.32 52100 444000 (1993) 33100 (1988) 163000 38300 54600 76500 83900 121000 230000 271000 331000 390000
2020-07-14 00:00 15.35 444000 (1993) 33100 (1988) 163000 38300 54600 76500 83900 121000 230000 271000 331000 390000
2020-07-13 23:30 15.32 436000 (1993) 35600 (1988) 169000 39200 60200 73100 80000 135000 234000 280000 330000 391000
2020-07-13 23:00 15.31 50700 436000 (1993) 35600 (1988) 169000 39200 60200 73100 80000 135000 234000 280000 330000 391000
2020-07-13 22:30 15.30 49300 436000 (1993) 35600 (1988) 169000 39200 60200 73100 80000 135000 234000 280000 330000 391000
2020-07-13 22:00 15.29 47800 436000 (1993) 35600 (1988) 169000 39200 60200 73100 80000 135000 234000 280000 330000 391000
2020-07-13 21:30 15.29 48000 436000 (1993) 35600 (1988) 169000 39200 60200 73100 80000 135000 234000 280000 330000 391000
2020-07-13 21:00 15.29 48200 436000 (1993) 35600 (1988) 169000 39200 60200 73100 80000 135000 234000 280000 330000 391000
2020-07-13 20:30 15.29 48100 436000 (1993) 35600 (1988) 169000 39200 60200 73100 80000 135000 234000 280000 330000 391000
2020-07-13 20:00 15.29 48200 436000 (1993) 35600 (1988) 169000 39200 60200 73100 80000 135000 234000 280000 330000 391000
2020-07-13 19:30 15.29 436000 (1993) 35600 (1988) 169000 39200 60200 73100 80000 135000 234000 280000 330000 391000
2020-07-13 19:00 15.31 51100 436000 (1993) 35600 (1988) 169000 39200 60200 73100 80000 135000 234000 280000 330000 391000
2020-07-13 18:30 15.29 436000 (1993) 35600 (1988) 169000 39200 60200 73100 80000 135000 234000 280000 330000 391000
2020-07-13 18:00 15.30 436000 (1993) 35600 (1988) 169000 39200 60200 73100 80000 135000 234000 280000 330000 391000
2020-07-13 17:30 15.32 52400 436000 (1993) 35600 (1988) 169000 39200 60200 73100 80000 135000 234000 280000 330000 391000
2020-07-13 17:00 15.34 436000 (1993) 35600 (1988) 169000 39200 60200 73100 80000 135000 234000 280000 330000 391000
2020-07-13 16:30 15.32 52200 436000 (1993) 35600 (1988) 169000 39200 60200 73100 80000 135000 234000 280000 330000 391000
2020-07-13 16:00 15.33 436000 (1993) 35600 (1988) 169000 39200 60200 73100 80000 135000 234000 280000 330000 391000
2020-07-13 15:30 15.33 436000 (1993) 35600 (1988) 169000 39200 60200 73100 80000 135000 234000 280000 330000 391000
2020-07-13 15:00 15.32 52300 436000 (1993) 35600 (1988) 169000 39200 60200 73100 80000 135000 234000 280000 330000 391000
2020-07-13 14:30 15.32 52300 436000 (1993) 35600 (1988) 169000 39200 60200 73100 80000 135000 234000 280000 330000 391000
2020-07-13 14:00 15.32 436000 (1993) 35600 (1988) 169000 39200 60200 73100 80000 135000 234000 280000 330000 391000
2020-07-13 13:30 15.31 50800 436000 (1993) 35600 (1988) 169000 39200 60200 73100 80000 135000 234000 280000 330000 391000
2020-07-13 13:00 15.30 436000 (1993) 35600 (1988) 169000 39200 60200 73100 80000 135000 234000 280000 330000 391000
2020-07-13 12:30 15.31 50800 436000 (1993) 35600 (1988) 169000 39200 60200 73100 80000 135000 234000 280000 330000 391000
2020-07-13 12:00 15.31 50800 436000 (1993) 35600 (1988) 169000 39200 60200 73100 80000 135000 234000 280000 330000 391000
2020-07-13 11:30 15.32 436000 (1993) 35600 (1988) 169000 39200 60200 73100 80000 135000 234000 280000 330000 391000
2020-07-13 11:00 15.31 51000 436000 (1993) 35600 (1988) 169000 39200 60200 73100 80000 135000 234000 280000 330000 391000
2020-07-13 10:30 15.30 49500 436000 (1993) 35600 (1988) 169000 39200 60200 73100 80000 135000 234000 280000 330000 391000
2020-07-13 10:00 15.30 49500 436000 (1993) 35600 (1988) 169000 39200 60200 73100 80000 135000 234000 280000 330000 391000
2020-07-13 09:30 15.31 436000 (1993) 35600 (1988) 169000 39200 60200 73100 80000 135000 234000 280000 330000 391000
2020-07-13 09:00 15.30 49500 436000 (1993) 35600 (1988) 169000 39200 60200 73100 80000 135000 234000 280000 330000 391000
2020-07-13 08:30 15.30 49500 436000 (1993) 35600 (1988) 169000 39200 60200 73100 80000 135000 234000 280000 330000 391000
2020-07-13 08:00 15.30 49500 436000 (1993) 35600 (1988) 169000 39200 60200 73100 80000 135000 234000 280000 330000 391000
2020-07-13 07:30 15.28 436000 (1993) 35600 (1988) 169000 39200 60200 73100 80000 135000 234000 280000 330000 391000
2020-07-13 07:00 15.30 49600 436000 (1993) 35600 (1988) 169000 39200 60200 73100 80000 135000 234000 280000 330000 391000
2020-07-13 06:30 15.29 48100 436000 (1993) 35600 (1988) 169000 39200 60200 73100 80000 135000 234000 280000 330000 391000
2020-07-13 06:00 15.29 48200 436000 (1993) 35600 (1988) 169000 39200 60200 73100 80000 135000 234000 280000 330000 391000
2020-07-13 05:30 15.29 436000 (1993) 35600 (1988) 169000 39200 60200 73100 80000 135000 234000 280000 330000 391000
2020-07-13 05:00 15.30 436000 (1993) 35600 (1988) 169000 39200 60200 73100 80000 135000 234000 280000 330000 391000
2020-07-13 04:30 15.27 45200 436000 (1993) 35600 (1988) 169000 39200 60200 73100 80000 135000 234000 280000 330000 391000
2020-07-13 04:00 15.28 436000 (1993) 35600 (1988) 169000 39200 60200 73100 80000 135000 234000 280000 330000 391000
2020-07-13 03:30 15.25 42400 436000 (1993) 35600 (1988) 169000 39200 60200 73100 80000 135000 234000 280000 330000 391000
2020-07-13 03:00 15.25 42500 436000 (1993) 35600 (1988) 169000 39200 60200 73100 80000 135000 234000 280000 330000 391000
2020-07-13 02:30 15.26 436000 (1993) 35600 (1988) 169000 39200 60200 73100 80000 135000 234000 280000 330000 391000
2020-07-13 02:00 15.24 41000 436000 (1993) 35600 (1988) 169000 39200 60200 73100 80000 135000 234000 280000 330000 391000
2020-07-13 01:30 15.24 41200 436000 (1993) 35600 (1988) 169000 39200 60200 73100 80000 135000 234000 280000 330000 391000
2020-07-13 01:00 15.25 436000 (1993) 35600 (1988) 169000 39200 60200 73100 80000 135000 234000 280000 330000 391000
2020-07-13 00:30 15.24 41200 436000 (1993) 35600 (1988) 169000 39200 60200 73100 80000 135000 234000 280000 330000 391000
2020-07-13 00:00 15.23 39700 436000 (1993) 35600 (1988) 169000 39200 60200 73100 80000 135000 234000 280000 330000 391000
2020-07-12 23:30 15.24 41200 431000 (1993) 36000 (1988) 173000 37800 57000 77600 90400 161000 240000 288000 327000 393000
2020-07-12 23:00 15.23 39700 431000 (1993) 36000 (1988) 173000 37800 57000 77600 90400 161000 240000 288000 327000 393000
2020-07-12 22:30 15.23 39700 431000 (1993) 36000 (1988) 173000 37800 57000 77600 90400 161000 240000 288000 327000 393000
2020-07-12 22:00 15.25 431000 (1993) 36000 (1988) 173000 37800 57000 77600 90400 161000 240000 288000 327000 393000
2020-07-12 21:30 15.24 41200 431000 (1993) 36000 (1988) 173000 37800 57000 77600 90400 161000 240000 288000 327000 393000
2020-07-12 21:00 15.22 431000 (1993) 36000 (1988) 173000 37800 57000 77600 90400 161000 240000 288000 327000 393000
2020-07-12 20:30 15.25 42600 431000 (1993) 36000 (1988) 173000 37800 57000 77600 90400 161000 240000 288000 327000 393000
2020-07-12 20:00 15.25 431000 (1993) 36000 (1988) 173000 37800 57000 77600 90400 161000 240000 288000 327000 393000
2020-07-12 19:30 15.28 431000 (1993) 36000 (1988) 173000 37800 57000 77600 90400 161000 240000 288000 327000 393000
2020-07-12 19:00 15.27 45600 431000 (1993) 36000 (1988) 173000 37800 57000 77600 90400 161000 240000 288000 327000 393000
2020-07-12 18:30 15.27 45600 431000 (1993) 36000 (1988) 173000 37800 57000 77600 90400 161000 240000 288000 327000 393000
2020-07-12 18:00 15.28 47100 431000 (1993) 36000 (1988) 173000 37800 57000 77600 90400 161000 240000 288000 327000 393000
2020-07-12 17:30 15.28 47100 431000 (1993) 36000 (1988) 173000 37800 57000 77600 90400 161000 240000 288000 327000 393000
2020-07-12 17:00 15.27 45600 431000 (1993) 36000 (1988) 173000 37800 57000 77600 90400 161000 240000 288000 327000 393000
2020-07-12 16:30 15.26 431000 (1993) 36000 (1988) 173000 37800 57000 77600 90400 161000 240000 288000 327000 393000
2020-07-12 16:00 15.31 51700 431000 (1993) 36000 (1988) 173000 37800 57000 77600 90400 161000 240000 288000 327000 393000
2020-07-12 15:30 15.28 431000 (1993) 36000 (1988) 173000 37800 57000 77600 90400 161000 240000 288000 327000 393000
2020-07-12 15:00 15.23 431000 (1993) 36000 (1988) 173000 37800 57000 77600 90400 161000 240000 288000 327000 393000
2020-07-12 14:30 15.35 431000 (1993) 36000 (1988) 173000 37800 57000 77600 90400 161000 240000 288000 327000 393000
2020-07-12 14:00 15.35 431000 (1993) 36000 (1988) 173000 37800 57000 77600 90400 161000 240000 288000 327000 393000
2020-07-12 13:30 15.27 431000 (1993) 36000 (1988) 173000 37800 57000 77600 90400 161000 240000 288000 327000 393000
2020-07-12 13:00 15.32 52800 431000 (1993) 36000 (1988) 173000 37800 57000 77600 90400 161000 240000 288000 327000 393000
2020-07-12 12:30 15.34 431000 (1993) 36000 (1988) 173000 37800 57000 77600 90400 161000 240000 288000 327000 393000
2020-07-12 12:00 15.33 54300 431000 (1993) 36000 (1988) 173000 37800 57000 77600 90400 161000 240000 288000 327000 393000
2020-07-12 11:30 15.30 431000 (1993) 36000 (1988) 173000 37800 57000 77600 90400 161000 240000 288000 327000 393000
2020-07-12 11:00 15.32 52800 431000 (1993) 36000 (1988) 173000 37800 57000 77600 90400 161000 240000 288000 327000 393000
2020-07-12 10:30 15.33 54300 431000 (1993) 36000 (1988) 173000 37800 57000 77600 90400 161000 240000 288000 327000 393000
2020-07-12 10:00 15.33 54200 431000 (1993) 36000 (1988) 173000 37800 57000 77600 90400 161000 240000 288000 327000 393000
2020-07-12 09:30 15.34 55700 431000 (1993) 36000 (1988) 173000 37800 57000 77600 90400 161000 240000 288000 327000 393000
2020-07-12 09:00 15.33 54300 431000 (1993) 36000 (1988) 173000 37800 57000 77600 90400 161000 240000 288000 327000 393000
2020-07-12 08:30 15.33 431000 (1993) 36000 (1988) 173000 37800 57000 77600 90400 161000 240000 288000 327000 393000
2020-07-12 08:00 15.35 431000 (1993) 36000 (1988) 173000 37800 57000 77600 90400 161000 240000 288000 327000 393000
2020-07-12 07:30 15.32 431000 (1993) 36000 (1988) 173000 37800 57000 77600 90400 161000 240000 288000 327000 393000
2020-07-12 07:00 15.35 57200 431000 (1993) 36000 (1988) 173000 37800 57000 77600 90400 161000 240000 288000 327000 393000
2020-07-12 06:30 15.35 57100 431000 (1993) 36000 (1988) 173000 37800 57000 77600 90400 161000 240000 288000 327000 393000
2020-07-12 06:00 15.32 431000 (1993) 36000 (1988) 173000 37800 57000 77600 90400 161000 240000 288000 327000 393000
2020-07-12 05:30 15.34 431000 (1993) 36000 (1988) 173000 37800 57000 77600 90400 161000 240000 288000 327000 393000
2020-07-12 05:00 15.36 58400 431000 (1993) 36000 (1988) 173000 37800 57000 77600 90400 161000 240000 288000 327000 393000
2020-07-12 04:30 15.36 431000 (1993) 36000 (1988) 173000 37800 57000 77600 90400 161000 240000 288000 327000 393000
2020-07-12 04:00 15.36 58400 431000 (1993) 36000 (1988) 173000 37800 57000 77600 90400 161000 240000 288000 327000 393000
2020-07-12 03:30 15.37 431000 (1993) 36000 (1988) 173000 37800 57000 77600 90400 161000 240000 288000 327000 393000
2020-07-12 03:00 15.37 431000 (1993) 36000 (1988) 173000 37800 57000 77600 90400 161000 240000 288000 327000 393000
2020-07-12 02:30 15.38 431000 (1993) 36000 (1988) 173000 37800 57000 77600 90400 161000 240000 288000 327000 393000
2020-07-12 02:00 15.35 56600 431000 (1993) 36000 (1988) 173000 37800 57000 77600 90400 161000 240000 288000 327000 393000
2020-07-12 01:30 15.34 431000 (1993) 36000 (1988) 173000 37800 57000 77600 90400 161000 240000 288000 327000 393000
2020-07-12 01:00 15.35 431000 (1993) 36000 (1988) 173000 37800 57000 77600 90400 161000 240000 288000 327000 393000
2020-07-12 00:30 15.33 431000 (1993) 36000 (1988) 173000 37800 57000 77600 90400 161000 240000 288000 327000 393000
2020-07-12 00:00 15.31 50800 431000 (1993) 36000 (1988) 173000 37800 57000 77600 90400 161000 240000 288000 327000 393000
2020-07-11 23:30 15.30 49300 427000 (1993) 29800 (1988) 174000 35600 51900 78400 97300 159000 248000 295000 331000 393000
2020-07-11 23:00 15.30 49700 427000 (1993) 29800 (1988) 174000 35600 51900 78400 97300 159000 248000 295000 331000 393000
2020-07-11 22:30 15.27 427000 (1993) 29800 (1988) 174000 35600 51900 78400 97300 159000 248000 295000 331000 393000
2020-07-11 22:00 15.31 52500 427000 (1993) 29800 (1988) 174000 35600 51900 78400 97300 159000 248000 295000 331000 393000
2020-07-11 21:30 15.31 52400 427000 (1993) 29800 (1988) 174000 35600 51900 78400 97300 159000 248000 295000 331000 393000
2020-07-11 21:00 15.30 427000 (1993) 29800 (1988) 174000 35600 51900 78400 97300 159000 248000 295000 331000 393000
2020-07-11 20:30 15.30 427000 (1993) 29800 (1988) 174000 35600 51900 78400 97300 159000 248000 295000 331000 393000
2020-07-11 20:00 15.33 55300 427000 (1993) 29800 (1988) 174000 35600 51900 78400 97300 159000 248000 295000 331000 393000
2020-07-11 19:30 15.33 427000 (1993) 29800 (1988) 174000 35600 51900 78400 97300 159000 248000 295000 331000 393000
2020-07-11 19:00 15.31 427000 (1993) 29800 (1988) 174000 35600 51900 78400 97300 159000 248000 295000 331000 393000
2020-07-11 18:30 15.37 427000 (1993) 29800 (1988) 174000 35600 51900 78400 97300 159000 248000 295000 331000 393000
2020-07-11 18:00 15.35 57900 427000 (1993) 29800 (1988) 174000 35600 51900 78400 97300 159000 248000 295000 331000 393000
2020-07-11 17:30 15.40 427000 (1993) 29800 (1988) 174000 35600 51900 78400 97300 159000 248000 295000 331000 393000
2020-07-11 17:00 15.36 58000 427000 (1993) 29800 (1988) 174000 35600 51900 78400 97300 159000 248000 295000 331000 393000
2020-07-11 16:30 15.37 427000 (1993) 29800 (1988) 174000 35600 51900 78400 97300 159000 248000 295000 331000 393000
2020-07-11 16:00 15.36 427000 (1993) 29800 (1988) 174000 35600 51900 78400 97300 159000 248000 295000 331000 393000
2020-07-11 15:30 15.29 48000 427000 (1993) 29800 (1988) 174000 35600 51900 78400 97300 159000 248000 295000 331000 393000
2020-07-11 15:00 15.39 427000 (1993) 29800 (1988) 174000 35600 51900 78400 97300 159000 248000 295000 331000 393000
2020-07-11 14:30 15.21 427000 (1993) 29800 (1988) 174000 35600 51900 78400 97300 159000 248000 295000 331000 393000
2020-07-11 14:00 15.27 427000 (1993) 29800 (1988) 174000 35600 51900 78400 97300 159000 248000 295000 331000 393000
2020-07-11 13:30 15.31 52300 427000 (1993) 29800 (1988) 174000 35600 51900 78400 97300 159000 248000 295000 331000 393000
2020-07-11 13:00 15.31 53000 427000 (1993) 29800 (1988) 174000 35600 51900 78400 97300 159000 248000 295000 331000 393000
2020-07-11 12:30 15.26 427000 (1993) 29800 (1988) 174000 35600 51900 78400 97300 159000 248000 295000 331000 393000
2020-07-11 12:00 15.33 57000 427000 (1993) 29800 (1988) 174000 35600 51900 78400 97300 159000 248000 295000 331000 393000
2020-07-11 11:30 15.32 55400 427000 (1993) 29800 (1988) 174000 35600 51900 78400 97300 159000 248000 295000 331000 393000
2020-07-11 11:00 15.35 60200 427000 (1993) 29800 (1988) 174000 35600 51900 78400 97300 159000 248000 295000 331000 393000
2020-07-11 10:30 15.34 427000 (1993) 29800 (1988) 174000 35600 51900 78400 97300 159000 248000 295000 331000 393000
2020-07-11 10:00 15.36 427000 (1993) 29800 (1988) 174000 35600 51900 78400 97300 159000 248000 295000 331000 393000
2020-07-11 09:30 15.36 427000 (1993) 29800 (1988) 174000 35600 51900 78400 97300 159000 248000 295000 331000 393000
2020-07-11 09:00 15.38 65500 427000 (1993) 29800 (1988) 174000 35600 51900 78400 97300 159000 248000 295000 331000 393000
2020-07-11 08:30 15.40 68800 427000 (1993) 29800 (1988) 174000 35600 51900 78400 97300 159000 248000 295000 331000 393000
2020-07-11 08:00 15.41 427000 (1993) 29800 (1988) 174000 35600 51900 78400 97300 159000 248000 295000 331000 393000
2020-07-11 07:30 15.42 427000 (1993) 29800 (1988) 174000 35600 51900 78400 97300 159000 248000 295000 331000 393000
2020-07-11 07:00 15.44 74400 427000 (1993) 29800 (1988) 174000 35600 51900 78400 97300 159000 248000 295000 331000 393000
2020-07-11 06:30 15.46 77600 427000 (1993) 29800 (1988) 174000 35600 51900 78400 97300 159000 248000 295000 331000 393000
2020-07-11 06:00 15.49 82300 427000 (1993) 29800 (1988) 174000 35600 51900 78400 97300 159000 248000 295000 331000 393000
2020-07-11 05:30 15.48 80500 427000 (1993) 29800 (1988) 174000 35600 51900 78400 97300 159000 248000 295000 331000 393000
2020-07-11 05:00 15.48 427000 (1993) 29800 (1988) 174000 35600 51900 78400 97300 159000 248000 295000 331000 393000
2020-07-11 04:30 15.49 427000 (1993) 29800 (1988) 174000 35600 51900 78400 97300 159000 248000 295000 331000 393000
2020-07-11 04:00 15.51 427000 (1993) 29800 (1988) 174000 35600 51900 78400 97300 159000 248000 295000 331000 393000
2020-07-11 03:30 15.53 88100 427000 (1993) 29800 (1988) 174000 35600 51900 78400 97300 159000 248000 295000 331000 393000
2020-07-11 03:00 15.55 91200 427000 (1993) 29800 (1988) 174000 35600 51900 78400 97300 159000 248000 295000 331000 393000
2020-07-11 02:30 15.55 427000 (1993) 29800 (1988) 174000 35600 51900 78400 97300 159000 248000 295000 331000 393000
2020-07-11 02:00 15.55 427000 (1993) 29800 (1988) 174000 35600 51900 78400 97300 159000 248000 295000 331000 393000
2020-07-11 01:30 15.57 94100 427000 (1993) 29800 (1988) 174000 35600 51900 78400 97300 159000 248000 295000 331000 393000
2020-07-11 01:00 15.55 427000 (1993) 29800 (1988) 174000 35600 51900 78400 97300 159000 248000 295000 331000 393000
2020-07-11 00:30 15.62 427000 (1993) 29800 (1988) 174000 35600 51900 78400 97300 159000 248000 295000 331000 393000
2020-07-11 00:00 15.60 98000 427000 (1993) 29800 (1988) 174000 35600 51900 78400 97300 159000 248000 295000 331000 393000
2020-07-10 23:30 15.61 423000 (1993) 25600 (1988) 179000 33900 54200 86900 103000 157000 257000 298000 329000 390000
2020-07-10 23:00 15.62 102000 423000 (1993) 25600 (1988) 179000 33900 54200 86900 103000 157000 257000 298000 329000 390000
2020-07-10 22:30 15.63 423000 (1993) 25600 (1988) 179000 33900 54200 86900 103000 157000 257000 298000 329000 390000
2020-07-10 22:00 15.64 423000 (1993) 25600 (1988) 179000 33900 54200 86900 103000 157000 257000 298000 329000 390000
2020-07-10 21:30 15.64 103000 423000 (1993) 25600 (1988) 179000 33900 54200 86900 103000 157000 257000 298000 329000 390000
2020-07-10 21:00 15.66 106000 423000 (1993) 25600 (1988) 179000 33900 54200 86900 103000 157000 257000 298000 329000 390000
2020-07-10 20:30 15.67 107000 423000 (1993) 25600 (1988) 179000 33900 54200 86900 103000 157000 257000 298000 329000 390000
2020-07-10 20:00 15.67 423000 (1993) 25600 (1988) 179000 33900 54200 86900 103000 157000 257000 298000 329000 390000
2020-07-10 19:30 15.66 423000 (1993) 25600 (1988) 179000 33900 54200 86900 103000 157000 257000 298000 329000 390000
2020-07-10 19:00 15.68 108000 423000 (1993) 25600 (1988) 179000 33900 54200 86900 103000 157000 257000 298000 329000 390000
2020-07-10 18:30 15.71 423000 (1993) 25600 (1988) 179000 33900 54200 86900 103000 157000 257000 298000 329000 390000
2020-07-10 18:00 15.71 423000 (1993) 25600 (1988) 179000 33900 54200 86900 103000 157000 257000 298000 329000 390000
2020-07-10 17:30 15.67 106000 423000 (1993) 25600 (1988) 179000 33900 54200 86900 103000 157000 257000 298000 329000 390000
2020-07-10 17:00 15.68 423000 (1993) 25600 (1988) 179000 33900 54200 86900 103000 157000 257000 298000 329000 390000
2020-07-10 16:30 15.60 423000 (1993) 25600 (1988) 179000 33900 54200 86900 103000 157000 257000 298000 329000 390000
2020-07-10 16:00 15.66 423000 (1993) 25600 (1988) 179000 33900 54200 86900 103000 157000 257000 298000 329000 390000
2020-07-10 15:30 15.63 103000 423000 (1993) 25600 (1988) 179000 33900 54200 86900 103000 157000 257000 298000 329000 390000
2020-07-10 15:00 15.60 423000 (1993) 25600 (1988) 179000 33900 54200 86900 103000 157000 257000 298000 329000 390000
2020-07-10 14:30 15.63 105000 423000 (1993) 25600 (1988) 179000 33900 54200 86900 103000 157000 257000 298000 329000 390000
2020-07-10 14:00 15.63 106000 423000 (1993) 25600 (1988) 179000 33900 54200 86900 103000 157000 257000 298000 329000 390000
2020-07-10 13:30 15.65 108000 423000 (1993) 25600 (1988) 179000 33900 54200 86900 103000 157000 257000 298000 329000 390000
2020-07-10 13:00 15.64 107000 423000 (1993) 25600 (1988) 179000 33900 54200 86900 103000 157000 257000 298000 329000 390000
2020-07-10 12:30 15.66 109000 423000 (1993) 25600 (1988) 179000 33900 54200 86900 103000 157000 257000 298000 329000 390000
2020-07-10 12:00 15.63 423000 (1993) 25600 (1988) 179000 33900 54200 86900 103000 157000 257000 298000 329000 390000
2020-07-10 11:30 15.65 108000 423000 (1993) 25600 (1988) 179000 33900 54200 86900 103000 157000 257000 298000 329000 390000
2020-07-10 11:00 15.65 423000 (1993) 25600 (1988) 179000 33900 54200 86900 103000 157000 257000 298000 329000 390000
2020-07-10 10:30 15.67 110000 423000 (1993) 25600 (1988) 179000 33900 54200 86900 103000 157000 257000 298000 329000 390000
2020-07-10 10:00 15.67 110000 423000 (1993) 25600 (1988) 179000 33900 54200 86900 103000 157000 257000 298000 329000 390000
2020-07-10 09:30 15.68 111000 423000 (1993) 25600 (1988) 179000 33900 54200 86900 103000 157000 257000 298000 329000 390000
2020-07-10 09:00 15.69 112000 423000 (1993) 25600 (1988) 179000 33900 54200 86900 103000 157000 257000 298000 329000 390000
2020-07-10 08:30 15.70 423000 (1993) 25600 (1988) 179000 33900 54200 86900 103000 157000 257000 298000 329000 390000
2020-07-10 08:00 15.67 423000 (1993) 25600 (1988) 179000 33900 54200 86900 103000 157000 257000 298000 329000 390000
2020-07-10 07:30 15.68 111000 423000 (1993) 25600 (1988) 179000 33900 54200 86900 103000 157000 257000 298000 329000 390000
2020-07-10 07:00 15.68 111000 423000 (1993) 25600 (1988) 179000 33900 54200 86900 103000 157000 257000 298000 329000 390000
2020-07-10 06:30 15.68 423000 (1993) 25600 (1988) 179000 33900 54200 86900 103000 157000 257000 298000 329000 390000
2020-07-10 06:00 15.70 423000 (1993) 25600 (1988) 179000 33900 54200 86900 103000 157000 257000 298000 329000 390000
2020-07-10 05:30 15.68 111000 423000 (1993) 25600 (1988) 179000 33900 54200 86900 103000 157000 257000 298000 329000 390000
2020-07-10 05:00 15.68 111000 423000 (1993) 25600 (1988) 179000 33900 54200 86900 103000 157000 257000 298000 329000 390000
2020-07-10 04:30 15.68 111000 423000 (1993) 25600 (1988) 179000 33900 54200 86900 103000 157000 257000 298000 329000 390000
2020-07-10 04:00 15.68 111000 423000 (1993) 25600 (1988) 179000 33900 54200 86900 103000 157000 257000 298000 329000 390000
2020-07-10 03:30 15.70 423000 (1993) 25600 (1988) 179000 33900 54200 86900 103000 157000 257000 298000 329000 390000
2020-07-10 03:00 15.68 111000 423000 (1993) 25600 (1988) 179000 33900 54200 86900 103000 157000 257000 298000 329000 390000
2020-07-10 02:30 15.69 112000 423000 (1993) 25600 (1988) 179000 33900 54200 86900 103000 157000 257000 298000 329000 390000
2020-07-10 02:00 15.69 423000 (1993) 25600 (1988) 179000 33900 54200 86900 103000 157000 257000 298000 329000 390000
2020-07-10 01:30 15.68 111000 423000 (1993) 25600 (1988) 179000 33900 54200 86900 103000 157000 257000 298000 329000 390000
2020-07-10 01:00 15.69 423000 (1993) 25600 (1988) 179000 33900 54200 86900 103000 157000 257000 298000 329000 390000
2020-07-10 00:30 15.67 110000 423000 (1993) 25600 (1988) 179000 33900 54200 86900 103000 157000 257000 298000 329000 390000
2020-07-10 00:00 15.66 109000 423000 (1993) 25600 (1988) 179000 33900 54200 86900 103000 157000 257000 298000 329000 390000
2020-07-09 23:30 15.67 413000 (1993) 23900 (1988) 180000 31400 59400 91300 93800 153000 265000 292000 328000 381000
2020-07-09 23:00 15.65 108000 413000 (1993) 23900 (1988) 180000 31400 59400 91300 93800 153000 265000 292000 328000 381000
2020-07-09 22:30 15.65 413000 (1993) 23900 (1988) 180000 31400 59400 91300 93800 153000 265000 292000 328000 381000
2020-07-09 22:00 15.65 108000 413000 (1993) 23900 (1988) 180000 31400 59400 91300 93800 153000 265000 292000 328000 381000
2020-07-09 21:30 15.63 413000 (1993) 23900 (1988) 180000 31400 59400 91300 93800 153000 265000 292000 328000 381000
2020-07-09 21:00 15.65 108000 413000 (1993) 23900 (1988) 180000 31400 59400 91300 93800 153000 265000 292000 328000 381000
2020-07-09 20:30 15.65 413000 (1993) 23900 (1988) 180000 31400 59400 91300 93800 153000 265000 292000 328000 381000
2020-07-09 20:00 15.69 413000 (1993) 23900 (1988) 180000 31400 59400 91300 93800 153000 265000 292000 328000 381000
2020-07-09 19:30 15.64 107000 413000 (1993) 23900 (1988) 180000 31400 59400 91300 93800 153000 265000 292000 328000 381000
2020-07-09 19:00 15.63 413000 (1993) 23900 (1988) 180000 31400 59400 91300 93800 153000 265000 292000 328000 381000
2020-07-09 18:30 15.61 413000 (1993) 23900 (1988) 180000 31400 59400 91300 93800 153000 265000 292000 328000 381000
2020-07-09 18:00 15.63 106000 413000 (1993) 23900 (1988) 180000 31400 59400 91300 93800 153000 265000 292000 328000 381000
2020-07-09 17:30 15.65 413000 (1993) 23900 (1988) 180000 31400 59400 91300 93800 153000 265000 292000 328000 381000
2020-07-09 17:00 15.65 108000 413000 (1993) 23900 (1988) 180000 31400 59400 91300 93800 153000 265000 292000 328000 381000
2020-07-09 16:30 15.60 413000 (1993) 23900 (1988) 180000 31400 59400 91300 93800 153000 265000 292000 328000 381000
2020-07-09 16:00 15.64 107000 413000 (1993) 23900 (1988) 180000 31400 59400 91300 93800 153000 265000 292000 328000 381000
2020-07-09 15:30 15.65 108000 413000 (1993) 23900 (1988) 180000 31400 59400 91300 93800 153000 265000 292000 328000 381000
2020-07-09 15:00 15.67 413000 (1993) 23900 (1988) 180000 31400 59400 91300 93800 153000 265000 292000 328000 381000
2020-07-09 14:30 15.66 109000 413000 (1993) 23900 (1988) 180000 31400 59400 91300 93800 153000 265000 292000 328000 381000
2020-07-09 14:00 15.67 413000 (1993) 23900 (1988) 180000 31400 59400 91300 93800 153000 265000 292000 328000 381000
2020-07-09 13:30 15.61 413000 (1993) 23900 (1988) 180000 31400 59400 91300 93800 153000 265000 292000 328000 381000
2020-07-09 13:00 15.67 413000 (1993) 23900 (1988) 180000 31400 59400 91300 93800 153000 265000 292000 328000 381000
2020-07-09 12:30 15.65 108000 413000 (1993) 23900 (1988) 180000 31400 59400 91300 93800 153000 265000 292000 328000 381000
2020-07-09 12:00 15.61 413000 (1993) 23900 (1988) 180000 31400 59400 91300 93800 153000 265000 292000 328000 381000
2020-07-09 11:30 15.64 413000 (1993) 23900 (1988) 180000 31400 59400 91300 93800 153000 265000 292000 328000 381000
2020-07-09 11:00 15.66 109000 413000 (1993) 23900 (1988) 180000 31400 59400 91300 93800 153000 265000 292000 328000 381000
2020-07-09 10:30 15.67 110000 413000 (1993) 23900 (1988) 180000 31400 59400 91300 93800 153000 265000 292000 328000 381000
2020-07-09 10:00 15.68 111000 413000 (1993) 23900 (1988) 180000 31400 59400 91300 93800 153000 265000 292000 328000 381000
2020-07-09 09:30 15.69 112000 413000 (1993) 23900 (1988) 180000 31400 59400 91300 93800 153000 265000 292000 328000 381000
2020-07-09 09:00 15.69 413000 (1993) 23900 (1988) 180000 31400 59400 91300 93800 153000 265000 292000 328000 381000
2020-07-09 08:30 15.71 114000 413000 (1993) 23900 (1988) 180000 31400 59400 91300 93800 153000 265000 292000 328000 381000
2020-07-09 08:00 15.73 116000 413000 (1993) 23900 (1988) 180000 31400 59400 91300 93800 153000 265000 292000 328000 381000
2020-07-09 07:30 15.74 118000 413000 (1993) 23900 (1988) 180000 31400 59400 91300 93800 153000 265000 292000 328000 381000
2020-07-09 07:00 15.75 413000 (1993) 23900 (1988) 180000 31400 59400 91300 93800 153000 265000 292000 328000 381000
2020-07-09 06:30 15.75 413000 (1993) 23900 (1988) 180000 31400 59400 91300 93800 153000 265000 292000 328000 381000
2020-07-09 06:00 15.77 413000 (1993) 23900 (1988) 180000 31400 59400 91300 93800 153000 265000 292000 328000 381000
2020-07-09 05:30 15.79 123000 413000 (1993) 23900 (1988) 180000 31400 59400 91300 93800 153000 265000 292000 328000 381000
2020-07-09 05:00 15.80 124000 413000 (1993) 23900 (1988) 180000 31400 59400 91300 93800 153000 265000 292000 328000 381000
2020-07-09 04:30 15.80 413000 (1993) 23900 (1988) 180000 31400 59400 91300 93800 153000 265000 292000 328000 381000
2020-07-09 04:00 15.88 413000 (1993) 23900 (1988) 180000 31400 59400 91300 93800 153000 265000 292000 328000 381000
2020-07-09 03:30 15.82 126000 413000 (1993) 23900 (1988) 180000 31400 59400 91300 93800 153000 265000 292000 328000 381000
2020-07-09 03:00 15.82 413000 (1993) 23900 (1988) 180000 31400 59400 91300 93800 153000 265000 292000 328000 381000
2020-07-09 02:30 15.83 128000 413000 (1993) 23900 (1988) 180000 31400 59400 91300 93800 153000 265000 292000 328000 381000
2020-07-09 02:00 15.84 413000 (1993) 23900 (1988) 180000 31400 59400 91300 93800 153000 265000 292000 328000 381000
2020-07-09 01:30 15.85 130000 413000 (1993) 23900 (1988) 180000 31400 59400 91300 93800 153000 265000 292000 328000 381000
2020-07-09 01:00 15.83 413000 (1993) 23900 (1988) 180000 31400 59400 91300 93800 153000 265000 292000 328000 381000
2020-07-09 00:30 15.85 130000 413000 (1993) 23900 (1988) 180000 31400 59400 91300 93800 153000 265000 292000 328000 381000
2020-07-09 00:00 15.86 131000 413000 (1993) 23900 (1988) 180000 31400 59400 91300 93800 153000 265000 292000 328000 381000
2020-07-08 23:30 15.87 403000 (1993) 29500 (1988) 183000 36800 66600 95700 100000 162000 272000 284000 333000 370000
2020-07-08 23:00 15.86 131000 403000 (1993) 29500 (1988) 183000 36800 66600 95700 100000 162000 272000 284000 333000 370000
2020-07-08 22:30 15.83 403000 (1993) 29500 (1988) 183000 36800 66600 95700 100000 162000 272000 284000 333000 370000
2020-07-08 22:00 15.87 132000 403000 (1993) 29500 (1988) 183000 36800 66600 95700 100000 162000 272000 284000 333000 370000
2020-07-08 21:30 15.86 131000 403000 (1993) 29500 (1988) 183000 36800 66600 95700 100000 162000 272000 284000 333000 370000
2020-07-08 21:00 15.87 403000 (1993) 29500 (1988) 183000 36800 66600 95700 100000 162000 272000 284000 333000 370000
2020-07-08 20:30 15.86 131000 403000 (1993) 29500 (1988) 183000 36800 66600 95700 100000 162000 272000 284000 333000 370000
2020-07-08 20:00 15.85 130000 403000 (1993) 29500 (1988) 183000 36800 66600 95700 100000 162000 272000 284000 333000 370000
2020-07-08 19:30 15.86 131000 403000 (1993) 29500 (1988) 183000 36800 66600 95700 100000 162000 272000 284000 333000 370000
2020-07-08 19:00 15.85 130000 403000 (1993) 29500 (1988) 183000 36800 66600 95700 100000 162000 272000 284000 333000 370000
2020-07-08 18:30 15.85 403000 (1993) 29500 (1988) 183000 36800 66600 95700 100000 162000 272000 284000 333000 370000
2020-07-08 18:00 15.85 403000 (1993) 29500 (1988) 183000 36800 66600 95700 100000 162000 272000 284000 333000 370000
2020-07-08 17:30 15.88 133000 403000 (1993) 29500 (1988) 183000 36800 66600 95700 100000 162000 272000 284000 333000 370000
2020-07-08 17:00 15.86 403000 (1993) 29500 (1988) 183000 36800 66600 95700 100000 162000 272000 284000 333000 370000
2020-07-08 16:30 15.88 133000 403000 (1993) 29500 (1988) 183000 36800 66600 95700 100000 162000 272000 284000 333000 370000
2020-07-08 16:00 15.88 403000 (1993) 29500 (1988) 183000 36800 66600 95700 100000 162000 272000 284000 333000 370000
2020-07-08 15:30 15.88 403000 (1993) 29500 (1988) 183000 36800 66600 95700 100000 162000 272000 284000 333000 370000
2020-07-08 15:00 15.91 136000 403000 (1993) 29500 (1988) 183000 36800 66600 95700 100000 162000 272000 284000 333000 370000
2020-07-08 14:30 15.91 403000 (1993) 29500 (1988) 183000 36800 66600 95700 100000 162000 272000 284000 333000 370000
2020-07-08 14:00 15.91 403000 (1993) 29500 (1988) 183000 36800 66600 95700 100000 162000 272000 284000 333000 370000
2020-07-08 13:30 15.89 403000 (1993) 29500 (1988) 183000 36800 66600 95700 100000 162000 272000 284000 333000 370000
2020-07-08 13:00 15.97 403000 (1993) 29500 (1988) 183000 36800 66600 95700 100000 162000 272000 284000 333000 370000
2020-07-08 12:30 15.94 140000 403000 (1993) 29500 (1988) 183000 36800 66600 95700 100000 162000 272000 284000 333000 370000
2020-07-08 12:00 15.94 403000 (1993) 29500 (1988) 183000 36800 66600 95700 100000 162000 272000 284000 333000 370000
2020-07-08 11:30 15.96 142000 403000 (1993) 29500 (1988) 183000 36800 66600 95700 100000 162000 272000 284000 333000 370000
2020-07-08 11:00 15.97 143000 403000 (1993) 29500 (1988) 183000 36800 66600 95700 100000 162000 272000 284000 333000 370000
2020-07-08 10:30 15.98 403000 (1993) 29500 (1988) 183000 36800 66600 95700 100000 162000 272000 284000 333000 370000
2020-07-08 10:00 15.98 403000 (1993) 29500 (1988) 183000 36800 66600 95700 100000 162000 272000 284000 333000 370000
2020-07-08 09:30 15.99 403000 (1993) 29500 (1988) 183000 36800 66600 95700 100000 162000 272000 284000 333000 370000
2020-07-08 09:00 16.00 146000 403000 (1993) 29500 (1988) 183000 36800 66600 95700 100000 162000 272000 284000 333000 370000
2020-07-08 08:30 16.03 150000 403000 (1993) 29500 (1988) 183000 36800 66600 95700 100000 162000 272000 284000 333000 370000
2020-07-08 08:00 16.03 403000 (1993) 29500 (1988) 183000 36800 66600 95700 100000 162000 272000 284000 333000 370000
2020-07-08 07:30 16.04 151000 403000 (1993) 29500 (1988) 183000 36800 66600 95700 100000 162000 272000 284000 333000 370000
2020-07-08 07:00 16.06 153000 403000 (1993) 29500 (1988) 183000 36800 66600 95700 100000 162000 272000 284000 333000 370000
2020-07-08 06:30 16.07 154000 403000 (1993) 29500 (1988) 183000 36800 66600 95700 100000 162000 272000 284000 333000 370000
2020-07-08 06:00 16.05 403000 (1993) 29500 (1988) 183000 36800 66600 95700 100000 162000 272000 284000 333000 370000
2020-07-08 05:30 16.01 403000 (1993) 29500 (1988) 183000 36800 66600 95700 100000 162000 272000 284000 333000 370000
2020-07-08 05:00 16.07 154000 403000 (1993) 29500 (1988) 183000 36800 66600 95700 100000 162000 272000 284000 333000 370000
2020-07-08 04:30 16.10 157000 403000 (1993) 29500 (1988) 183000 36800 66600 95700 100000 162000 272000 284000 333000 370000
2020-07-08 04:00 16.10 403000 (1993) 29500 (1988) 183000 36800 66600 95700 100000 162000 272000 284000 333000 370000
2020-07-08 03:30 16.12 159000 403000 (1993) 29500 (1988) 183000 36800 66600 95700 100000 162000 272000 284000 333000 370000
2020-07-08 03:00 16.12 403000 (1993) 29500 (1988) 183000 36800 66600 95700 100000 162000 272000 284000 333000 370000
2020-07-08 02:30 16.13 403000 (1993) 29500 (1988) 183000 36800 66600 95700 100000 162000 272000 284000 333000 370000
2020-07-08 02:00 16.12 403000 (1993) 29500 (1988) 183000 36800 66600 95700 100000 162000 272000 284000 333000 370000
2020-07-08 01:30 16.18 166000 403000 (1993) 29500 (1988) 183000 36800 66600 95700 100000 162000 272000 284000 333000 370000
2020-07-08 01:00 16.19 403000 (1993) 29500 (1988) 183000 36800 66600 95700 100000 162000 272000 284000 333000 370000
2020-07-08 00:30 16.19 403000 (1993) 29500 (1988) 183000 36800 66600 95700 100000 162000 272000 284000 333000 370000
2020-07-08 00:00 16.21 169000 403000 (1993) 29500 (1988) 183000 36800 66600 95700 100000 162000 272000 284000 333000 370000
2020-07-07 23:30 16.22 389000 (1993) 34200 (1988) 185000 40900 70900 99200 106000 164000 274000 283000 338000 366000
2020-07-07 23:00 16.23 172000 389000 (1993) 34200 (1988) 185000 40900 70900 99200 106000 164000 274000 283000 338000 366000
2020-07-07 22:30 16.26 175000 389000 (1993) 34200 (1988) 185000 40900 70900 99200 106000 164000 274000 283000 338000 366000
2020-07-07 22:00 16.25 389000 (1993) 34200 (1988) 185000 40900 70900 99200 106000 164000 274000 283000 338000 366000
2020-07-07 21:30 16.27 389000 (1993) 34200 (1988) 185000 40900 70900 99200 106000 164000 274000 283000 338000 366000
2020-07-07 21:00 16.29 178000 389000 (1993) 34200 (1988) 185000 40900 70900 99200 106000 164000 274000 283000 338000 366000
2020-07-07 20:30 16.29 389000 (1993) 34200 (1988) 185000 40900 70900 99200 106000 164000 274000 283000 338000 366000
2020-07-07 20:00 16.30 389000 (1993) 34200 (1988) 185000 40900 70900 99200 106000 164000 274000 283000 338000 366000
2020-07-07 19:30 16.33 182000 389000 (1993) 34200 (1988) 185000 40900 70900 99200 106000 164000 274000 283000 338000 366000
2020-07-07 19:00 16.34 389000 (1993) 34200 (1988) 185000 40900 70900 99200 106000 164000 274000 283000 338000 366000
2020-07-07 18:30 16.39 189000 389000 (1993) 34200 (1988) 185000 40900 70900 99200 106000 164000 274000 283000 338000 366000
2020-07-07 18:00 16.35 389000 (1993) 34200 (1988) 185000 40900 70900 99200 106000 164000 274000 283000 338000 366000
2020-07-07 17:30 16.38 188000 389000 (1993) 34200 (1988) 185000 40900 70900 99200 106000 164000 274000 283000 338000 366000
2020-07-07 17:00 16.42 192000 389000 (1993) 34200 (1988) 185000 40900 70900 99200 106000 164000 274000 283000 338000 366000
2020-07-07 16:30 16.43 389000 (1993) 34200 (1988) 185000 40900 70900 99200 106000 164000 274000 283000 338000 366000
2020-07-07 16:00 16.42 389000 (1993) 34200 (1988) 185000 40900 70900 99200 106000 164000 274000 283000 338000 366000
2020-07-07 15:30 16.46 197000 389000 (1993) 34200 (1988) 185000 40900 70900 99200 106000 164000 274000 283000 338000 366000
2020-07-07 15:00 16.46 389000 (1993) 34200 (1988) 185000 40900 70900 99200 106000 164000 274000 283000 338000 366000
2020-07-07 14:30 16.48 389000 (1993) 34200 (1988) 185000 40900 70900 99200 106000 164000 274000 283000 338000 366000
2020-07-07 14:00 16.48 389000 (1993) 34200 (1988) 185000 40900 70900 99200 106000 164000 274000 283000 338000 366000
2020-07-07 13:30 16.51 202000 389000 (1993) 34200 (1988) 185000 40900 70900 99200 106000 164000 274000 283000 338000 366000
2020-07-07 13:00 16.52 389000 (1993) 34200 (1988) 185000 40900 70900 99200 106000 164000 274000 283000 338000 366000
2020-07-07 12:30 16.55 207000 389000 (1993) 34200 (1988) 185000 40900 70900 99200 106000 164000 274000 283000 338000 366000
2020-07-07 12:00 16.53 389000 (1993) 34200 (1988) 185000 40900 70900 99200 106000 164000 274000 283000 338000 366000
2020-07-07 11:30 16.57 209000 389000 (1993) 34200 (1988) 185000 40900 70900 99200 106000 164000 274000 283000 338000 366000
2020-07-07 11:00 16.57 389000 (1993) 34200 (1988) 185000 40900 70900 99200 106000 164000 274000 283000 338000 366000
2020-07-07 10:30 16.62 211000 389000 (1993) 34200 (1988) 185000 40900 70900 99200 106000 164000 274000 283000 338000 366000
2020-07-07 10:00 16.61 210000 389000 (1993) 34200 (1988) 185000 40900 70900 99200 106000 164000 274000 283000 338000 366000
2020-07-07 09:30 16.65 211000 389000 (1993) 34200 (1988) 185000 40900 70900 99200 106000 164000 274000 283000 338000 366000
2020-07-07 09:00 16.62 211000 389000 (1993) 34200 (1988) 185000 40900 70900 99200 106000 164000 274000 283000 338000 366000
2020-07-07 08:30 16.67 389000 (1993) 34200 (1988) 185000 40900 70900 99200 106000 164000 274000 283000 338000 366000
2020-07-07 08:00 16.69 212000 389000 (1993) 34200 (1988) 185000 40900 70900 99200 106000 164000 274000 283000 338000 366000
2020-07-07 07:30 16.70 212000 389000 (1993) 34200 (1988) 185000 40900 70900 99200 106000 164000 274000 283000 338000 366000
2020-07-07 07:00 16.72 212000 389000 (1993) 34200 (1988) 185000 40900 70900 99200 106000 164000 274000 283000 338000 366000
2020-07-07 06:30 16.73 212000 389000 (1993) 34200 (1988) 185000 40900 70900 99200 106000 164000 274000 283000 338000 366000
2020-07-07 06:00 16.73 212000 389000 (1993) 34200 (1988) 185000 40900 70900 99200 106000 164000 274000 283000 338000 366000
2020-07-07 05:30 16.75 389000 (1993) 34200 (1988) 185000 40900 70900 99200 106000 164000 274000 283000 338000 366000
2020-07-07 05:00 16.77 213000 389000 (1993) 34200 (1988) 185000 40900 70900 99200 106000 164000 274000 283000 338000 366000
2020-07-07 04:30 16.77 213000 389000 (1993) 34200 (1988) 185000 40900 70900 99200 106000 164000 274000 283000 338000 366000
2020-07-07 04:00 16.80 213000 389000 (1993) 34200 (1988) 185000 40900 70900 99200 106000 164000 274000 283000 338000 366000
2020-07-07 03:30 16.84 214000 389000 (1993) 34200 (1988) 185000 40900 70900 99200 106000 164000 274000 283000 338000 366000
2020-07-07 03:00 16.84 214000 389000 (1993) 34200 (1988) 185000 40900 70900 99200 106000 164000 274000 283000 338000 366000
2020-07-07 02:30 16.87 214000 389000 (1993) 34200 (1988) 185000 40900 70900 99200 106000 164000 274000 283000 338000 366000
2020-07-07 02:00 16.90 215000 389000 (1993) 34200 (1988) 185000 40900 70900 99200 106000 164000 274000 283000 338000 366000
2020-07-07 01:30 16.91 389000 (1993) 34200 (1988) 185000 40900 70900 99200 106000 164000 274000 283000 338000 366000
2020-07-07 01:00 16.92 215000 389000 (1993) 34200 (1988) 185000 40900 70900 99200 106000 164000 274000 283000 338000 366000
2020-07-07 00:30 16.95 389000 (1993) 34200 (1988) 185000 40900 70900 99200 106000 164000 274000 283000 338000 366000
2020-07-07 00:00 16.96 216000 389000 (1993) 34200 (1988) 185000 40900 70900 99200 106000 164000 274000 283000 338000 366000

A total of 1461 rows are displayed for years 1987 through 2018.